<?xml version="1.0" encoding="UTF-8"?><gpx creator="Wikiloc - http://www.wikiloc.com" version="1.1" xmlns="http://www.topografix.com/GPX/1/1" xmlns:xsi="http://www.w3.org/2001/XMLSchema-instance" xsi:schemaLocation="http://www.topografix.com/GPX/1/1 http://www.topografix.com/GPX/1/1/gpx.xsd"><wpt lat="40.137242" lon="-5.945189"><ele>0.0</ele><time>2015-09-28T17:44:16Z</time><name>El Torno</name><cmt></cmt><desc></desc></wpt><wpt lat="40.148472" lon="-5.933937"><ele>0.0</ele><time>2015-09-28T17:44:36Z</time><name>Zona de Chozos</name><cmt></cmt><desc></desc></wpt><wpt lat="40.174974" lon="-5.909950"><ele>0.0</ele><time>2015-09-28T17:44:57Z</time><name>Canchal del Maqui</name><cmt></cmt><desc></desc></wpt><wpt lat="40.171612" lon="-5.910679"><ele>0.0</ele><time>2015-09-28T17:45:37Z</time><name>Pinos</name><cmt></cmt><desc></desc></wpt><trk><name>PR-CC 7 Canchal del Maqui (El Torno)</name><cmt></cmt><desc></desc><trkseg><trkpt lat="40.137412" lon="-5.945192"><ele>794.7</ele><time>2013-11-20T07:02:19Z</time></trkpt><trkpt lat="40.137432" lon="-5.945160"><ele>794.6</ele><time>2013-11-20T07:02:34Z</time></trkpt><trkpt lat="40.137472" lon="-5.945053"><ele>794.1</ele><time>2013-11-20T07:02:49Z</time></trkpt><trkpt lat="40.137485" lon="-5.944993"><ele>793.7</ele><time>2013-11-20T07:03:04Z</time></trkpt><trkpt lat="40.137487" lon="-5.944901"><ele>793.0</ele><time>2013-11-20T07:03:18Z</time></trkpt><trkpt lat="40.137536" lon="-5.944821"><ele>793.2</ele><time>2013-11-20T07:03:33Z</time></trkpt><trkpt lat="40.137629" lon="-5.944697"><ele>793.9</ele><time>2013-11-20T07:03:48Z</time></trkpt><trkpt lat="40.137658" lon="-5.944639"><ele>794.0</ele><time>2013-11-20T07:04:03Z</time></trkpt><trkpt lat="40.137694" lon="-5.944646"><ele>794.7</ele><time>2013-11-20T07:04:19Z</time></trkpt><trkpt lat="40.137790" lon="-5.944656"><ele>796.6</ele><time>2013-11-20T07:04:34Z</time></trkpt><trkpt lat="40.137897" lon="-5.944678"><ele>798.8</ele><time>2013-11-20T07:04:49Z</time></trkpt><trkpt lat="40.138002" lon="-5.944706"><ele>801.0</ele><time>2013-11-20T07:05:04Z</time></trkpt><trkpt lat="40.138103" lon="-5.944747"><ele>803.2</ele><time>2013-11-20T07:05:19Z</time></trkpt><trkpt lat="40.138146" lon="-5.944742"><ele>803.9</ele><time>2013-11-20T07:05:33Z</time></trkpt><trkpt lat="40.138179" lon="-5.944749"><ele>804.6</ele><time>2013-11-20T07:05:48Z</time></trkpt><trkpt lat="40.138199" lon="-5.944753"><ele>805.0</ele><time>2013-11-20T07:06:03Z</time></trkpt><trkpt lat="40.138229" lon="-5.944753"><ele>805.6</ele><time>2013-11-20T07:06:18Z</time></trkpt><trkpt lat="40.138325" lon="-5.944745"><ele>807.3</ele><time>2013-11-20T07:06:34Z</time></trkpt><trkpt lat="40.138337" lon="-5.944744"><ele>807.6</ele><time>2013-11-20T07:06:49Z</time></trkpt><trkpt lat="40.138425" lon="-5.944803"><ele>811.1</ele><time>2013-11-20T07:07:04Z</time></trkpt><trkpt lat="40.138542" lon="-5.944803"><ele>815.3</ele><time>2013-11-20T07:07:19Z</time></trkpt><trkpt lat="40.138550" lon="-5.944812"><ele>815.6</ele><time>2013-11-20T07:07:34Z</time></trkpt><trkpt lat="40.138597" lon="-5.944798"><ele>817.2</ele><time>2013-11-20T07:07:48Z</time></trkpt><trkpt lat="40.138634" lon="-5.944775"><ele>818.3</ele><time>2013-11-20T07:08:03Z</time></trkpt><trkpt lat="40.138660" lon="-5.944747"><ele>819.0</ele><time>2013-11-20T07:08:18Z</time></trkpt><trkpt lat="40.138671" lon="-5.944724"><ele>819.2</ele><time>2013-11-20T07:08:33Z</time></trkpt><trkpt lat="40.138671" lon="-5.944695"><ele>819.0</ele><time>2013-11-20T07:08:49Z</time></trkpt><trkpt lat="40.138678" lon="-5.944680"><ele>819.1</ele><time>2013-11-20T07:09:04Z</time></trkpt><trkpt lat="40.138684" lon="-5.944664"><ele>819.2</ele><time>2013-11-20T07:09:19Z</time></trkpt><trkpt lat="40.138779" lon="-5.944397"><ele>820.0</ele><time>2013-11-20T07:09:34Z</time></trkpt><trkpt lat="40.138843" lon="-5.944158"><ele>819.9</ele><time>2013-11-20T07:09:49Z</time></trkpt><trkpt lat="40.138929" lon="-5.943917"><ele>822.0</ele><time>2013-11-20T07:10:03Z</time></trkpt><trkpt lat="40.138999" lon="-5.943681"><ele>823.6</ele><time>2013-11-20T07:10:18Z</time></trkpt><trkpt lat="40.139050" lon="-5.943420"><ele>824.6</ele><time>2013-11-20T07:10:33Z</time></trkpt><trkpt lat="40.139081" lon="-5.943286"><ele>825.3</ele><time>2013-11-20T07:10:48Z</time></trkpt><trkpt lat="40.139079" lon="-5.943271"><ele>825.3</ele><time>2013-11-20T07:11:04Z</time></trkpt><trkpt lat="40.139099" lon="-5.943255"><ele>825.9</ele><time>2013-11-20T07:11:19Z</time></trkpt><trkpt lat="40.139130" lon="-5.943232"><ele>826.9</ele><time>2013-11-20T07:11:34Z</time></trkpt><trkpt lat="40.139182" lon="-5.943257"><ele>828.5</ele><time>2013-11-20T07:11:49Z</time></trkpt><trkpt lat="40.139206" lon="-5.943271"><ele>829.2</ele><time>2013-11-20T07:12:04Z</time></trkpt><trkpt lat="40.139246" lon="-5.943291"><ele>830.4</ele><time>2013-11-20T07:12:18Z</time></trkpt><trkpt lat="40.139402" lon="-5.943268"><ele>835.2</ele><time>2013-11-20T07:12:33Z</time></trkpt><trkpt lat="40.139551" lon="-5.943225"><ele>839.6</ele><time>2013-11-20T07:12:48Z</time></trkpt><trkpt lat="40.139701" lon="-5.943118"><ele>843.5</ele><time>2013-11-20T07:13:03Z</time></trkpt><trkpt lat="40.139844" lon="-5.943024"><ele>847.0</ele><time>2013-11-20T07:13:19Z</time></trkpt><trkpt lat="40.140021" lon="-5.942980"><ele>852.0</ele><time>2013-11-20T07:13:34Z</time></trkpt><trkpt lat="40.140171" lon="-5.942871"><ele>858.0</ele><time>2013-11-20T07:13:49Z</time></trkpt><trkpt lat="40.140243" lon="-5.942737"><ele>859.9</ele><time>2013-11-20T07:14:04Z</time></trkpt><trkpt lat="40.140305" lon="-5.942510"><ele>860.3</ele><time>2013-11-20T07:14:19Z</time></trkpt><trkpt lat="40.140312" lon="-5.942496"><ele>860.5</ele><time>2013-11-20T07:14:33Z</time></trkpt><trkpt lat="40.140317" lon="-5.942483"><ele>860.6</ele><time>2013-11-20T07:14:48Z</time></trkpt><trkpt lat="40.140321" lon="-5.942469"><ele>860.7</ele><time>2013-11-20T07:15:03Z</time></trkpt><trkpt lat="40.140322" lon="-5.942460"><ele>860.7</ele><time>2013-11-20T07:15:18Z</time></trkpt><trkpt lat="40.140346" lon="-5.942411"><ele>861.4</ele><time>2013-11-20T07:15:34Z</time></trkpt><trkpt lat="40.140424" lon="-5.942323"><ele>864.1</ele><time>2013-11-20T07:15:49Z</time></trkpt><trkpt lat="40.140436" lon="-5.942318"><ele>864.6</ele><time>2013-11-20T07:16:04Z</time></trkpt><trkpt lat="40.140449" lon="-5.942312"><ele>865.1</ele><time>2013-11-20T07:16:19Z</time></trkpt><trkpt lat="40.140561" lon="-5.942276"><ele>869.7</ele><time>2013-11-20T07:16:34Z</time></trkpt><trkpt lat="40.140592" lon="-5.942234"><ele>870.8</ele><time>2013-11-20T07:16:48Z</time></trkpt><trkpt lat="40.140603" lon="-5.942225"><ele>871.2</ele><time>2013-11-20T07:17:03Z</time></trkpt><trkpt lat="40.140702" lon="-5.942109"><ele>874.6</ele><time>2013-11-20T07:17:18Z</time></trkpt><trkpt lat="40.140788" lon="-5.941891"><ele>876.7</ele><time>2013-11-20T07:17:33Z</time></trkpt><trkpt lat="40.140854" lon="-5.941732"><ele>878.7</ele><time>2013-11-20T07:17:49Z</time></trkpt><trkpt lat="40.140917" lon="-5.941457"><ele>881.6</ele><time>2013-11-20T07:18:04Z</time></trkpt><trkpt lat="40.140945" lon="-5.941234"><ele>883.1</ele><time>2013-11-20T07:18:19Z</time></trkpt><trkpt lat="40.140933" lon="-5.940992"><ele>882.2</ele><time>2013-11-20T07:18:34Z</time></trkpt><trkpt lat="40.140932" lon="-5.940825"><ele>882.1</ele><time>2013-11-20T07:18:49Z</time></trkpt><trkpt lat="40.140951" lon="-5.940823"><ele>883.3</ele><time>2013-11-20T07:19:03Z</time></trkpt><trkpt lat="40.140963" lon="-5.940810"><ele>884.1</ele><time>2013-11-20T07:19:18Z</time></trkpt><trkpt lat="40.140960" lon="-5.940795"><ele>884.0</ele><time>2013-11-20T07:19:33Z</time></trkpt><trkpt lat="40.140928" lon="-5.940667"><ele>882.9</ele><time>2013-11-20T07:19:48Z</time></trkpt><trkpt lat="40.140930" lon="-5.940649"><ele>883.1</ele><time>2013-11-20T07:20:04Z</time></trkpt><trkpt lat="40.140933" lon="-5.940631"><ele>883.4</ele><time>2013-11-20T07:20:19Z</time></trkpt><trkpt lat="40.140933" lon="-5.940616"><ele>883.5</ele><time>2013-11-20T07:20:34Z</time></trkpt><trkpt lat="40.140936" lon="-5.940600"><ele>883.8</ele><time>2013-11-20T07:20:49Z</time></trkpt><trkpt lat="40.140939" lon="-5.940585"><ele>884.1</ele><time>2013-11-20T07:21:04Z</time></trkpt><trkpt lat="40.140960" lon="-5.940508"><ele>885.8</ele><time>2013-11-20T07:21:18Z</time></trkpt><trkpt lat="40.140970" lon="-5.940467"><ele>886.6</ele><time>2013-11-20T07:21:33Z</time></trkpt><trkpt lat="40.140978" lon="-5.940450"><ele>887.2</ele><time>2013-11-20T07:21:48Z</time></trkpt><trkpt lat="40.140972" lon="-5.940412"><ele>887.1</ele><time>2013-11-20T07:22:03Z</time></trkpt><trkpt lat="40.140998" lon="-5.940161"><ele>890.1</ele><time>2013-11-20T07:22:19Z</time></trkpt><trkpt lat="40.141068" lon="-5.940057"><ele>894.6</ele><time>2013-11-20T07:22:34Z</time></trkpt><trkpt lat="40.141086" lon="-5.940038"><ele>895.7</ele><time>2013-11-20T07:22:49Z</time></trkpt><trkpt lat="40.141112" lon="-5.940045"><ele>897.1</ele><time>2013-11-20T07:23:04Z</time></trkpt><trkpt lat="40.141146" lon="-5.939992"><ele>899.2</ele><time>2013-11-20T07:23:19Z</time></trkpt><trkpt lat="40.141155" lon="-5.939960"><ele>899.4</ele><time>2013-11-20T07:23:33Z</time></trkpt><trkpt lat="40.141239" lon="-5.939733"><ele>901.4</ele><time>2013-11-20T07:23:48Z</time></trkpt><trkpt lat="40.141254" lon="-5.939687"><ele>901.6</ele><time>2013-11-20T07:24:03Z</time></trkpt><trkpt lat="40.141258" lon="-5.939666"><ele>901.6</ele><time>2013-11-20T07:24:18Z</time></trkpt><trkpt lat="40.141268" lon="-5.939605"><ele>901.4</ele><time>2013-11-20T07:24:34Z</time></trkpt><trkpt lat="40.141274" lon="-5.939594"><ele>901.5</ele><time>2013-11-20T07:24:49Z</time></trkpt><trkpt lat="40.141294" lon="-5.939576"><ele>902.2</ele><time>2013-11-20T07:25:04Z</time></trkpt><trkpt lat="40.141308" lon="-5.939550"><ele>902.6</ele><time>2013-11-20T07:25:19Z</time></trkpt><trkpt lat="40.141319" lon="-5.939543"><ele>903.0</ele><time>2013-11-20T07:25:34Z</time></trkpt><trkpt lat="40.141332" lon="-5.939531"><ele>903.5</ele><time>2013-11-20T07:25:48Z</time></trkpt><trkpt lat="40.141340" lon="-5.939518"><ele>903.7</ele><time>2013-11-20T07:26:03Z</time></trkpt><trkpt lat="40.141350" lon="-5.939507"><ele>904.0</ele><time>2013-11-20T07:26:18Z</time></trkpt><trkpt lat="40.141359" lon="-5.939497"><ele>904.3</ele><time>2013-11-20T07:26:33Z</time></trkpt><trkpt lat="40.141364" lon="-5.939484"><ele>904.3</ele><time>2013-11-20T07:26:49Z</time></trkpt><trkpt lat="40.141472" lon="-5.939313"><ele>906.6</ele><time>2013-11-20T07:27:04Z</time></trkpt><trkpt lat="40.141554" lon="-5.939233"><ele>908.7</ele><time>2013-11-20T07:27:19Z</time></trkpt><trkpt lat="40.141568" lon="-5.939233"><ele>909.2</ele><time>2013-11-20T07:27:34Z</time></trkpt><trkpt lat="40.141581" lon="-5.939232"><ele>909.8</ele><time>2013-11-20T07:27:49Z</time></trkpt><trkpt lat="40.141751" lon="-5.939140"><ele>914.3</ele><time>2013-11-20T07:28:03Z</time></trkpt><trkpt lat="40.141763" lon="-5.939134"><ele>914.6</ele><time>2013-11-20T07:28:18Z</time></trkpt><trkpt lat="40.141892" lon="-5.939040"><ele>917.1</ele><time>2013-11-20T07:28:33Z</time></trkpt><trkpt lat="40.141903" lon="-5.939029"><ele>917.3</ele><time>2013-11-20T07:28:48Z</time></trkpt><trkpt lat="40.141914" lon="-5.939018"><ele>917.4</ele><time>2013-11-20T07:29:04Z</time></trkpt><trkpt lat="40.142086" lon="-5.938898"><ele>920.7</ele><time>2013-11-20T07:29:19Z</time></trkpt><trkpt lat="40.142240" lon="-5.938743"><ele>922.8</ele><time>2013-11-20T07:29:34Z</time></trkpt><trkpt lat="40.142337" lon="-5.938578"><ele>922.7</ele><time>2013-11-20T07:29:49Z</time></trkpt><trkpt lat="40.142348" lon="-5.938569"><ele>922.9</ele><time>2013-11-20T07:30:04Z</time></trkpt><trkpt lat="40.142347" lon="-5.938534"><ele>922.2</ele><time>2013-11-20T07:30:18Z</time></trkpt><trkpt lat="40.142362" lon="-5.938529"><ele>922.5</ele><time>2013-11-20T07:30:33Z</time></trkpt><trkpt lat="40.142372" lon="-5.938524"><ele>922.8</ele><time>2013-11-20T07:30:48Z</time></trkpt><trkpt lat="40.142381" lon="-5.938516"><ele>922.9</ele><time>2013-11-20T07:31:03Z</time></trkpt><trkpt lat="40.142392" lon="-5.938501"><ele>922.9</ele><time>2013-11-20T07:31:19Z</time></trkpt><trkpt lat="40.142407" lon="-5.938482"><ele>923.0</ele><time>2013-11-20T07:31:34Z</time></trkpt><trkpt lat="40.142463" lon="-5.938369"><ele>922.6</ele><time>2013-11-20T07:31:49Z</time></trkpt><trkpt lat="40.142475" lon="-5.938332"><ele>922.2</ele><time>2013-11-20T07:32:04Z</time></trkpt><trkpt lat="40.142481" lon="-5.938319"><ele>922.2</ele><time>2013-11-20T07:32:19Z</time></trkpt><trkpt lat="40.142487" lon="-5.938317"><ele>922.4</ele><time>2013-11-20T07:32:33Z</time></trkpt><trkpt lat="40.142512" lon="-5.938298"><ele>923.0</ele><time>2013-11-20T07:32:48Z</time></trkpt><trkpt lat="40.142542" lon="-5.938281"><ele>924.0</ele><time>2013-11-20T07:33:03Z</time></trkpt><trkpt lat="40.142549" lon="-5.938270"><ele>924.1</ele><time>2013-11-20T07:33:18Z</time></trkpt><trkpt lat="40.142556" lon="-5.938258"><ele>924.2</ele><time>2013-11-20T07:33:34Z</time></trkpt><trkpt lat="40.142565" lon="-5.938245"><ele>924.4</ele><time>2013-11-20T07:33:49Z</time></trkpt><trkpt lat="40.142584" lon="-5.938208"><ele>924.7</ele><time>2013-11-20T07:34:04Z</time></trkpt><trkpt lat="40.142592" lon="-5.938196"><ele>924.9</ele><time>2013-11-20T07:34:19Z</time></trkpt><trkpt lat="40.142603" lon="-5.938187"><ele>925.2</ele><time>2013-11-20T07:34:34Z</time></trkpt><trkpt lat="40.142617" lon="-5.938179"><ele>925.6</ele><time>2013-11-20T07:34:48Z</time></trkpt><trkpt lat="40.142631" lon="-5.938172"><ele>926.1</ele><time>2013-11-20T07:35:03Z</time></trkpt><trkpt lat="40.142648" lon="-5.938169"><ele>926.8</ele><time>2013-11-20T07:35:18Z</time></trkpt><trkpt lat="40.142663" lon="-5.938160"><ele>927.2</ele><time>2013-11-20T07:35:33Z</time></trkpt><trkpt lat="40.142675" lon="-5.938150"><ele>927.6</ele><time>2013-11-20T07:35:49Z</time></trkpt><trkpt lat="40.142688" lon="-5.938142"><ele>928.0</ele><time>2013-11-20T07:36:04Z</time></trkpt><trkpt lat="40.142724" lon="-5.938111"><ele>929.1</ele><time>2013-11-20T07:36:19Z</time></trkpt><trkpt lat="40.142779" lon="-5.938088"><ele>931.0</ele><time>2013-11-20T07:36:34Z</time></trkpt><trkpt lat="40.142795" lon="-5.938059"><ele>931.3</ele><time>2013-11-20T07:36:49Z</time></trkpt><trkpt lat="40.142819" lon="-5.938013"><ele>931.7</ele><time>2013-11-20T07:37:03Z</time></trkpt><trkpt lat="40.142833" lon="-5.937985"><ele>931.9</ele><time>2013-11-20T07:37:18Z</time></trkpt><trkpt lat="40.142845" lon="-5.937959"><ele>932.1</ele><time>2013-11-20T07:37:33Z</time></trkpt><trkpt lat="40.142846" lon="-5.937918"><ele>931.6</ele><time>2013-11-20T07:37:48Z</time></trkpt><trkpt lat="40.142849" lon="-5.937886"><ele>931.4</ele><time>2013-11-20T07:38:04Z</time></trkpt><trkpt lat="40.142843" lon="-5.937871"><ele>930.9</ele><time>2013-11-20T07:38:19Z</time></trkpt><trkpt lat="40.142855" lon="-5.937845"><ele>931.1</ele><time>2013-11-20T07:38:34Z</time></trkpt><trkpt lat="40.142855" lon="-5.937815"><ele>930.7</ele><time>2013-11-20T07:38:49Z</time></trkpt><trkpt lat="40.142879" lon="-5.937789"><ele>931.4</ele><time>2013-11-20T07:39:04Z</time></trkpt><trkpt lat="40.142877" lon="-5.937732"><ele>930.6</ele><time>2013-11-20T07:39:18Z</time></trkpt><trkpt lat="40.142878" lon="-5.937656"><ele>929.8</ele><time>2013-11-20T07:39:33Z</time></trkpt><trkpt lat="40.142878" lon="-5.937654"><ele>929.7</ele><time>2013-11-20T07:39:48Z</time></trkpt><trkpt lat="40.142885" lon="-5.937633"><ele>929.8</ele><time>2013-11-20T07:40:03Z</time></trkpt><trkpt lat="40.142892" lon="-5.937587"><ele>929.5</ele><time>2013-11-20T07:40:19Z</time></trkpt><trkpt lat="40.142906" lon="-5.937526"><ele>929.4</ele><time>2013-11-20T07:40:34Z</time></trkpt><trkpt lat="40.142950" lon="-5.937392"><ele>930.8</ele><time>2013-11-20T07:40:49Z</time></trkpt><trkpt lat="40.143065" lon="-5.937162"><ele>935.3</ele><time>2013-11-20T07:41:04Z</time></trkpt><trkpt lat="40.143080" lon="-5.937025"><ele>935.7</ele><time>2013-11-20T07:41:19Z</time></trkpt><trkpt lat="40.143037" lon="-5.936806"><ele>933.8</ele><time>2013-11-20T07:41:33Z</time></trkpt><trkpt lat="40.143055" lon="-5.936808"><ele>934.5</ele><time>2013-11-20T07:41:48Z</time></trkpt><trkpt lat="40.143086" lon="-5.936717"><ele>935.6</ele><time>2013-11-20T07:42:03Z</time></trkpt><trkpt lat="40.143086" lon="-5.936691"><ele>935.5</ele><time>2013-11-20T07:42:18Z</time></trkpt><trkpt lat="40.143073" lon="-5.936667"><ele>935.0</ele><time>2013-11-20T07:42:34Z</time></trkpt><trkpt lat="40.142954" lon="-5.936580"><ele>930.8</ele><time>2013-11-20T07:42:49Z</time></trkpt><trkpt lat="40.142884" lon="-5.936521"><ele>928.4</ele><time>2013-11-20T07:43:04Z</time></trkpt><trkpt lat="40.142853" lon="-5.936453"><ele>927.5</ele><time>2013-11-20T07:43:19Z</time></trkpt><trkpt lat="40.142867" lon="-5.936378"><ele>928.4</ele><time>2013-11-20T07:43:34Z</time></trkpt><trkpt lat="40.142977" lon="-5.936380"><ele>932.4</ele><time>2013-11-20T07:43:48Z</time></trkpt><trkpt lat="40.143088" lon="-5.936388"><ele>936.5</ele><time>2013-11-20T07:44:03Z</time></trkpt><trkpt lat="40.143098" lon="-5.936259"><ele>937.4</ele><time>2013-11-20T07:44:18Z</time></trkpt><trkpt lat="40.143096" lon="-5.936136"><ele>937.7</ele><time>2013-11-20T07:44:33Z</time></trkpt><trkpt lat="40.143101" lon="-5.936033"><ele>938.2</ele><time>2013-11-20T07:44:49Z</time></trkpt><trkpt lat="40.143119" lon="-5.935964"><ele>939.1</ele><time>2013-11-20T07:45:04Z</time></trkpt><trkpt lat="40.143120" lon="-5.935908"><ele>939.3</ele><time>2013-11-20T07:45:19Z</time></trkpt><trkpt lat="40.143133" lon="-5.935844"><ele>940.0</ele><time>2013-11-20T07:45:34Z</time></trkpt><trkpt lat="40.143161" lon="-5.935810"><ele>940.8</ele><time>2013-11-20T07:45:49Z</time></trkpt><trkpt lat="40.143192" lon="-5.935817"><ele>941.9</ele><time>2013-11-20T07:46:03Z</time></trkpt><trkpt lat="40.143232" lon="-5.935769"><ele>942.9</ele><time>2013-11-20T07:46:18Z</time></trkpt><trkpt lat="40.143260" lon="-5.935709"><ele>943.3</ele><time>2013-11-20T07:46:33Z</time></trkpt><trkpt lat="40.143286" lon="-5.935654"><ele>943.7</ele><time>2013-11-20T07:46:48Z</time></trkpt><trkpt lat="40.143338" lon="-5.935580"><ele>944.6</ele><time>2013-11-20T07:47:04Z</time></trkpt><trkpt lat="40.143405" lon="-5.935416"><ele>943.6</ele><time>2013-11-20T07:47:19Z</time></trkpt><trkpt lat="40.143431" lon="-5.935381"><ele>943.5</ele><time>2013-11-20T07:47:34Z</time></trkpt><trkpt lat="40.143456" lon="-5.935353"><ele>943.5</ele><time>2013-11-20T07:47:49Z</time></trkpt><trkpt lat="40.143479" lon="-5.935334"><ele>943.5</ele><time>2013-11-20T07:48:04Z</time></trkpt><trkpt lat="40.143522" lon="-5.935321"><ele>943.8</ele><time>2013-11-20T07:48:18Z</time></trkpt><trkpt lat="40.143576" lon="-5.935329"><ele>944.3</ele><time>2013-11-20T07:48:33Z</time></trkpt><trkpt lat="40.143621" lon="-5.935313"><ele>944.6</ele><time>2013-11-20T07:48:48Z</time></trkpt><trkpt lat="40.143670" lon="-5.935345"><ele>945.3</ele><time>2013-11-20T07:49:03Z</time></trkpt><trkpt lat="40.143701" lon="-5.935364"><ele>945.8</ele><time>2013-11-20T07:49:19Z</time></trkpt><trkpt lat="40.143735" lon="-5.935380"><ele>946.2</ele><time>2013-11-20T07:49:34Z</time></trkpt><trkpt lat="40.143762" lon="-5.935384"><ele>946.5</ele><time>2013-11-20T07:49:49Z</time></trkpt><trkpt lat="40.143783" lon="-5.935382"><ele>946.7</ele><time>2013-11-20T07:50:04Z</time></trkpt><trkpt lat="40.143842" lon="-5.935452"><ele>947.9</ele><time>2013-11-20T07:50:19Z</time></trkpt><trkpt lat="40.143872" lon="-5.935453"><ele>948.2</ele><time>2013-11-20T07:50:33Z</time></trkpt><trkpt lat="40.143974" lon="-5.935543"><ele>950.1</ele><time>2013-11-20T07:50:48Z</time></trkpt><trkpt lat="40.143978" lon="-5.935551"><ele>950.2</ele><time>2013-11-20T07:51:03Z</time></trkpt><trkpt lat="40.144013" lon="-5.935556"><ele>950.6</ele><time>2013-11-20T07:51:18Z</time></trkpt><trkpt lat="40.144038" lon="-5.935566"><ele>950.9</ele><time>2013-11-20T07:51:34Z</time></trkpt><trkpt lat="40.144061" lon="-5.935573"><ele>951.2</ele><time>2013-11-20T07:51:49Z</time></trkpt><trkpt lat="40.144095" lon="-5.935574"><ele>951.5</ele><time>2013-11-20T07:52:04Z</time></trkpt><trkpt lat="40.144133" lon="-5.935566"><ele>951.8</ele><time>2013-11-20T07:52:19Z</time></trkpt><trkpt lat="40.144191" lon="-5.935585"><ele>952.4</ele><time>2013-11-20T07:52:34Z</time></trkpt><trkpt lat="40.144243" lon="-5.935593"><ele>952.7</ele><time>2013-11-20T07:52:48Z</time></trkpt><trkpt lat="40.144250" lon="-5.935587"><ele>952.7</ele><time>2013-11-20T07:53:03Z</time></trkpt><trkpt lat="40.144269" lon="-5.935516"><ele>951.9</ele><time>2013-11-20T07:53:18Z</time></trkpt><trkpt lat="40.144269" lon="-5.935512"><ele>951.9</ele><time>2013-11-20T07:53:33Z</time></trkpt><trkpt lat="40.144309" lon="-5.935495"><ele>951.8</ele><time>2013-11-20T07:53:49Z</time></trkpt><trkpt lat="40.144393" lon="-5.935493"><ele>952.0</ele><time>2013-11-20T07:54:04Z</time></trkpt><trkpt lat="40.144442" lon="-5.935506"><ele>952.3</ele><time>2013-11-20T07:54:19Z</time></trkpt><trkpt lat="40.144531" lon="-5.935481"><ele>952.3</ele><time>2013-11-20T07:54:34Z</time></trkpt><trkpt lat="40.144632" lon="-5.935420"><ele>951.7</ele><time>2013-11-20T07:54:49Z</time></trkpt><trkpt lat="40.144799" lon="-5.935390"><ele>951.6</ele><time>2013-11-20T07:55:03Z</time></trkpt><trkpt lat="40.144814" lon="-5.935381"><ele>951.5</ele><time>2013-11-20T07:55:18Z</time></trkpt><trkpt lat="40.144825" lon="-5.935370"><ele>951.3</ele><time>2013-11-20T07:55:33Z</time></trkpt><trkpt lat="40.144840" lon="-5.935381"><ele>951.5</ele><time>2013-11-20T07:55:48Z</time></trkpt><trkpt lat="40.144995" lon="-5.935292"><ele>950.2</ele><time>2013-11-20T07:56:04Z</time></trkpt><trkpt lat="40.145002" lon="-5.935282"><ele>950.1</ele><time>2013-11-20T07:56:19Z</time></trkpt><trkpt lat="40.145006" lon="-5.935275"><ele>950.0</ele><time>2013-11-20T07:56:34Z</time></trkpt><trkpt lat="40.145020" lon="-5.935273"><ele>949.9</ele><time>2013-11-20T07:56:49Z</time></trkpt><trkpt lat="40.145061" lon="-5.935280"><ele>950.1</ele><time>2013-11-20T07:57:04Z</time></trkpt><trkpt lat="40.145111" lon="-5.935269"><ele>950.0</ele><time>2013-11-20T07:57:18Z</time></trkpt><trkpt lat="40.145134" lon="-5.935270"><ele>950.1</ele><time>2013-11-20T07:57:33Z</time></trkpt><trkpt lat="40.145152" lon="-5.935268"><ele>950.1</ele><time>2013-11-20T07:57:48Z</time></trkpt><trkpt lat="40.145179" lon="-5.935257"><ele>949.9</ele><time>2013-11-20T07:58:03Z</time></trkpt><trkpt lat="40.145211" lon="-5.935235"><ele>949.6</ele><time>2013-11-20T07:58:19Z</time></trkpt><trkpt lat="40.145241" lon="-5.935213"><ele>949.3</ele><time>2013-11-20T07:58:34Z</time></trkpt><trkpt lat="40.145319" lon="-5.935155"><ele>948.6</ele><time>2013-11-20T07:58:49Z</time></trkpt><trkpt lat="40.145355" lon="-5.935153"><ele>948.6</ele><time>2013-11-20T07:59:04Z</time></trkpt><trkpt lat="40.145387" lon="-5.935149"><ele>948.7</ele><time>2013-11-20T07:59:19Z</time></trkpt><trkpt lat="40.145407" lon="-5.935132"><ele>948.5</ele><time>2013-11-20T07:59:33Z</time></trkpt><trkpt lat="40.145425" lon="-5.935139"><ele>948.6</ele><time>2013-11-20T07:59:48Z</time></trkpt><trkpt lat="40.145453" lon="-5.935133"><ele>948.6</ele><time>2013-11-20T08:00:03Z</time></trkpt><trkpt lat="40.145513" lon="-5.935162"><ele>949.2</ele><time>2013-11-20T08:00:18Z</time></trkpt><trkpt lat="40.145612" lon="-5.935212"><ele>950.1</ele><time>2013-11-20T08:00:34Z</time></trkpt><trkpt lat="40.145669" lon="-5.935251"><ele>950.7</ele><time>2013-11-20T08:00:49Z</time></trkpt><trkpt lat="40.145737" lon="-5.935352"><ele>952.1</ele><time>2013-11-20T08:01:04Z</time></trkpt><trkpt lat="40.145753" lon="-5.935380"><ele>952.5</ele><time>2013-11-20T08:01:19Z</time></trkpt><trkpt lat="40.145766" lon="-5.935447"><ele>953.3</ele><time>2013-11-20T08:01:34Z</time></trkpt><trkpt lat="40.145776" lon="-5.935535"><ele>954.4</ele><time>2013-11-20T08:01:48Z</time></trkpt><trkpt lat="40.145801" lon="-5.935563"><ele>954.8</ele><time>2013-11-20T08:02:03Z</time></trkpt><trkpt lat="40.145865" lon="-5.935612"><ele>955.4</ele><time>2013-11-20T08:02:18Z</time></trkpt><trkpt lat="40.145888" lon="-5.935633"><ele>955.8</ele><time>2013-11-20T08:02:33Z</time></trkpt><trkpt lat="40.145941" lon="-5.935654"><ele>956.2</ele><time>2013-11-20T08:02:49Z</time></trkpt><trkpt lat="40.146134" lon="-5.935519"><ele>955.0</ele><time>2013-11-20T08:03:04Z</time></trkpt><trkpt lat="40.146161" lon="-5.935499"><ele>954.9</ele><time>2013-11-20T08:03:19Z</time></trkpt><trkpt lat="40.146167" lon="-5.935496"><ele>954.8</ele><time>2013-11-20T08:03:34Z</time></trkpt><trkpt lat="40.146255" lon="-5.935422"><ele>954.1</ele><time>2013-11-20T08:03:49Z</time></trkpt><trkpt lat="40.146300" lon="-5.935389"><ele>953.8</ele><time>2013-11-20T08:04:03Z</time></trkpt><trkpt lat="40.146378" lon="-5.935338"><ele>953.2</ele><time>2013-11-20T08:04:18Z</time></trkpt><trkpt lat="40.146383" lon="-5.935338"><ele>953.3</ele><time>2013-11-20T08:04:33Z</time></trkpt><trkpt lat="40.146424" lon="-5.935331"><ele>953.2</ele><time>2013-11-20T08:04:48Z</time></trkpt><trkpt lat="40.146440" lon="-5.935356"><ele>953.6</ele><time>2013-11-20T08:05:04Z</time></trkpt><trkpt lat="40.146489" lon="-5.935439"><ele>954.9</ele><time>2013-11-20T08:05:19Z</time></trkpt><trkpt lat="40.146541" lon="-5.935545"><ele>956.5</ele><time>2013-11-20T08:05:34Z</time></trkpt><trkpt lat="40.146582" lon="-5.935599"><ele>957.4</ele><time>2013-11-20T08:05:49Z</time></trkpt><trkpt lat="40.146611" lon="-5.935630"><ele>957.9</ele><time>2013-11-20T08:06:04Z</time></trkpt><trkpt lat="40.146655" lon="-5.935679"><ele>958.7</ele><time>2013-11-20T08:06:18Z</time></trkpt><trkpt lat="40.146706" lon="-5.935707"><ele>959.5</ele><time>2013-11-20T08:06:33Z</time></trkpt><trkpt lat="40.146765" lon="-5.935757"><ele>960.6</ele><time>2013-11-20T08:06:48Z</time></trkpt><trkpt lat="40.146816" lon="-5.935785"><ele>961.4</ele><time>2013-11-20T08:07:03Z</time></trkpt><trkpt lat="40.146895" lon="-5.935801"><ele>962.2</ele><time>2013-11-20T08:07:19Z</time></trkpt><trkpt lat="40.146970" lon="-5.935780"><ele>962.5</ele><time>2013-11-20T08:07:34Z</time></trkpt><trkpt lat="40.147029" lon="-5.935748"><ele>962.5</ele><time>2013-11-20T08:07:49Z</time></trkpt><trkpt lat="40.147115" lon="-5.935728"><ele>962.8</ele><time>2013-11-20T08:08:04Z</time></trkpt><trkpt lat="40.147169" lon="-5.935724"><ele>963.2</ele><time>2013-11-20T08:08:19Z</time></trkpt><trkpt lat="40.147198" lon="-5.935720"><ele>963.4</ele><time>2013-11-20T08:08:33Z</time></trkpt><trkpt lat="40.147208" lon="-5.935714"><ele>963.4</ele><time>2013-11-20T08:08:48Z</time></trkpt><trkpt lat="40.147230" lon="-5.935715"><ele>963.5</ele><time>2013-11-20T08:09:03Z</time></trkpt><trkpt lat="40.147266" lon="-5.935702"><ele>963.7</ele><time>2013-11-20T08:09:18Z</time></trkpt><trkpt lat="40.147300" lon="-5.935695"><ele>963.8</ele><time>2013-11-20T08:09:34Z</time></trkpt><trkpt lat="40.147308" lon="-5.935669"><ele>963.6</ele><time>2013-11-20T08:09:49Z</time></trkpt><trkpt lat="40.147331" lon="-5.935646"><ele>963.4</ele><time>2013-11-20T08:10:04Z</time></trkpt><trkpt lat="40.147362" lon="-5.935483"><ele>961.7</ele><time>2013-11-20T08:10:19Z</time></trkpt><trkpt lat="40.147379" lon="-5.935370"><ele>960.4</ele><time>2013-11-20T08:10:34Z</time></trkpt><trkpt lat="40.147435" lon="-5.935178"><ele>958.5</ele><time>2013-11-20T08:10:48Z</time></trkpt><trkpt lat="40.147466" lon="-5.935115"><ele>958.1</ele><time>2013-11-20T08:11:03Z</time></trkpt><trkpt lat="40.147500" lon="-5.935072"><ele>957.9</ele><time>2013-11-20T08:11:18Z</time></trkpt><trkpt lat="40.147548" lon="-5.935015"><ele>958.2</ele><time>2013-11-20T08:11:33Z</time></trkpt><trkpt lat="40.147559" lon="-5.934994"><ele>958.2</ele><time>2013-11-20T08:11:49Z</time></trkpt><trkpt lat="40.147561" lon="-5.934958"><ele>958.1</ele><time>2013-11-20T08:12:04Z</time></trkpt><trkpt lat="40.147591" lon="-5.934885"><ele>958.3</ele><time>2013-11-20T08:12:19Z</time></trkpt><trkpt lat="40.147616" lon="-5.934864"><ele>958.7</ele><time>2013-11-20T08:12:34Z</time></trkpt><trkpt lat="40.147694" lon="-5.934795"><ele>960.0</ele><time>2013-11-20T08:12:49Z</time></trkpt><trkpt lat="40.147758" lon="-5.934763"><ele>961.2</ele><time>2013-11-20T08:13:03Z</time></trkpt><trkpt lat="40.147780" lon="-5.934745"><ele>961.6</ele><time>2013-11-20T08:13:18Z</time></trkpt><trkpt lat="40.147840" lon="-5.934708"><ele>962.7</ele><time>2013-11-20T08:13:33Z</time></trkpt><trkpt lat="40.147864" lon="-5.934656"><ele>963.0</ele><time>2013-11-20T08:13:48Z</time></trkpt><trkpt lat="40.147872" lon="-5.934644"><ele>963.1</ele><time>2013-11-20T08:14:04Z</time></trkpt><trkpt lat="40.147951" lon="-5.934567"><ele>964.4</ele><time>2013-11-20T08:14:19Z</time></trkpt><trkpt lat="40.147984" lon="-5.934517"><ele>964.9</ele><time>2013-11-20T08:14:34Z</time></trkpt><trkpt lat="40.147985" lon="-5.934519"><ele>964.9</ele><time>2013-11-20T08:14:49Z</time></trkpt><trkpt lat="40.147986" lon="-5.934520"><ele>965.0</ele><time>2013-11-20T08:15:04Z</time></trkpt><trkpt lat="40.147978" lon="-5.934533"><ele>964.8</ele><time>2013-11-20T08:15:18Z</time></trkpt><trkpt lat="40.147997" lon="-5.934506"><ele>965.1</ele><time>2013-11-20T08:15:33Z</time></trkpt><trkpt lat="40.148042" lon="-5.934497"><ele>966.1</ele><time>2013-11-20T08:15:48Z</time></trkpt><trkpt lat="40.148056" lon="-5.934467"><ele>966.2</ele><time>2013-11-20T08:16:03Z</time></trkpt><trkpt lat="40.148084" lon="-5.934448"><ele>966.8</ele><time>2013-11-20T08:16:19Z</time></trkpt><trkpt lat="40.148171" lon="-5.934319"><ele>968.1</ele><time>2013-11-20T08:16:34Z</time></trkpt><trkpt lat="40.148181" lon="-5.934293"><ele>968.2</ele><time>2013-11-20T08:16:49Z</time></trkpt><trkpt lat="40.148200" lon="-5.934262"><ele>968.4</ele><time>2013-11-20T08:17:04Z</time></trkpt><trkpt lat="40.148217" lon="-5.934208"><ele>968.6</ele><time>2013-11-20T08:17:19Z</time></trkpt><trkpt lat="40.148258" lon="-5.934134"><ele>969.0</ele><time>2013-11-20T08:17:33Z</time></trkpt><trkpt lat="40.148274" lon="-5.934096"><ele>969.1</ele><time>2013-11-20T08:17:48Z</time></trkpt><trkpt lat="40.148311" lon="-5.934017"><ele>969.4</ele><time>2013-11-20T08:18:03Z</time></trkpt><trkpt lat="40.148322" lon="-5.934003"><ele>969.5</ele><time>2013-11-20T08:18:18Z</time></trkpt><trkpt lat="40.148369" lon="-5.933958"><ele>970.2</ele><time>2013-11-20T08:18:34Z</time></trkpt><trkpt lat="40.148449" lon="-5.933881"><ele>971.2</ele><time>2013-11-20T08:18:49Z</time></trkpt><trkpt lat="40.148540" lon="-5.933720"><ele>971.8</ele><time>2013-11-20T08:19:04Z</time></trkpt><trkpt lat="40.148559" lon="-5.933709"><ele>972.0</ele><time>2013-11-20T08:19:19Z</time></trkpt><trkpt lat="40.148550" lon="-5.933713"><ele>971.9</ele><time>2013-11-20T08:19:34Z</time></trkpt><trkpt lat="40.148579" lon="-5.933672"><ele>972.2</ele><time>2013-11-20T08:19:48Z</time></trkpt><trkpt lat="40.148704" lon="-5.933479"><ele>973.2</ele><time>2013-11-20T08:20:03Z</time></trkpt><trkpt lat="40.148826" lon="-5.933343"><ele>974.5</ele><time>2013-11-20T08:20:18Z</time></trkpt><trkpt lat="40.148847" lon="-5.933336"><ele>974.9</ele><time>2013-11-20T08:20:33Z</time></trkpt><trkpt lat="40.148937" lon="-5.933330"><ele>976.6</ele><time>2013-11-20T08:20:49Z</time></trkpt><trkpt lat="40.148960" lon="-5.933307"><ele>976.8</ele><time>2013-11-20T08:21:04Z</time></trkpt><trkpt lat="40.148974" lon="-5.933293"><ele>976.9</ele><time>2013-11-20T08:21:19Z</time></trkpt><trkpt lat="40.149018" lon="-5.933269"><ele>977.6</ele><time>2013-11-20T08:21:34Z</time></trkpt><trkpt lat="40.149085" lon="-5.933203"><ele>978.3</ele><time>2013-11-20T08:21:49Z</time></trkpt><trkpt lat="40.149289" lon="-5.933019"><ele>979.4</ele><time>2013-11-20T08:22:03Z</time></trkpt><trkpt lat="40.149447" lon="-5.932938"><ele>980.0</ele><time>2013-11-20T08:22:18Z</time></trkpt><trkpt lat="40.149624" lon="-5.932834"><ele>980.6</ele><time>2013-11-20T08:22:33Z</time></trkpt><trkpt lat="40.149713" lon="-5.932811"><ele>981.2</ele><time>2013-11-20T08:22:48Z</time></trkpt><trkpt lat="40.149768" lon="-5.932785"><ele>981.4</ele><time>2013-11-20T08:23:04Z</time></trkpt><trkpt lat="40.149779" lon="-5.932781"><ele>981.5</ele><time>2013-11-20T08:23:19Z</time></trkpt><trkpt lat="40.149797" lon="-5.932786"><ele>981.7</ele><time>2013-11-20T08:23:34Z</time></trkpt><trkpt lat="40.149829" lon="-5.932793"><ele>982.0</ele><time>2013-11-20T08:23:49Z</time></trkpt><trkpt lat="40.149844" lon="-5.932811"><ele>982.3</ele><time>2013-11-20T08:24:04Z</time></trkpt><trkpt lat="40.149878" lon="-5.932816"><ele>982.6</ele><time>2013-11-20T08:24:18Z</time></trkpt><trkpt lat="40.149913" lon="-5.932835"><ele>983.1</ele><time>2013-11-20T08:24:33Z</time></trkpt><trkpt lat="40.150025" lon="-5.932854"><ele>984.2</ele><time>2013-11-20T08:24:48Z</time></trkpt><trkpt lat="40.150134" lon="-5.932868"><ele>985.2</ele><time>2013-11-20T08:25:03Z</time></trkpt><trkpt lat="40.150134" lon="-5.932877"><ele>985.3</ele><time>2013-11-20T08:25:19Z</time></trkpt><trkpt lat="40.150133" lon="-5.932871"><ele>985.3</ele><time>2013-11-20T08:25:34Z</time></trkpt><trkpt lat="40.150178" lon="-5.932886"><ele>985.8</ele><time>2013-11-20T08:25:49Z</time></trkpt><trkpt lat="40.150213" lon="-5.932915"><ele>986.3</ele><time>2013-11-20T08:26:04Z</time></trkpt><trkpt lat="40.150270" lon="-5.932872"><ele>986.4</ele><time>2013-11-20T08:26:19Z</time></trkpt><trkpt lat="40.150294" lon="-5.932819"><ele>986.2</ele><time>2013-11-20T08:26:33Z</time></trkpt><trkpt lat="40.150302" lon="-5.932811"><ele>986.2</ele><time>2013-11-20T08:26:48Z</time></trkpt><trkpt lat="40.150421" lon="-5.932729"><ele>986.7</ele><time>2013-11-20T08:27:03Z</time></trkpt><trkpt lat="40.150495" lon="-5.932728"><ele>987.3</ele><time>2013-11-20T08:27:18Z</time></trkpt><trkpt lat="40.150600" lon="-5.932762"><ele>988.5</ele><time>2013-11-20T08:27:34Z</time></trkpt><trkpt lat="40.150674" lon="-5.932765"><ele>989.2</ele><time>2013-11-20T08:27:49Z</time></trkpt><trkpt lat="40.150732" lon="-5.932770"><ele>989.7</ele><time>2013-11-20T08:28:04Z</time></trkpt><trkpt lat="40.150764" lon="-5.932766"><ele>990.0</ele><time>2013-11-20T08:28:19Z</time></trkpt><trkpt lat="40.150790" lon="-5.932760"><ele>990.2</ele><time>2013-11-20T08:28:34Z</time></trkpt><trkpt lat="40.150822" lon="-5.932767"><ele>990.5</ele><time>2013-11-20T08:28:48Z</time></trkpt><trkpt lat="40.150903" lon="-5.932814"><ele>991.5</ele><time>2013-11-20T08:29:03Z</time></trkpt><trkpt lat="40.150982" lon="-5.932811"><ele>992.2</ele><time>2013-11-20T08:29:18Z</time></trkpt><trkpt lat="40.151020" lon="-5.932780"><ele>992.3</ele><time>2013-11-20T08:29:33Z</time></trkpt><trkpt lat="40.151070" lon="-5.932803"><ele>992.9</ele><time>2013-11-20T08:29:49Z</time></trkpt><trkpt lat="40.151104" lon="-5.932865"><ele>993.6</ele><time>2013-11-20T08:30:04Z</time></trkpt><trkpt lat="40.151164" lon="-5.932859"><ele>994.1</ele><time>2013-11-20T08:30:19Z</time></trkpt><trkpt lat="40.151217" lon="-5.932844"><ele>994.5</ele><time>2013-11-20T08:30:34Z</time></trkpt><trkpt lat="40.151244" lon="-5.932828"><ele>994.6</ele><time>2013-11-20T08:30:49Z</time></trkpt><trkpt lat="40.151265" lon="-5.932808"><ele>994.7</ele><time>2013-11-20T08:31:03Z</time></trkpt><trkpt lat="40.151276" lon="-5.932808"><ele>994.8</ele><time>2013-11-20T08:31:18Z</time></trkpt><trkpt lat="40.151286" lon="-5.932794"><ele>994.8</ele><time>2013-11-20T08:31:33Z</time></trkpt><trkpt lat="40.151336" lon="-5.932773"><ele>995.1</ele><time>2013-11-20T08:31:48Z</time></trkpt><trkpt lat="40.151390" lon="-5.932760"><ele>995.4</ele><time>2013-11-20T08:32:04Z</time></trkpt><trkpt lat="40.151508" lon="-5.932710"><ele>996.1</ele><time>2013-11-20T08:32:19Z</time></trkpt><trkpt lat="40.151552" lon="-5.932674"><ele>996.3</ele><time>2013-11-20T08:32:34Z</time></trkpt><trkpt lat="40.151594" lon="-5.932628"><ele>996.3</ele><time>2013-11-20T08:32:49Z</time></trkpt><trkpt lat="40.151606" lon="-5.932567"><ele>996.0</ele><time>2013-11-20T08:33:04Z</time></trkpt><trkpt lat="40.151628" lon="-5.932533"><ele>995.9</ele><time>2013-11-20T08:33:18Z</time></trkpt><trkpt lat="40.151647" lon="-5.932528"><ele>996.0</ele><time>2013-11-20T08:33:33Z</time></trkpt><trkpt lat="40.151699" lon="-5.932495"><ele>996.5</ele><time>2013-11-20T08:33:48Z</time></trkpt><trkpt lat="40.151733" lon="-5.932479"><ele>996.9</ele><time>2013-11-20T08:34:03Z</time></trkpt><trkpt lat="40.151769" lon="-5.932460"><ele>997.3</ele><time>2013-11-20T08:34:19Z</time></trkpt><trkpt lat="40.151824" lon="-5.932447"><ele>998.1</ele><time>2013-11-20T08:34:34Z</time></trkpt><trkpt lat="40.151866" lon="-5.932449"><ele>998.8</ele><time>2013-11-20T08:34:49Z</time></trkpt><trkpt lat="40.151912" lon="-5.932442"><ele>999.5</ele><time>2013-11-20T08:35:04Z</time></trkpt><trkpt lat="40.151932" lon="-5.932432"><ele>999.7</ele><time>2013-11-20T08:35:19Z</time></trkpt><trkpt lat="40.151950" lon="-5.932429"><ele>1000.0</ele><time>2013-11-20T08:35:33Z</time></trkpt><trkpt lat="40.151991" lon="-5.932411"><ele>1000.5</ele><time>2013-11-20T08:35:48Z</time></trkpt><trkpt lat="40.152021" lon="-5.932397"><ele>1000.9</ele><time>2013-11-20T08:36:03Z</time></trkpt><trkpt lat="40.152041" lon="-5.932383"><ele>1001.2</ele><time>2013-11-20T08:36:18Z</time></trkpt><trkpt lat="40.152080" lon="-5.932362"><ele>1001.7</ele><time>2013-11-20T08:36:34Z</time></trkpt><trkpt lat="40.152217" lon="-5.932300"><ele>1003.6</ele><time>2013-11-20T08:36:49Z</time></trkpt><trkpt lat="40.152290" lon="-5.932265"><ele>1004.7</ele><time>2013-11-20T08:37:04Z</time></trkpt><trkpt lat="40.152329" lon="-5.932237"><ele>1005.2</ele><time>2013-11-20T08:37:19Z</time></trkpt><trkpt lat="40.152349" lon="-5.932229"><ele>1005.5</ele><time>2013-11-20T08:37:34Z</time></trkpt><trkpt lat="40.152372" lon="-5.932228"><ele>1005.9</ele><time>2013-11-20T08:37:48Z</time></trkpt><trkpt lat="40.152406" lon="-5.932226"><ele>1006.4</ele><time>2013-11-20T08:38:03Z</time></trkpt><trkpt lat="40.152408" lon="-5.932214"><ele>1006.4</ele><time>2013-11-20T08:38:18Z</time></trkpt><trkpt lat="40.152411" lon="-5.932197"><ele>1006.4</ele><time>2013-11-20T08:38:33Z</time></trkpt><trkpt lat="40.152434" lon="-5.932192"><ele>1006.8</ele><time>2013-11-20T08:38:49Z</time></trkpt><trkpt lat="40.152469" lon="-5.932135"><ele>1007.2</ele><time>2013-11-20T08:39:04Z</time></trkpt><trkpt lat="40.152488" lon="-5.932069"><ele>1007.2</ele><time>2013-11-20T08:39:19Z</time></trkpt><trkpt lat="40.152502" lon="-5.932050"><ele>1007.4</ele><time>2013-11-20T08:39:34Z</time></trkpt><trkpt lat="40.152517" lon="-5.932011"><ele>1007.5</ele><time>2013-11-20T08:39:49Z</time></trkpt><trkpt lat="40.152538" lon="-5.931994"><ele>1007.7</ele><time>2013-11-20T08:40:03Z</time></trkpt><trkpt lat="40.152584" lon="-5.931961"><ele>1008.3</ele><time>2013-11-20T08:40:18Z</time></trkpt><trkpt lat="40.152633" lon="-5.931887"><ele>1008.8</ele><time>2013-11-20T08:40:33Z</time></trkpt><trkpt lat="40.152706" lon="-5.931840"><ele>1009.6</ele><time>2013-11-20T08:40:48Z</time></trkpt><trkpt lat="40.152782" lon="-5.931764"><ele>1010.5</ele><time>2013-11-20T08:41:04Z</time></trkpt><trkpt lat="40.152837" lon="-5.931677"><ele>1010.9</ele><time>2013-11-20T08:41:19Z</time></trkpt><trkpt lat="40.152850" lon="-5.931598"><ele>1010.3</ele><time>2013-11-20T08:41:34Z</time></trkpt><trkpt lat="40.152868" lon="-5.931492"><ele>1009.5</ele><time>2013-11-20T08:41:49Z</time></trkpt><trkpt lat="40.152867" lon="-5.931494"><ele>1009.5</ele><time>2013-11-20T08:42:04Z</time></trkpt><trkpt lat="40.152888" lon="-5.931449"><ele>1009.4</ele><time>2013-11-20T08:42:18Z</time></trkpt><trkpt lat="40.152895" lon="-5.931423"><ele>1009.2</ele><time>2013-11-20T08:42:33Z</time></trkpt><trkpt lat="40.153008" lon="-5.931256"><ele>1009.2</ele><time>2013-11-20T08:42:48Z</time></trkpt><trkpt lat="40.153035" lon="-5.931242"><ele>1009.4</ele><time>2013-11-20T08:43:03Z</time></trkpt><trkpt lat="40.153045" lon="-5.931243"><ele>1009.6</ele><time>2013-11-20T08:43:19Z</time></trkpt><trkpt lat="40.153119" lon="-5.931137"><ele>1009.7</ele><time>2013-11-20T08:43:34Z</time></trkpt><trkpt lat="40.153130" lon="-5.931121"><ele>1009.7</ele><time>2013-11-20T08:43:49Z</time></trkpt><trkpt lat="40.153216" lon="-5.931034"><ele>1010.1</ele><time>2013-11-20T08:44:04Z</time></trkpt><trkpt lat="40.153234" lon="-5.931007"><ele>1010.1</ele><time>2013-11-20T08:44:19Z</time></trkpt><trkpt lat="40.153274" lon="-5.930943"><ele>1010.1</ele><time>2013-11-20T08:44:33Z</time></trkpt><trkpt lat="40.153315" lon="-5.930906"><ele>1010.4</ele><time>2013-11-20T08:44:48Z</time></trkpt><trkpt lat="40.153341" lon="-5.930866"><ele>1010.4</ele><time>2013-11-20T08:45:03Z</time></trkpt><trkpt lat="40.153387" lon="-5.930830"><ele>1010.5</ele><time>2013-11-20T08:45:18Z</time></trkpt><trkpt lat="40.153414" lon="-5.930793"><ele>1010.1</ele><time>2013-11-20T08:45:34Z</time></trkpt><trkpt lat="40.153434" lon="-5.930773"><ele>1009.9</ele><time>2013-11-20T08:45:49Z</time></trkpt><trkpt lat="40.153518" lon="-5.930698"><ele>1009.5</ele><time>2013-11-20T08:46:04Z</time></trkpt><trkpt lat="40.153566" lon="-5.930681"><ele>1009.8</ele><time>2013-11-20T08:46:19Z</time></trkpt><trkpt lat="40.153592" lon="-5.930656"><ele>1009.8</ele><time>2013-11-20T08:46:34Z</time></trkpt><trkpt lat="40.153645" lon="-5.930604"><ele>1009.6</ele><time>2013-11-20T08:46:48Z</time></trkpt><trkpt lat="40.153702" lon="-5.930561"><ele>1009.8</ele><time>2013-11-20T08:47:03Z</time></trkpt><trkpt lat="40.153761" lon="-5.930571"><ele>1010.9</ele><time>2013-11-20T08:47:18Z</time></trkpt><trkpt lat="40.153818" lon="-5.930599"><ele>1012.1</ele><time>2013-11-20T08:47:33Z</time></trkpt><trkpt lat="40.153866" lon="-5.930584"><ele>1012.7</ele><time>2013-11-20T08:47:49Z</time></trkpt><trkpt lat="40.153923" lon="-5.930551"><ele>1013.1</ele><time>2013-11-20T08:48:04Z</time></trkpt><trkpt lat="40.153976" lon="-5.930524"><ele>1013.7</ele><time>2013-11-20T08:48:19Z</time></trkpt><trkpt lat="40.153994" lon="-5.930493"><ele>1013.7</ele><time>2013-11-20T08:48:34Z</time></trkpt><trkpt lat="40.154004" lon="-5.930455"><ele>1013.5</ele><time>2013-11-20T08:48:49Z</time></trkpt><trkpt lat="40.154012" lon="-5.930416"><ele>1013.2</ele><time>2013-11-20T08:49:03Z</time></trkpt><trkpt lat="40.154033" lon="-5.930403"><ele>1013.5</ele><time>2013-11-20T08:49:18Z</time></trkpt><trkpt lat="40.154051" lon="-5.930381"><ele>1013.6</ele><time>2013-11-20T08:49:33Z</time></trkpt><trkpt lat="40.154073" lon="-5.930337"><ele>1013.6</ele><time>2013-11-20T08:49:48Z</time></trkpt><trkpt lat="40.154148" lon="-5.930264"><ele>1014.5</ele><time>2013-11-20T08:50:04Z</time></trkpt><trkpt lat="40.154207" lon="-5.930282"><ele>1015.3</ele><time>2013-11-20T08:50:19Z</time></trkpt><trkpt lat="40.154255" lon="-5.930246"><ele>1015.4</ele><time>2013-11-20T08:50:34Z</time></trkpt><trkpt lat="40.154295" lon="-5.930191"><ele>1015.3</ele><time>2013-11-20T08:50:49Z</time></trkpt><trkpt lat="40.154427" lon="-5.930135"><ele>1015.8</ele><time>2013-11-20T08:51:04Z</time></trkpt><trkpt lat="40.154495" lon="-5.930103"><ele>1016.1</ele><time>2013-11-20T08:51:18Z</time></trkpt><trkpt lat="40.154532" lon="-5.930061"><ele>1016.1</ele><time>2013-11-20T08:51:33Z</time></trkpt><trkpt lat="40.154575" lon="-5.929995"><ele>1015.8</ele><time>2013-11-20T08:51:48Z</time></trkpt><trkpt lat="40.154611" lon="-5.929985"><ele>1015.9</ele><time>2013-11-20T08:52:03Z</time></trkpt><trkpt lat="40.154661" lon="-5.929975"><ele>1016.1</ele><time>2013-11-20T08:52:19Z</time></trkpt><trkpt lat="40.154694" lon="-5.929977"><ele>1016.4</ele><time>2013-11-20T08:52:34Z</time></trkpt><trkpt lat="40.154719" lon="-5.929990"><ele>1016.8</ele><time>2013-11-20T08:52:49Z</time></trkpt><trkpt lat="40.154795" lon="-5.929993"><ele>1017.4</ele><time>2013-11-20T08:53:04Z</time></trkpt><trkpt lat="40.154837" lon="-5.930018"><ele>1018.0</ele><time>2013-11-20T08:53:19Z</time></trkpt><trkpt lat="40.154885" lon="-5.930026"><ele>1018.4</ele><time>2013-11-20T08:53:33Z</time></trkpt><trkpt lat="40.154934" lon="-5.930028"><ele>1018.7</ele><time>2013-11-20T08:53:48Z</time></trkpt><trkpt lat="40.154972" lon="-5.930053"><ele>1019.2</ele><time>2013-11-20T08:54:03Z</time></trkpt><trkpt lat="40.155125" lon="-5.930076"><ele>1019.9</ele><time>2013-11-20T08:54:18Z</time></trkpt><trkpt lat="40.155212" lon="-5.930087"><ele>1020.3</ele><time>2013-11-20T08:54:34Z</time></trkpt><trkpt lat="40.155243" lon="-5.930091"><ele>1020.4</ele><time>2013-11-20T08:54:49Z</time></trkpt><trkpt lat="40.155288" lon="-5.930108"><ele>1020.6</ele><time>2013-11-20T08:55:04Z</time></trkpt><trkpt lat="40.155316" lon="-5.930094"><ele>1020.6</ele><time>2013-11-20T08:55:19Z</time></trkpt><trkpt lat="40.155346" lon="-5.930113"><ele>1020.8</ele><time>2013-11-20T08:55:34Z</time></trkpt><trkpt lat="40.155381" lon="-5.930083"><ele>1020.8</ele><time>2013-11-20T08:55:48Z</time></trkpt><trkpt lat="40.155387" lon="-5.930059"><ele>1020.7</ele><time>2013-11-20T08:56:03Z</time></trkpt><trkpt lat="40.155446" lon="-5.930103"><ele>1021.1</ele><time>2013-11-20T08:56:18Z</time></trkpt><trkpt lat="40.155488" lon="-5.930117"><ele>1021.3</ele><time>2013-11-20T08:56:33Z</time></trkpt><trkpt lat="40.155532" lon="-5.930074"><ele>1021.2</ele><time>2013-11-20T08:56:49Z</time></trkpt><trkpt lat="40.155571" lon="-5.930053"><ele>1021.3</ele><time>2013-11-20T08:57:04Z</time></trkpt><trkpt lat="40.155599" lon="-5.929989"><ele>1021.1</ele><time>2013-11-20T08:57:19Z</time></trkpt><trkpt lat="40.155643" lon="-5.929968"><ele>1021.1</ele><time>2013-11-20T08:57:34Z</time></trkpt><trkpt lat="40.155665" lon="-5.929960"><ele>1021.1</ele><time>2013-11-20T08:57:49Z</time></trkpt><trkpt lat="40.155702" lon="-5.929935"><ele>1021.2</ele><time>2013-11-20T08:58:03Z</time></trkpt><trkpt lat="40.155735" lon="-5.929906"><ele>1021.2</ele><time>2013-11-20T08:58:18Z</time></trkpt><trkpt lat="40.155749" lon="-5.929904"><ele>1021.2</ele><time>2013-11-20T08:58:33Z</time></trkpt><trkpt lat="40.155758" lon="-5.929884"><ele>1021.2</ele><time>2013-11-20T08:58:48Z</time></trkpt><trkpt lat="40.155837" lon="-5.929847"><ele>1021.5</ele><time>2013-11-20T08:59:04Z</time></trkpt><trkpt lat="40.155921" lon="-5.929809"><ele>1021.9</ele><time>2013-11-20T08:59:19Z</time></trkpt><trkpt lat="40.155957" lon="-5.929808"><ele>1022.1</ele><time>2013-11-20T08:59:34Z</time></trkpt><trkpt lat="40.155996" lon="-5.929801"><ele>1022.4</ele><time>2013-11-20T08:59:49Z</time></trkpt><trkpt lat="40.156050" lon="-5.929794"><ele>1022.7</ele><time>2013-11-20T09:00:04Z</time></trkpt><trkpt lat="40.156078" lon="-5.929775"><ele>1022.8</ele><time>2013-11-20T09:00:18Z</time></trkpt><trkpt lat="40.156096" lon="-5.929761"><ele>1022.9</ele><time>2013-11-20T09:00:33Z</time></trkpt><trkpt lat="40.156114" lon="-5.929774"><ele>1023.0</ele><time>2013-11-20T09:00:48Z</time></trkpt><trkpt lat="40.156163" lon="-5.929762"><ele>1023.3</ele><time>2013-11-20T09:01:03Z</time></trkpt><trkpt lat="40.156224" lon="-5.929762"><ele>1023.7</ele><time>2013-11-20T09:01:19Z</time></trkpt><trkpt lat="40.156265" lon="-5.929751"><ele>1023.9</ele><time>2013-11-20T09:01:34Z</time></trkpt><trkpt lat="40.156290" lon="-5.929758"><ele>1024.1</ele><time>2013-11-20T09:01:49Z</time></trkpt><trkpt lat="40.156323" lon="-5.929759"><ele>1024.3</ele><time>2013-11-20T09:02:04Z</time></trkpt><trkpt lat="40.156350" lon="-5.929778"><ele>1024.6</ele><time>2013-11-20T09:02:19Z</time></trkpt><trkpt lat="40.156380" lon="-5.929747"><ele>1024.6</ele><time>2013-11-20T09:02:33Z</time></trkpt><trkpt lat="40.156403" lon="-5.929682"><ele>1024.4</ele><time>2013-11-20T09:02:48Z</time></trkpt><trkpt lat="40.156405" lon="-5.929637"><ele>1024.2</ele><time>2013-11-20T09:03:03Z</time></trkpt><trkpt lat="40.156409" lon="-5.929588"><ele>1024.0</ele><time>2013-11-20T09:03:18Z</time></trkpt><trkpt lat="40.156427" lon="-5.929529"><ele>1023.8</ele><time>2013-11-20T09:03:34Z</time></trkpt><trkpt lat="40.156492" lon="-5.929451"><ele>1023.7</ele><time>2013-11-20T09:03:49Z</time></trkpt><trkpt lat="40.156507" lon="-5.929433"><ele>1023.7</ele><time>2013-11-20T09:04:04Z</time></trkpt><trkpt lat="40.156516" lon="-5.929422"><ele>1023.7</ele><time>2013-11-20T09:04:19Z</time></trkpt><trkpt lat="40.156535" lon="-5.929323"><ele>1023.2</ele><time>2013-11-20T09:04:34Z</time></trkpt><trkpt lat="40.156538" lon="-5.929258"><ele>1022.9</ele><time>2013-11-20T09:04:48Z</time></trkpt><trkpt lat="40.156560" lon="-5.929212"><ele>1022.7</ele><time>2013-11-20T09:05:03Z</time></trkpt><trkpt lat="40.156575" lon="-5.929141"><ele>1022.4</ele><time>2013-11-20T09:05:18Z</time></trkpt><trkpt lat="40.156583" lon="-5.929116"><ele>1022.3</ele><time>2013-11-20T09:05:33Z</time></trkpt><trkpt lat="40.156598" lon="-5.929073"><ele>1022.2</ele><time>2013-11-20T09:05:49Z</time></trkpt><trkpt lat="40.156612" lon="-5.929035"><ele>1022.1</ele><time>2013-11-20T09:06:04Z</time></trkpt><trkpt lat="40.156645" lon="-5.928987"><ele>1022.0</ele><time>2013-11-20T09:06:19Z</time></trkpt><trkpt lat="40.156698" lon="-5.928939"><ele>1022.1</ele><time>2013-11-20T09:06:34Z</time></trkpt><trkpt lat="40.156756" lon="-5.928936"><ele>1022.3</ele><time>2013-11-20T09:06:49Z</time></trkpt><trkpt lat="40.156773" lon="-5.928898"><ele>1022.2</ele><time>2013-11-20T09:07:03Z</time></trkpt><trkpt lat="40.156799" lon="-5.928864"><ele>1022.2</ele><time>2013-11-20T09:07:18Z</time></trkpt><trkpt lat="40.156824" lon="-5.928830"><ele>1022.2</ele><time>2013-11-20T09:07:33Z</time></trkpt><trkpt lat="40.156857" lon="-5.928790"><ele>1022.2</ele><time>2013-11-20T09:07:48Z</time></trkpt><trkpt lat="40.156893" lon="-5.928771"><ele>1022.3</ele><time>2013-11-20T09:08:04Z</time></trkpt><trkpt lat="40.156928" lon="-5.928752"><ele>1022.4</ele><time>2013-11-20T09:08:19Z</time></trkpt><trkpt lat="40.156966" lon="-5.928751"><ele>1022.6</ele><time>2013-11-20T09:08:34Z</time></trkpt><trkpt lat="40.157002" lon="-5.928744"><ele>1022.8</ele><time>2013-11-20T09:08:49Z</time></trkpt><trkpt lat="40.157031" lon="-5.928748"><ele>1023.0</ele><time>2013-11-20T09:09:04Z</time></trkpt><trkpt lat="40.157052" lon="-5.928752"><ele>1023.1</ele><time>2013-11-20T09:09:18Z</time></trkpt><trkpt lat="40.157063" lon="-5.928764"><ele>1023.2</ele><time>2013-11-20T09:09:33Z</time></trkpt><trkpt lat="40.157127" lon="-5.928788"><ele>1023.6</ele><time>2013-11-20T09:09:48Z</time></trkpt><trkpt lat="40.157176" lon="-5.928898"><ele>1024.1</ele><time>2013-11-20T09:10:03Z</time></trkpt><trkpt lat="40.157251" lon="-5.928951"><ele>1024.6</ele><time>2013-11-20T09:10:19Z</time></trkpt><trkpt lat="40.157335" lon="-5.928940"><ele>1025.0</ele><time>2013-11-20T09:10:34Z</time></trkpt><trkpt lat="40.157391" lon="-5.928769"><ele>1024.9</ele><time>2013-11-20T09:10:49Z</time></trkpt><trkpt lat="40.157456" lon="-5.928596"><ele>1025.0</ele><time>2013-11-20T09:11:04Z</time></trkpt><trkpt lat="40.157522" lon="-5.928443"><ele>1025.3</ele><time>2013-11-20T09:11:19Z</time></trkpt><trkpt lat="40.157583" lon="-5.928323"><ele>1025.7</ele><time>2013-11-20T09:11:33Z</time></trkpt><trkpt lat="40.157580" lon="-5.928295"><ele>1025.7</ele><time>2013-11-20T09:11:48Z</time></trkpt><trkpt lat="40.157596" lon="-5.928261"><ele>1025.8</ele><time>2013-11-20T09:12:03Z</time></trkpt><trkpt lat="40.157622" lon="-5.928226"><ele>1026.0</ele><time>2013-11-20T09:12:18Z</time></trkpt><trkpt lat="40.157681" lon="-5.928004"><ele>1026.4</ele><time>2013-11-20T09:12:34Z</time></trkpt><trkpt lat="40.157705" lon="-5.927923"><ele>1026.6</ele><time>2013-11-20T09:12:49Z</time></trkpt><trkpt lat="40.157728" lon="-5.927900"><ele>1026.8</ele><time>2013-11-20T09:13:04Z</time></trkpt><trkpt lat="40.157803" lon="-5.927737"><ele>1027.3</ele><time>2013-11-20T09:13:19Z</time></trkpt><trkpt lat="40.157876" lon="-5.927706"><ele>1027.8</ele><time>2013-11-20T09:13:34Z</time></trkpt><trkpt lat="40.157888" lon="-5.927704"><ele>1027.9</ele><time>2013-11-20T09:13:48Z</time></trkpt><trkpt lat="40.157913" lon="-5.927692"><ele>1028.1</ele><time>2013-11-20T09:14:03Z</time></trkpt><trkpt lat="40.157926" lon="-5.927689"><ele>1028.2</ele><time>2013-11-20T09:14:18Z</time></trkpt><trkpt lat="40.157987" lon="-5.927677"><ele>1028.6</ele><time>2013-11-20T09:14:33Z</time></trkpt><trkpt lat="40.158000" lon="-5.927671"><ele>1028.7</ele><time>2013-11-20T09:14:49Z</time></trkpt><trkpt lat="40.158013" lon="-5.927667"><ele>1028.8</ele><time>2013-11-20T09:15:04Z</time></trkpt><trkpt lat="40.158222" lon="-5.927639"><ele>1030.3</ele><time>2013-11-20T09:15:19Z</time></trkpt><trkpt lat="40.158399" lon="-5.927671"><ele>1031.9</ele><time>2013-11-20T09:15:34Z</time></trkpt><trkpt lat="40.158467" lon="-5.927676"><ele>1032.5</ele><time>2013-11-20T09:15:49Z</time></trkpt><trkpt lat="40.158579" lon="-5.927688"><ele>1033.7</ele><time>2013-11-20T09:16:03Z</time></trkpt><trkpt lat="40.158608" lon="-5.927680"><ele>1033.9</ele><time>2013-11-20T09:16:18Z</time></trkpt><trkpt lat="40.158648" lon="-5.927690"><ele>1034.3</ele><time>2013-11-20T09:16:33Z</time></trkpt><trkpt lat="40.158682" lon="-5.927701"><ele>1034.7</ele><time>2013-11-20T09:16:48Z</time></trkpt><trkpt lat="40.158782" lon="-5.927731"><ele>1035.7</ele><time>2013-11-20T09:17:04Z</time></trkpt><trkpt lat="40.158895" lon="-5.927724"><ele>1036.8</ele><time>2013-11-20T09:17:19Z</time></trkpt><trkpt lat="40.159094" lon="-5.927707"><ele>1038.8</ele><time>2013-11-20T09:17:34Z</time></trkpt><trkpt lat="40.159201" lon="-5.927638"><ele>1039.6</ele><time>2013-11-20T09:17:49Z</time></trkpt><trkpt lat="40.159242" lon="-5.927604"><ele>1039.9</ele><time>2013-11-20T09:18:04Z</time></trkpt><trkpt lat="40.159293" lon="-5.927583"><ele>1040.3</ele><time>2013-11-20T09:18:18Z</time></trkpt><trkpt lat="40.159313" lon="-5.927569"><ele>1040.5</ele><time>2013-11-20T09:18:33Z</time></trkpt><trkpt lat="40.159338" lon="-5.927564"><ele>1040.7</ele><time>2013-11-20T09:18:48Z</time></trkpt><trkpt lat="40.159361" lon="-5.927545"><ele>1040.8</ele><time>2013-11-20T09:19:03Z</time></trkpt><trkpt lat="40.159368" lon="-5.927534"><ele>1040.8</ele><time>2013-11-20T09:19:19Z</time></trkpt><trkpt lat="40.159496" lon="-5.927469"><ele>1041.8</ele><time>2013-11-20T09:19:34Z</time></trkpt><trkpt lat="40.159549" lon="-5.927415"><ele>1042.4</ele><time>2013-11-20T09:19:49Z</time></trkpt><trkpt lat="40.159646" lon="-5.927314"><ele>1043.3</ele><time>2013-11-20T09:20:04Z</time></trkpt><trkpt lat="40.159787" lon="-5.927249"><ele>1044.6</ele><time>2013-11-20T09:20:19Z</time></trkpt><trkpt lat="40.159955" lon="-5.927204"><ele>1046.0</ele><time>2013-11-20T09:20:33Z</time></trkpt><trkpt lat="40.160087" lon="-5.927151"><ele>1047.5</ele><time>2013-11-20T09:20:48Z</time></trkpt><trkpt lat="40.160210" lon="-5.927209"><ele>1048.9</ele><time>2013-11-20T09:21:03Z</time></trkpt><trkpt lat="40.160346" lon="-5.927350"><ele>1050.6</ele><time>2013-11-20T09:21:18Z</time></trkpt><trkpt lat="40.160481" lon="-5.927408"><ele>1052.3</ele><time>2013-11-20T09:21:34Z</time></trkpt><trkpt lat="40.160574" lon="-5.927406"><ele>1053.5</ele><time>2013-11-20T09:21:49Z</time></trkpt><trkpt lat="40.160633" lon="-5.927374"><ele>1054.3</ele><time>2013-11-20T09:22:04Z</time></trkpt><trkpt lat="40.160703" lon="-5.927303"><ele>1055.1</ele><time>2013-11-20T09:22:19Z</time></trkpt><trkpt lat="40.160764" lon="-5.927274"><ele>1055.9</ele><time>2013-11-20T09:22:34Z</time></trkpt><trkpt lat="40.160801" lon="-5.927237"><ele>1056.3</ele><time>2013-11-20T09:22:48Z</time></trkpt><trkpt lat="40.160811" lon="-5.927199"><ele>1056.4</ele><time>2013-11-20T09:23:03Z</time></trkpt><trkpt lat="40.160823" lon="-5.927179"><ele>1056.5</ele><time>2013-11-20T09:23:18Z</time></trkpt><trkpt lat="40.160856" lon="-5.927113"><ele>1056.9</ele><time>2013-11-20T09:23:33Z</time></trkpt><trkpt lat="40.160812" lon="-5.927030"><ele>1056.2</ele><time>2013-11-20T09:23:49Z</time></trkpt><trkpt lat="40.160815" lon="-5.927032"><ele>1056.2</ele><time>2013-11-20T09:24:04Z</time></trkpt><trkpt lat="40.160840" lon="-5.926951"><ele>1056.5</ele><time>2013-11-20T09:24:19Z</time></trkpt><trkpt lat="40.160848" lon="-5.926893"><ele>1056.5</ele><time>2013-11-20T09:24:34Z</time></trkpt><trkpt lat="40.160854" lon="-5.926851"><ele>1056.6</ele><time>2013-11-20T09:24:49Z</time></trkpt><trkpt lat="40.160873" lon="-5.926815"><ele>1056.9</ele><time>2013-11-20T09:25:03Z</time></trkpt><trkpt lat="40.160880" lon="-5.926783"><ele>1057.0</ele><time>2013-11-20T09:25:18Z</time></trkpt><trkpt lat="40.160909" lon="-5.926722"><ele>1057.4</ele><time>2013-11-20T09:25:33Z</time></trkpt><trkpt lat="40.160945" lon="-5.926721"><ele>1058.1</ele><time>2013-11-20T09:25:48Z</time></trkpt><trkpt lat="40.160982" lon="-5.926687"><ele>1058.7</ele><time>2013-11-20T09:26:04Z</time></trkpt><trkpt lat="40.161027" lon="-5.926598"><ele>1059.6</ele><time>2013-11-20T09:26:19Z</time></trkpt><trkpt lat="40.161078" lon="-5.926539"><ele>1060.7</ele><time>2013-11-20T09:26:34Z</time></trkpt><trkpt lat="40.161103" lon="-5.926613"><ele>1061.0</ele><time>2013-11-20T09:26:49Z</time></trkpt><trkpt lat="40.161137" lon="-5.926685"><ele>1061.5</ele><time>2013-11-20T09:27:04Z</time></trkpt><trkpt lat="40.161186" lon="-5.926699"><ele>1062.4</ele><time>2013-11-20T09:27:18Z</time></trkpt><trkpt lat="40.161228" lon="-5.926665"><ele>1063.1</ele><time>2013-11-20T09:27:33Z</time></trkpt><trkpt lat="40.161274" lon="-5.926694"><ele>1063.9</ele><time>2013-11-20T09:27:48Z</time></trkpt><trkpt lat="40.161306" lon="-5.926689"><ele>1064.5</ele><time>2013-11-20T09:28:03Z</time></trkpt><trkpt lat="40.161337" lon="-5.926702"><ele>1065.1</ele><time>2013-11-20T09:28:19Z</time></trkpt><trkpt lat="40.161367" lon="-5.926695"><ele>1065.6</ele><time>2013-11-20T09:28:34Z</time></trkpt><trkpt lat="40.161388" lon="-5.926655"><ele>1066.0</ele><time>2013-11-20T09:28:49Z</time></trkpt><trkpt lat="40.161436" lon="-5.926525"><ele>1067.1</ele><time>2013-11-20T09:29:04Z</time></trkpt><trkpt lat="40.161524" lon="-5.926452"><ele>1068.7</ele><time>2013-11-20T09:29:19Z</time></trkpt><trkpt lat="40.161568" lon="-5.926398"><ele>1069.6</ele><time>2013-11-20T09:29:33Z</time></trkpt><trkpt lat="40.161578" lon="-5.926334"><ele>1069.8</ele><time>2013-11-20T09:29:48Z</time></trkpt><trkpt lat="40.161622" lon="-5.926289"><ele>1070.7</ele><time>2013-11-20T09:30:03Z</time></trkpt><trkpt lat="40.161673" lon="-5.926244"><ele>1071.6</ele><time>2013-11-20T09:30:18Z</time></trkpt><trkpt lat="40.161712" lon="-5.926220"><ele>1072.0</ele><time>2013-11-20T09:30:34Z</time></trkpt><trkpt lat="40.161751" lon="-5.926201"><ele>1072.4</ele><time>2013-11-20T09:30:49Z</time></trkpt><trkpt lat="40.161793" lon="-5.926208"><ele>1072.8</ele><time>2013-11-20T09:31:04Z</time></trkpt><trkpt lat="40.161843" lon="-5.926213"><ele>1073.3</ele><time>2013-11-20T09:31:19Z</time></trkpt><trkpt lat="40.161878" lon="-5.926221"><ele>1073.7</ele><time>2013-11-20T09:31:34Z</time></trkpt><trkpt lat="40.161919" lon="-5.926228"><ele>1074.1</ele><time>2013-11-20T09:31:48Z</time></trkpt><trkpt lat="40.161961" lon="-5.926233"><ele>1074.5</ele><time>2013-11-20T09:32:03Z</time></trkpt><trkpt lat="40.161998" lon="-5.926232"><ele>1074.9</ele><time>2013-11-20T09:32:18Z</time></trkpt><trkpt lat="40.162031" lon="-5.926227"><ele>1075.2</ele><time>2013-11-20T09:32:33Z</time></trkpt><trkpt lat="40.162056" lon="-5.926229"><ele>1075.5</ele><time>2013-11-20T09:32:49Z</time></trkpt><trkpt lat="40.162092" lon="-5.926245"><ele>1075.8</ele><time>2013-11-20T09:33:04Z</time></trkpt><trkpt lat="40.162281" lon="-5.926224"><ele>1077.8</ele><time>2013-11-20T09:33:19Z</time></trkpt><trkpt lat="40.162322" lon="-5.926240"><ele>1078.2</ele><time>2013-11-20T09:33:34Z</time></trkpt><trkpt lat="40.162349" lon="-5.926235"><ele>1078.5</ele><time>2013-11-20T09:33:49Z</time></trkpt><trkpt lat="40.162391" lon="-5.926263"><ele>1078.9</ele><time>2013-11-20T09:34:03Z</time></trkpt><trkpt lat="40.162428" lon="-5.926221"><ele>1079.3</ele><time>2013-11-20T09:34:18Z</time></trkpt><trkpt lat="40.162451" lon="-5.926128"><ele>1079.5</ele><time>2013-11-20T09:34:33Z</time></trkpt><trkpt lat="40.162469" lon="-5.926029"><ele>1079.7</ele><time>2013-11-20T09:34:48Z</time></trkpt><trkpt lat="40.162541" lon="-5.925844"><ele>1080.6</ele><time>2013-11-20T09:35:04Z</time></trkpt><trkpt lat="40.162611" lon="-5.925733"><ele>1081.7</ele><time>2013-11-20T09:35:19Z</time></trkpt><trkpt lat="40.162680" lon="-5.925607"><ele>1082.9</ele><time>2013-11-20T09:35:34Z</time></trkpt><trkpt lat="40.162768" lon="-5.925578"><ele>1084.3</ele><time>2013-11-20T09:35:49Z</time></trkpt><trkpt lat="40.162836" lon="-5.925578"><ele>1085.3</ele><time>2013-11-20T09:36:04Z</time></trkpt><trkpt lat="40.162880" lon="-5.925571"><ele>1085.9</ele><time>2013-11-20T09:36:18Z</time></trkpt><trkpt lat="40.162903" lon="-5.925596"><ele>1086.2</ele><time>2013-11-20T09:36:33Z</time></trkpt><trkpt lat="40.162944" lon="-5.925597"><ele>1086.8</ele><time>2013-11-20T09:36:48Z</time></trkpt><trkpt lat="40.163063" lon="-5.925588"><ele>1088.6</ele><time>2013-11-20T09:37:03Z</time></trkpt><trkpt lat="40.163199" lon="-5.925579"><ele>1090.6</ele><time>2013-11-20T09:37:19Z</time></trkpt><trkpt lat="40.163308" lon="-5.925722"><ele>1091.9</ele><time>2013-11-20T09:37:34Z</time></trkpt><trkpt lat="40.163363" lon="-5.925829"><ele>1092.4</ele><time>2013-11-20T09:37:49Z</time></trkpt><trkpt lat="40.163449" lon="-5.925907"><ele>1093.9</ele><time>2013-11-20T09:38:04Z</time></trkpt><trkpt lat="40.163579" lon="-5.925917"><ele>1095.8</ele><time>2013-11-20T09:38:19Z</time></trkpt><trkpt lat="40.163781" lon="-5.925965"><ele>1098.9</ele><time>2013-11-20T09:38:33Z</time></trkpt><trkpt lat="40.163976" lon="-5.926012"><ele>1102.0</ele><time>2013-11-20T09:38:48Z</time></trkpt><trkpt lat="40.164163" lon="-5.925997"><ele>1104.7</ele><time>2013-11-20T09:39:03Z</time></trkpt><trkpt lat="40.164250" lon="-5.926003"><ele>1106.0</ele><time>2013-11-20T09:39:18Z</time></trkpt><trkpt lat="40.164299" lon="-5.925985"><ele>1106.6</ele><time>2013-11-20T09:39:34Z</time></trkpt><trkpt lat="40.164489" lon="-5.925978"><ele>1109.3</ele><time>2013-11-20T09:39:49Z</time></trkpt><trkpt lat="40.164715" lon="-5.925993"><ele>1112.7</ele><time>2013-11-20T09:40:04Z</time></trkpt><trkpt lat="40.164801" lon="-5.925964"><ele>1113.8</ele><time>2013-11-20T09:40:19Z</time></trkpt><trkpt lat="40.164827" lon="-5.925904"><ele>1113.8</ele><time>2013-11-20T09:40:34Z</time></trkpt><trkpt lat="40.164848" lon="-5.925808"><ele>1113.7</ele><time>2013-11-20T09:40:48Z</time></trkpt><trkpt lat="40.164862" lon="-5.925765"><ele>1113.6</ele><time>2013-11-20T09:41:03Z</time></trkpt><trkpt lat="40.164887" lon="-5.925674"><ele>1113.4</ele><time>2013-11-20T09:41:18Z</time></trkpt><trkpt lat="40.164889" lon="-5.925655"><ele>1113.4</ele><time>2013-11-20T09:41:33Z</time></trkpt><trkpt lat="40.164894" lon="-5.925584"><ele>1113.0</ele><time>2013-11-20T09:41:49Z</time></trkpt><trkpt lat="40.164900" lon="-5.925533"><ele>1112.8</ele><time>2013-11-20T09:42:04Z</time></trkpt><trkpt lat="40.164974" lon="-5.925369"><ele>1112.9</ele><time>2013-11-20T09:42:19Z</time></trkpt><trkpt lat="40.164991" lon="-5.925299"><ele>1112.7</ele><time>2013-11-20T09:42:34Z</time></trkpt><trkpt lat="40.165017" lon="-5.925271"><ele>1112.9</ele><time>2013-11-20T09:42:49Z</time></trkpt><trkpt lat="40.165041" lon="-5.925272"><ele>1113.2</ele><time>2013-11-20T09:43:03Z</time></trkpt><trkpt lat="40.165178" lon="-5.925230"><ele>1114.8</ele><time>2013-11-20T09:43:18Z</time></trkpt><trkpt lat="40.165350" lon="-5.925292"><ele>1117.4</ele><time>2013-11-20T09:43:33Z</time></trkpt><trkpt lat="40.165531" lon="-5.925366"><ele>1120.0</ele><time>2013-11-20T09:43:48Z</time></trkpt><trkpt lat="40.165599" lon="-5.925396"><ele>1121.0</ele><time>2013-11-20T09:44:04Z</time></trkpt><trkpt lat="40.165661" lon="-5.925409"><ele>1121.8</ele><time>2013-11-20T09:44:19Z</time></trkpt><trkpt lat="40.165787" lon="-5.925438"><ele>1123.5</ele><time>2013-11-20T09:44:34Z</time></trkpt><trkpt lat="40.165867" lon="-5.925418"><ele>1124.8</ele><time>2013-11-20T09:44:49Z</time></trkpt><trkpt lat="40.165928" lon="-5.925376"><ele>1126.2</ele><time>2013-11-20T09:45:04Z</time></trkpt><trkpt lat="40.166074" lon="-5.925242"><ele>1129.3</ele><time>2013-11-20T09:45:18Z</time></trkpt><trkpt lat="40.166134" lon="-5.925181"><ele>1130.5</ele><time>2013-11-20T09:45:33Z</time></trkpt><trkpt lat="40.166242" lon="-5.924974"><ele>1132.3</ele><time>2013-11-20T09:45:48Z</time></trkpt><trkpt lat="40.166312" lon="-5.924819"><ele>1134.1</ele><time>2013-11-20T09:46:03Z</time></trkpt><trkpt lat="40.166402" lon="-5.924570"><ele>1136.5</ele><time>2013-11-20T09:46:19Z</time></trkpt><trkpt lat="40.166432" lon="-5.924466"><ele>1137.4</ele><time>2013-11-20T09:46:34Z</time></trkpt><trkpt lat="40.166452" lon="-5.924413"><ele>1138.0</ele><time>2013-11-20T09:46:49Z</time></trkpt><trkpt lat="40.166453" lon="-5.924404"><ele>1138.0</ele><time>2013-11-20T09:47:04Z</time></trkpt><trkpt lat="40.166443" lon="-5.924382"><ele>1137.8</ele><time>2013-11-20T09:47:19Z</time></trkpt><trkpt lat="40.166458" lon="-5.924351"><ele>1138.2</ele><time>2013-11-20T09:47:33Z</time></trkpt><trkpt lat="40.166473" lon="-5.924326"><ele>1138.6</ele><time>2013-11-20T09:47:48Z</time></trkpt><trkpt lat="40.166525" lon="-5.924123"><ele>1140.1</ele><time>2013-11-20T09:48:03Z</time></trkpt><trkpt lat="40.166588" lon="-5.924016"><ele>1141.3</ele><time>2013-11-20T09:48:18Z</time></trkpt><trkpt lat="40.166715" lon="-5.923851"><ele>1144.0</ele><time>2013-11-20T09:48:34Z</time></trkpt><trkpt lat="40.166735" lon="-5.923823"><ele>1144.5</ele><time>2013-11-20T09:48:49Z</time></trkpt><trkpt lat="40.166813" lon="-5.923737"><ele>1146.5</ele><time>2013-11-20T09:49:04Z</time></trkpt><trkpt lat="40.166956" lon="-5.923537"><ele>1149.5</ele><time>2013-11-20T09:49:19Z</time></trkpt><trkpt lat="40.167002" lon="-5.923503"><ele>1150.6</ele><time>2013-11-20T09:49:34Z</time></trkpt><trkpt lat="40.167178" lon="-5.923437"><ele>1155.1</ele><time>2013-11-20T09:49:48Z</time></trkpt><trkpt lat="40.167236" lon="-5.923399"><ele>1156.4</ele><time>2013-11-20T09:50:03Z</time></trkpt><trkpt lat="40.167328" lon="-5.923194"><ele>1158.3</ele><time>2013-11-20T09:50:18Z</time></trkpt><trkpt lat="40.167445" lon="-5.923064"><ele>1161.1</ele><time>2013-11-20T09:50:33Z</time></trkpt><trkpt lat="40.167571" lon="-5.922888"><ele>1164.0</ele><time>2013-11-20T09:50:49Z</time></trkpt><trkpt lat="40.167588" lon="-5.922861"><ele>1164.4</ele><time>2013-11-20T09:51:04Z</time></trkpt><trkpt lat="40.167582" lon="-5.922762"><ele>1163.9</ele><time>2013-11-20T09:51:19Z</time></trkpt><trkpt lat="40.167540" lon="-5.922733"><ele>1162.7</ele><time>2013-11-20T09:51:34Z</time></trkpt><trkpt lat="40.167509" lon="-5.922718"><ele>1161.8</ele><time>2013-11-20T09:51:49Z</time></trkpt><trkpt lat="40.167261" lon="-5.922684"><ele>1157.5</ele><time>2013-11-20T09:52:03Z</time></trkpt><trkpt lat="40.167082" lon="-5.922604"><ele>1155.0</ele><time>2013-11-20T09:52:18Z</time></trkpt><trkpt lat="40.167033" lon="-5.922580"><ele>1154.4</ele><time>2013-11-20T09:52:33Z</time></trkpt><trkpt lat="40.166991" lon="-5.922557"><ele>1153.9</ele><time>2013-11-20T09:52:48Z</time></trkpt><trkpt lat="40.166923" lon="-5.922521"><ele>1153.2</ele><time>2013-11-20T09:53:04Z</time></trkpt><trkpt lat="40.166919" lon="-5.922498"><ele>1153.4</ele><time>2013-11-20T09:53:19Z</time></trkpt><trkpt lat="40.166905" lon="-5.922480"><ele>1153.5</ele><time>2013-11-20T09:53:34Z</time></trkpt><trkpt lat="40.166866" lon="-5.922442"><ele>1153.5</ele><time>2013-11-20T09:53:49Z</time></trkpt><trkpt lat="40.166832" lon="-5.922429"><ele>1153.3</ele><time>2013-11-20T09:54:04Z</time></trkpt><trkpt lat="40.166741" lon="-5.922334"><ele>1153.8</ele><time>2013-11-20T09:54:18Z</time></trkpt><trkpt lat="40.166528" lon="-5.922218"><ele>1153.1</ele><time>2013-11-20T09:54:33Z</time></trkpt><trkpt lat="40.166385" lon="-5.922125"><ele>1152.5</ele><time>2013-11-20T09:54:48Z</time></trkpt><trkpt lat="40.166332" lon="-5.921992"><ele>1153.7</ele><time>2013-11-20T09:55:03Z</time></trkpt><trkpt lat="40.166304" lon="-5.921919"><ele>1154.3</ele><time>2013-11-20T09:55:19Z</time></trkpt><trkpt lat="40.166286" lon="-5.921853"><ele>1155.0</ele><time>2013-11-20T09:55:34Z</time></trkpt><trkpt lat="40.166273" lon="-5.921767"><ele>1156.0</ele><time>2013-11-20T09:55:49Z</time></trkpt><trkpt lat="40.166265" lon="-5.921713"><ele>1156.6</ele><time>2013-11-20T09:56:04Z</time></trkpt><trkpt lat="40.166267" lon="-5.921652"><ele>1157.4</ele><time>2013-11-20T09:56:19Z</time></trkpt><trkpt lat="40.166252" lon="-5.921347"><ele>1159.3</ele><time>2013-11-20T09:56:33Z</time></trkpt><trkpt lat="40.166271" lon="-5.921176"><ele>1161.0</ele><time>2013-11-20T09:56:48Z</time></trkpt><trkpt lat="40.166297" lon="-5.921114"><ele>1162.0</ele><time>2013-11-20T09:57:03Z</time></trkpt><trkpt lat="40.166387" lon="-5.920867"><ele>1166.0</ele><time>2013-11-20T09:57:18Z</time></trkpt><trkpt lat="40.166414" lon="-5.920676"><ele>1168.2</ele><time>2013-11-20T09:57:34Z</time></trkpt><trkpt lat="40.166403" lon="-5.920652"><ele>1168.1</ele><time>2013-11-20T09:57:49Z</time></trkpt><trkpt lat="40.166413" lon="-5.920564"><ele>1169.0</ele><time>2013-11-20T09:58:04Z</time></trkpt><trkpt lat="40.166402" lon="-5.920549"><ele>1168.9</ele><time>2013-11-20T09:58:19Z</time></trkpt><trkpt lat="40.166364" lon="-5.920487"><ele>1168.5</ele><time>2013-11-20T09:58:34Z</time></trkpt><trkpt lat="40.166299" lon="-5.920122"><ele>1170.1</ele><time>2013-11-20T09:58:48Z</time></trkpt><trkpt lat="40.166256" lon="-5.919854"><ele>1170.4</ele><time>2013-11-20T09:59:03Z</time></trkpt><trkpt lat="40.166264" lon="-5.919818"><ele>1170.6</ele><time>2013-11-20T09:59:18Z</time></trkpt><trkpt lat="40.166260" lon="-5.919569"><ele>1171.0</ele><time>2013-11-20T09:59:33Z</time></trkpt><trkpt lat="40.166259" lon="-5.919541"><ele>1171.0</ele><time>2013-11-20T09:59:49Z</time></trkpt><trkpt lat="40.166262" lon="-5.919513"><ele>1171.1</ele><time>2013-11-20T10:00:04Z</time></trkpt><trkpt lat="40.166275" lon="-5.919422"><ele>1171.5</ele><time>2013-11-20T10:00:19Z</time></trkpt><trkpt lat="40.166278" lon="-5.919420"><ele>1171.6</ele><time>2013-11-20T10:00:34Z</time></trkpt><trkpt lat="40.166265" lon="-5.919078"><ele>1171.9</ele><time>2013-11-20T10:00:49Z</time></trkpt><trkpt lat="40.166263" lon="-5.919073"><ele>1171.8</ele><time>2013-11-20T10:01:03Z</time></trkpt><trkpt lat="40.166190" lon="-5.918942"><ele>1170.7</ele><time>2013-11-20T10:01:18Z</time></trkpt><trkpt lat="40.166184" lon="-5.918904"><ele>1170.7</ele><time>2013-11-20T10:01:33Z</time></trkpt><trkpt lat="40.166184" lon="-5.918872"><ele>1170.7</ele><time>2013-11-20T10:01:48Z</time></trkpt><trkpt lat="40.166183" lon="-5.918870"><ele>1170.7</ele><time>2013-11-20T10:02:04Z</time></trkpt><trkpt lat="40.166176" lon="-5.918874"><ele>1170.6</ele><time>2013-11-20T10:02:19Z</time></trkpt><trkpt lat="40.166151" lon="-5.918828"><ele>1170.2</ele><time>2013-11-20T10:02:34Z</time></trkpt><trkpt lat="40.166198" lon="-5.918790"><ele>1171.1</ele><time>2013-11-20T10:02:49Z</time></trkpt><trkpt lat="40.166284" lon="-5.918751"><ele>1172.6</ele><time>2013-11-20T10:03:04Z</time></trkpt><trkpt lat="40.166321" lon="-5.918719"><ele>1173.2</ele><time>2013-11-20T10:03:18Z</time></trkpt><trkpt lat="40.166389" lon="-5.918660"><ele>1174.4</ele><time>2013-11-20T10:03:33Z</time></trkpt><trkpt lat="40.166408" lon="-5.918589"><ele>1174.8</ele><time>2013-11-20T10:03:48Z</time></trkpt><trkpt lat="40.166415" lon="-5.918587"><ele>1174.9</ele><time>2013-11-20T10:04:03Z</time></trkpt><trkpt lat="40.166453" lon="-5.918538"><ele>1175.5</ele><time>2013-11-20T10:04:19Z</time></trkpt><trkpt lat="40.166489" lon="-5.918490"><ele>1176.1</ele><time>2013-11-20T10:04:34Z</time></trkpt><trkpt lat="40.166610" lon="-5.918276"><ele>1178.1</ele><time>2013-11-20T10:04:49Z</time></trkpt><trkpt lat="40.166690" lon="-5.918124"><ele>1179.1</ele><time>2013-11-20T10:05:04Z</time></trkpt><trkpt lat="40.166878" lon="-5.918051"><ele>1181.9</ele><time>2013-11-20T10:05:19Z</time></trkpt><trkpt lat="40.167081" lon="-5.917994"><ele>1185.0</ele><time>2013-11-20T10:05:33Z</time></trkpt><trkpt lat="40.167254" lon="-5.917940"><ele>1187.7</ele><time>2013-11-20T10:05:48Z</time></trkpt><trkpt lat="40.167343" lon="-5.917791"><ele>1189.1</ele><time>2013-11-20T10:06:03Z</time></trkpt><trkpt lat="40.167399" lon="-5.917788"><ele>1190.0</ele><time>2013-11-20T10:06:18Z</time></trkpt><trkpt lat="40.167580" lon="-5.917791"><ele>1193.6</ele><time>2013-11-20T10:06:34Z</time></trkpt><trkpt lat="40.167789" lon="-5.917798"><ele>1198.6</ele><time>2013-11-20T10:06:49Z</time></trkpt><trkpt lat="40.167903" lon="-5.918016"><ele>1201.1</ele><time>2013-11-20T10:07:04Z</time></trkpt><trkpt lat="40.167966" lon="-5.918225"><ele>1202.3</ele><time>2013-11-20T10:07:19Z</time></trkpt><trkpt lat="40.168063" lon="-5.918276"><ele>1204.6</ele><time>2013-11-20T10:07:34Z</time></trkpt><trkpt lat="40.168102" lon="-5.918186"><ele>1205.6</ele><time>2013-11-20T10:07:48Z</time></trkpt><trkpt lat="40.168073" lon="-5.917945"><ele>1205.2</ele><time>2013-11-20T10:08:03Z</time></trkpt><trkpt lat="40.168126" lon="-5.917722"><ele>1206.8</ele><time>2013-11-20T10:08:18Z</time></trkpt><trkpt lat="40.168159" lon="-5.917597"><ele>1207.7</ele><time>2013-11-20T10:08:33Z</time></trkpt><trkpt lat="40.168215" lon="-5.917372"><ele>1209.2</ele><time>2013-11-20T10:08:49Z</time></trkpt><trkpt lat="40.168211" lon="-5.917306"><ele>1209.1</ele><time>2013-11-20T10:09:04Z</time></trkpt><trkpt lat="40.168225" lon="-5.917000"><ele>1209.5</ele><time>2013-11-20T10:09:19Z</time></trkpt><trkpt lat="40.168221" lon="-5.916759"><ele>1209.4</ele><time>2013-11-20T10:09:34Z</time></trkpt><trkpt lat="40.168257" lon="-5.916550"><ele>1209.9</ele><time>2013-11-20T10:09:49Z</time></trkpt><trkpt lat="40.168314" lon="-5.916536"><ele>1211.1</ele><time>2013-11-20T10:10:03Z</time></trkpt><trkpt lat="40.168312" lon="-5.916611"><ele>1211.3</ele><time>2013-11-20T10:10:18Z</time></trkpt><trkpt lat="40.168315" lon="-5.916664"><ele>1211.6</ele><time>2013-11-20T10:10:33Z</time></trkpt><trkpt lat="40.168336" lon="-5.916736"><ele>1212.1</ele><time>2013-11-20T10:10:48Z</time></trkpt><trkpt lat="40.168362" lon="-5.916845"><ele>1213.0</ele><time>2013-11-20T10:11:04Z</time></trkpt><trkpt lat="40.168445" lon="-5.917037"><ele>1215.9</ele><time>2013-11-20T10:11:19Z</time></trkpt><trkpt lat="40.168485" lon="-5.917162"><ele>1217.4</ele><time>2013-11-20T10:11:34Z</time></trkpt><trkpt lat="40.168555" lon="-5.917402"><ele>1219.9</ele><time>2013-11-20T10:11:49Z</time></trkpt><trkpt lat="40.168586" lon="-5.917609"><ele>1220.8</ele><time>2013-11-20T10:12:04Z</time></trkpt><trkpt lat="40.168652" lon="-5.917727"><ele>1222.9</ele><time>2013-11-20T10:12:18Z</time></trkpt><trkpt lat="40.168726" lon="-5.917958"><ele>1224.8</ele><time>2013-11-20T10:12:33Z</time></trkpt><trkpt lat="40.168662" lon="-5.918241"><ele>1221.9</ele><time>2013-11-20T10:12:48Z</time></trkpt><trkpt lat="40.168629" lon="-5.918350"><ele>1220.3</ele><time>2013-11-20T10:13:03Z</time></trkpt><trkpt lat="40.168642" lon="-5.918441"><ele>1219.4</ele><time>2013-11-20T10:13:19Z</time></trkpt><trkpt lat="40.168678" lon="-5.918566"><ele>1218.7</ele><time>2013-11-20T10:13:34Z</time></trkpt><trkpt lat="40.168806" lon="-5.918733"><ele>1219.9</ele><time>2013-11-20T10:13:49Z</time></trkpt><trkpt lat="40.168988" lon="-5.918815"><ele>1223.7</ele><time>2013-11-20T10:14:04Z</time></trkpt><trkpt lat="40.169102" lon="-5.918899"><ele>1225.4</ele><time>2013-11-20T10:14:19Z</time></trkpt><trkpt lat="40.169280" lon="-5.918953"><ele>1230.2</ele><time>2013-11-20T10:14:33Z</time></trkpt><trkpt lat="40.169309" lon="-5.918899"><ele>1232.3</ele><time>2013-11-20T10:14:48Z</time></trkpt><trkpt lat="40.169314" lon="-5.918818"><ele>1234.1</ele><time>2013-11-20T10:15:03Z</time></trkpt><trkpt lat="40.169215" lon="-5.918669"><ele>1233.4</ele><time>2013-11-20T10:15:18Z</time></trkpt><trkpt lat="40.169133" lon="-5.918451"><ele>1234.7</ele><time>2013-11-20T10:15:34Z</time></trkpt><trkpt lat="40.169129" lon="-5.918333"><ele>1236.8</ele><time>2013-11-20T10:15:49Z</time></trkpt><trkpt lat="40.169186" lon="-5.918175"><ele>1239.6</ele><time>2013-11-20T10:16:04Z</time></trkpt><trkpt lat="40.169203" lon="-5.918132"><ele>1240.5</ele><time>2013-11-20T10:16:19Z</time></trkpt><trkpt lat="40.169209" lon="-5.918097"><ele>1240.9</ele><time>2013-11-20T10:16:34Z</time></trkpt><trkpt lat="40.169211" lon="-5.918079"><ele>1241.1</ele><time>2013-11-20T10:16:48Z</time></trkpt><trkpt lat="40.169214" lon="-5.918071"><ele>1241.2</ele><time>2013-11-20T10:17:03Z</time></trkpt><trkpt lat="40.169222" lon="-5.918036"><ele>1241.8</ele><time>2013-11-20T10:17:18Z</time></trkpt><trkpt lat="40.169233" lon="-5.918016"><ele>1242.3</ele><time>2013-11-20T10:17:33Z</time></trkpt><trkpt lat="40.169293" lon="-5.917804"><ele>1246.1</ele><time>2013-11-20T10:17:49Z</time></trkpt><trkpt lat="40.169301" lon="-5.917660"><ele>1247.3</ele><time>2013-11-20T10:18:04Z</time></trkpt><trkpt lat="40.169337" lon="-5.917492"><ele>1250.0</ele><time>2013-11-20T10:18:19Z</time></trkpt><trkpt lat="40.169412" lon="-5.917340"><ele>1253.2</ele><time>2013-11-20T10:18:34Z</time></trkpt><trkpt lat="40.169499" lon="-5.917003"><ele>1256.7</ele><time>2013-11-20T10:18:49Z</time></trkpt><trkpt lat="40.169521" lon="-5.916684"><ele>1257.2</ele><time>2013-11-20T10:19:03Z</time></trkpt><trkpt lat="40.169534" lon="-5.916432"><ele>1255.4</ele><time>2013-11-20T10:19:18Z</time></trkpt><trkpt lat="40.169640" lon="-5.916207"><ele>1257.9</ele><time>2013-11-20T10:19:33Z</time></trkpt><trkpt lat="40.169787" lon="-5.916044"><ele>1262.8</ele><time>2013-11-20T10:19:48Z</time></trkpt><trkpt lat="40.169942" lon="-5.915898"><ele>1268.1</ele><time>2013-11-20T10:20:04Z</time></trkpt><trkpt lat="40.170055" lon="-5.915682"><ele>1269.6</ele><time>2013-11-20T10:20:19Z</time></trkpt><trkpt lat="40.170063" lon="-5.915662"><ele>1269.6</ele><time>2013-11-20T10:20:34Z</time></trkpt><trkpt lat="40.170077" lon="-5.915642"><ele>1269.9</ele><time>2013-11-20T10:20:49Z</time></trkpt><trkpt lat="40.170089" lon="-5.915622"><ele>1270.0</ele><time>2013-11-20T10:21:04Z</time></trkpt><trkpt lat="40.170117" lon="-5.915582"><ele>1270.6</ele><time>2013-11-20T10:21:18Z</time></trkpt><trkpt lat="40.170160" lon="-5.915546"><ele>1271.8</ele><time>2013-11-20T10:21:33Z</time></trkpt><trkpt lat="40.170332" lon="-5.915301"><ele>1275.2</ele><time>2013-11-20T10:21:48Z</time></trkpt><trkpt lat="40.170472" lon="-5.915045"><ele>1276.9</ele><time>2013-11-20T10:22:03Z</time></trkpt><trkpt lat="40.170545" lon="-5.914929"><ele>1279.7</ele><time>2013-11-20T10:22:19Z</time></trkpt><trkpt lat="40.170577" lon="-5.914763"><ele>1281.6</ele><time>2013-11-20T10:22:34Z</time></trkpt><trkpt lat="40.170564" lon="-5.914544"><ele>1281.5</ele><time>2013-11-20T10:22:49Z</time></trkpt><trkpt lat="40.170562" lon="-5.914450"><ele>1281.6</ele><time>2013-11-20T10:23:04Z</time></trkpt><trkpt lat="40.170559" lon="-5.914383"><ele>1281.6</ele><time>2013-11-20T10:23:19Z</time></trkpt><trkpt lat="40.170544" lon="-5.914305"><ele>1281.1</ele><time>2013-11-20T10:23:33Z</time></trkpt><trkpt lat="40.170477" lon="-5.914085"><ele>1279.4</ele><time>2013-11-20T10:23:48Z</time></trkpt><trkpt lat="40.170407" lon="-5.913802"><ele>1279.6</ele><time>2013-11-20T10:24:03Z</time></trkpt><trkpt lat="40.170426" lon="-5.913536"><ele>1283.9</ele><time>2013-11-20T10:24:18Z</time></trkpt><trkpt lat="40.170440" lon="-5.913349"><ele>1287.1</ele><time>2013-11-20T10:24:34Z</time></trkpt><trkpt lat="40.170447" lon="-5.913250"><ele>1288.2</ele><time>2013-11-20T10:24:49Z</time></trkpt><trkpt lat="40.170425" lon="-5.913109"><ele>1287.8</ele><time>2013-11-20T10:25:04Z</time></trkpt><trkpt lat="40.170380" lon="-5.912871"><ele>1286.6</ele><time>2013-11-20T10:25:19Z</time></trkpt><trkpt lat="40.170327" lon="-5.912610"><ele>1284.6</ele><time>2013-11-20T10:25:34Z</time></trkpt><trkpt lat="40.170285" lon="-5.912319"><ele>1282.5</ele><time>2013-11-20T10:25:48Z</time></trkpt><trkpt lat="40.170295" lon="-5.912081"><ele>1283.1</ele><time>2013-11-20T10:26:03Z</time></trkpt><trkpt lat="40.170339" lon="-5.911769"><ele>1286.0</ele><time>2013-11-20T10:26:18Z</time></trkpt><trkpt lat="40.170346" lon="-5.911644"><ele>1286.4</ele><time>2013-11-20T10:26:33Z</time></trkpt><trkpt lat="40.170341" lon="-5.911597"><ele>1286.1</ele><time>2013-11-20T10:26:49Z</time></trkpt><trkpt lat="40.170350" lon="-5.911521"><ele>1286.7</ele><time>2013-11-20T10:27:04Z</time></trkpt><trkpt lat="40.170362" lon="-5.911437"><ele>1287.4</ele><time>2013-11-20T10:27:19Z</time></trkpt><trkpt lat="40.170412" lon="-5.911094"><ele>1290.4</ele><time>2013-11-20T10:27:34Z</time></trkpt><trkpt lat="40.170497" lon="-5.910775"><ele>1295.7</ele><time>2013-11-20T10:27:49Z</time></trkpt><trkpt lat="40.170573" lon="-5.910478"><ele>1303.2</ele><time>2013-11-20T10:28:03Z</time></trkpt><trkpt lat="40.170522" lon="-5.910194"><ele>1303.9</ele><time>2013-11-20T10:28:18Z</time></trkpt><trkpt lat="40.170437" lon="-5.909940"><ele>1302.9</ele><time>2013-11-20T10:28:33Z</time></trkpt><trkpt lat="40.170361" lon="-5.909737"><ele>1301.0</ele><time>2013-11-20T10:28:48Z</time></trkpt><trkpt lat="40.170265" lon="-5.909503"><ele>1298.3</ele><time>2013-11-20T10:29:04Z</time></trkpt><trkpt lat="40.170319" lon="-5.909202"><ele>1303.1</ele><time>2013-11-20T10:29:19Z</time></trkpt><trkpt lat="40.170383" lon="-5.908900"><ele>1302.6</ele><time>2013-11-20T10:29:34Z</time></trkpt><trkpt lat="40.170416" lon="-5.908779"><ele>1302.6</ele><time>2013-11-20T10:29:49Z</time></trkpt><trkpt lat="40.170451" lon="-5.908739"><ele>1303.9</ele><time>2013-11-20T10:30:04Z</time></trkpt><trkpt lat="40.170469" lon="-5.908746"><ele>1304.9</ele><time>2013-11-20T10:30:18Z</time></trkpt><trkpt lat="40.170490" lon="-5.908768"><ele>1306.2</ele><time>2013-11-20T10:30:33Z</time></trkpt><trkpt lat="40.170485" lon="-5.908817"><ele>1306.6</ele><time>2013-11-20T10:30:48Z</time></trkpt><trkpt lat="40.170484" lon="-5.908876"><ele>1307.4</ele><time>2013-11-20T10:31:03Z</time></trkpt><trkpt lat="40.170492" lon="-5.909036"><ele>1309.9</ele><time>2013-11-20T10:31:19Z</time></trkpt><trkpt lat="40.170491" lon="-5.909117"><ele>1310.9</ele><time>2013-11-20T10:31:34Z</time></trkpt><trkpt lat="40.170493" lon="-5.909134"><ele>1311.2</ele><time>2013-11-20T10:31:49Z</time></trkpt><trkpt lat="40.170490" lon="-5.909157"><ele>1311.4</ele><time>2013-11-20T10:32:04Z</time></trkpt><trkpt lat="40.170491" lon="-5.909185"><ele>1311.4</ele><time>2013-11-20T10:32:19Z</time></trkpt><trkpt lat="40.170501" lon="-5.909209"><ele>1311.7</ele><time>2013-11-20T10:32:33Z</time></trkpt><trkpt lat="40.170509" lon="-5.909229"><ele>1311.9</ele><time>2013-11-20T10:32:48Z</time></trkpt><trkpt lat="40.170568" lon="-5.909384"><ele>1313.4</ele><time>2013-11-20T10:33:03Z</time></trkpt><trkpt lat="40.170616" lon="-5.909433"><ele>1315.3</ele><time>2013-11-20T10:33:18Z</time></trkpt><trkpt lat="40.170646" lon="-5.909487"><ele>1316.2</ele><time>2013-11-20T10:33:34Z</time></trkpt><trkpt lat="40.170725" lon="-5.909678"><ele>1318.1</ele><time>2013-11-20T10:33:49Z</time></trkpt><trkpt lat="40.170873" lon="-5.909810"><ele>1323.2</ele><time>2013-11-20T10:34:04Z</time></trkpt><trkpt lat="40.170943" lon="-5.909879"><ele>1325.0</ele><time>2013-11-20T10:34:19Z</time></trkpt><trkpt lat="40.171025" lon="-5.910043"><ele>1326.8</ele><time>2013-11-20T10:34:34Z</time></trkpt><trkpt lat="40.171113" lon="-5.910230"><ele>1328.9</ele><time>2013-11-20T10:34:48Z</time></trkpt><trkpt lat="40.171187" lon="-5.910458"><ele>1330.3</ele><time>2013-11-20T10:35:03Z</time></trkpt><trkpt lat="40.171190" lon="-5.910482"><ele>1330.3</ele><time>2013-11-20T10:35:18Z</time></trkpt><trkpt lat="40.171192" lon="-5.910522"><ele>1330.1</ele><time>2013-11-20T10:35:33Z</time></trkpt><trkpt lat="40.171196" lon="-5.910537"><ele>1330.2</ele><time>2013-11-20T10:35:49Z</time></trkpt><trkpt lat="40.171200" lon="-5.910552"><ele>1330.2</ele><time>2013-11-20T10:36:04Z</time></trkpt><trkpt lat="40.171212" lon="-5.910639"><ele>1330.2</ele><time>2013-11-20T10:36:19Z</time></trkpt><trkpt lat="40.171226" lon="-5.910698"><ele>1330.4</ele><time>2013-11-20T10:36:34Z</time></trkpt><trkpt lat="40.171249" lon="-5.910755"><ele>1330.9</ele><time>2013-11-20T10:36:49Z</time></trkpt><trkpt lat="40.171270" lon="-5.910838"><ele>1331.3</ele><time>2013-11-20T10:37:03Z</time></trkpt><trkpt lat="40.171349" lon="-5.911024"><ele>1335.1</ele><time>2013-11-20T10:37:18Z</time></trkpt><trkpt lat="40.171423" lon="-5.911261"><ele>1338.7</ele><time>2013-11-20T10:37:33Z</time></trkpt><trkpt lat="40.171513" lon="-5.911294"><ele>1342.2</ele><time>2013-11-20T10:37:48Z</time></trkpt><trkpt lat="40.171577" lon="-5.911159"><ele>1344.3</ele><time>2013-11-20T10:38:04Z</time></trkpt><trkpt lat="40.171592" lon="-5.911097"><ele>1344.7</ele><time>2013-11-20T10:38:19Z</time></trkpt><trkpt lat="40.171607" lon="-5.910758"><ele>1345.0</ele><time>2013-11-20T10:38:34Z</time></trkpt><trkpt lat="40.171597" lon="-5.910558"><ele>1345.6</ele><time>2013-11-20T10:38:49Z</time></trkpt><trkpt lat="40.171565" lon="-5.910398"><ele>1345.2</ele><time>2013-11-20T10:39:04Z</time></trkpt><trkpt lat="40.171582" lon="-5.910244"><ele>1346.6</ele><time>2013-11-20T10:39:18Z</time></trkpt><trkpt lat="40.171607" lon="-5.910066"><ele>1348.5</ele><time>2013-11-20T10:39:33Z</time></trkpt><trkpt lat="40.171661" lon="-5.909883"><ele>1350.1</ele><time>2013-11-20T10:39:48Z</time></trkpt><trkpt lat="40.171723" lon="-5.909460"><ele>1349.2</ele><time>2013-11-20T10:40:03Z</time></trkpt><trkpt lat="40.171793" lon="-5.909348"><ele>1350.3</ele><time>2013-11-20T10:40:19Z</time></trkpt><trkpt lat="40.171986" lon="-5.909233"><ele>1354.2</ele><time>2013-11-20T10:40:34Z</time></trkpt><trkpt lat="40.172187" lon="-5.909126"><ele>1358.2</ele><time>2013-11-20T10:40:49Z</time></trkpt><trkpt lat="40.172329" lon="-5.909119"><ele>1361.6</ele><time>2013-11-20T10:41:04Z</time></trkpt><trkpt lat="40.172371" lon="-5.909267"><ele>1363.9</ele><time>2013-11-20T10:41:19Z</time></trkpt><trkpt lat="40.172381" lon="-5.909536"><ele>1366.9</ele><time>2013-11-20T10:41:33Z</time></trkpt><trkpt lat="40.172400" lon="-5.909827"><ele>1370.4</ele><time>2013-11-20T10:41:48Z</time></trkpt><trkpt lat="40.172443" lon="-5.910102"><ele>1373.0</ele><time>2013-11-20T10:42:03Z</time></trkpt><trkpt lat="40.172499" lon="-5.910347"><ele>1373.7</ele><time>2013-11-20T10:42:18Z</time></trkpt><trkpt lat="40.172509" lon="-5.910370"><ele>1374.0</ele><time>2013-11-20T10:42:34Z</time></trkpt><trkpt lat="40.172529" lon="-5.910386"><ele>1374.7</ele><time>2013-11-20T10:42:49Z</time></trkpt><trkpt lat="40.172572" lon="-5.910452"><ele>1376.1</ele><time>2013-11-20T10:43:04Z</time></trkpt><trkpt lat="40.172701" lon="-5.910581"><ele>1380.5</ele><time>2013-11-20T10:43:19Z</time></trkpt><trkpt lat="40.172773" lon="-5.910661"><ele>1383.0</ele><time>2013-11-20T10:43:34Z</time></trkpt><trkpt lat="40.172897" lon="-5.910800"><ele>1387.3</ele><time>2013-11-20T10:43:48Z</time></trkpt><trkpt lat="40.172922" lon="-5.910833"><ele>1388.2</ele><time>2013-11-20T10:44:03Z</time></trkpt><trkpt lat="40.172919" lon="-5.910859"><ele>1388.2</ele><time>2013-11-20T10:44:18Z</time></trkpt><trkpt lat="40.172941" lon="-5.910928"><ele>1389.3</ele><time>2013-11-20T10:44:33Z</time></trkpt><trkpt lat="40.173000" lon="-5.911183"><ele>1392.8</ele><time>2013-11-20T10:44:49Z</time></trkpt><trkpt lat="40.173023" lon="-5.911462"><ele>1395.0</ele><time>2013-11-20T10:45:04Z</time></trkpt><trkpt lat="40.172995" lon="-5.911779"><ele>1395.8</ele><time>2013-11-20T10:45:19Z</time></trkpt><trkpt lat="40.172894" lon="-5.912076"><ele>1393.9</ele><time>2013-11-20T10:45:34Z</time></trkpt><trkpt lat="40.172839" lon="-5.912355"><ele>1393.6</ele><time>2013-11-20T10:45:49Z</time></trkpt><trkpt lat="40.172835" lon="-5.912537"><ele>1394.5</ele><time>2013-11-20T10:46:03Z</time></trkpt><trkpt lat="40.172955" lon="-5.912924"><ele>1400.4</ele><time>2013-11-20T10:46:18Z</time></trkpt><trkpt lat="40.173007" lon="-5.913128"><ele>1403.1</ele><time>2013-11-20T10:46:33Z</time></trkpt><trkpt lat="40.173057" lon="-5.913295"><ele>1405.7</ele><time>2013-11-20T10:46:48Z</time></trkpt><trkpt lat="40.173074" lon="-5.913395"><ele>1406.9</ele><time>2013-11-20T10:47:04Z</time></trkpt><trkpt lat="40.173141" lon="-5.913603"><ele>1411.3</ele><time>2013-11-20T10:47:19Z</time></trkpt><trkpt lat="40.173143" lon="-5.913675"><ele>1411.7</ele><time>2013-11-20T10:47:34Z</time></trkpt><trkpt lat="40.173175" lon="-5.913814"><ele>1414.0</ele><time>2013-11-20T10:47:49Z</time></trkpt><trkpt lat="40.173209" lon="-5.913947"><ele>1416.4</ele><time>2013-11-20T10:48:04Z</time></trkpt><trkpt lat="40.173222" lon="-5.914045"><ele>1417.6</ele><time>2013-11-20T10:48:18Z</time></trkpt><trkpt lat="40.173244" lon="-5.914166"><ele>1419.3</ele><time>2013-11-20T10:48:33Z</time></trkpt><trkpt lat="40.173283" lon="-5.914223"><ele>1421.3</ele><time>2013-11-20T10:48:48Z</time></trkpt><trkpt lat="40.173338" lon="-5.914208"><ele>1424.2</ele><time>2013-11-20T10:49:03Z</time></trkpt><trkpt lat="40.173358" lon="-5.914085"><ele>1425.0</ele><time>2013-11-20T10:49:19Z</time></trkpt><trkpt lat="40.173356" lon="-5.913961"><ele>1424.3</ele><time>2013-11-20T10:49:34Z</time></trkpt><trkpt lat="40.173370" lon="-5.913874"><ele>1424.7</ele><time>2013-11-20T10:49:49Z</time></trkpt><trkpt lat="40.173407" lon="-5.913592"><ele>1425.5</ele><time>2013-11-20T10:50:04Z</time></trkpt><trkpt lat="40.173438" lon="-5.913270"><ele>1425.9</ele><time>2013-11-20T10:50:19Z</time></trkpt><trkpt lat="40.173490" lon="-5.912992"><ele>1428.4</ele><time>2013-11-20T10:50:33Z</time></trkpt><trkpt lat="40.173518" lon="-5.912688"><ele>1429.3</ele><time>2013-11-20T10:50:48Z</time></trkpt><trkpt lat="40.173595" lon="-5.912369"><ele>1431.6</ele><time>2013-11-20T10:51:03Z</time></trkpt><trkpt lat="40.173667" lon="-5.912108"><ele>1432.5</ele><time>2013-11-20T10:51:18Z</time></trkpt><trkpt lat="40.173695" lon="-5.912016"><ele>1433.0</ele><time>2013-11-20T10:51:34Z</time></trkpt><trkpt lat="40.173762" lon="-5.911650"><ele>1432.6</ele><time>2013-11-20T10:51:49Z</time></trkpt><trkpt lat="40.173835" lon="-5.911368"><ele>1434.9</ele><time>2013-11-20T10:52:04Z</time></trkpt><trkpt lat="40.173868" lon="-5.911222"><ele>1435.8</ele><time>2013-11-20T10:52:19Z</time></trkpt><trkpt lat="40.173882" lon="-5.911135"><ele>1436.1</ele><time>2013-11-20T10:52:34Z</time></trkpt><trkpt lat="40.173899" lon="-5.911047"><ele>1436.5</ele><time>2013-11-20T10:52:48Z</time></trkpt><trkpt lat="40.173910" lon="-5.910971"><ele>1436.7</ele><time>2013-11-20T10:53:03Z</time></trkpt><trkpt lat="40.173967" lon="-5.910756"><ele>1438.6</ele><time>2013-11-20T10:53:18Z</time></trkpt><trkpt lat="40.174022" lon="-5.910566"><ele>1440.7</ele><time>2013-11-20T10:53:33Z</time></trkpt><trkpt lat="40.174026" lon="-5.910549"><ele>1440.9</ele><time>2013-11-20T10:53:49Z</time></trkpt><trkpt lat="40.174076" lon="-5.910264"><ele>1442.0</ele><time>2013-11-20T10:54:04Z</time></trkpt><trkpt lat="40.174119" lon="-5.910080"><ele>1443.2</ele><time>2013-11-20T10:54:19Z</time></trkpt><trkpt lat="40.174120" lon="-5.910063"><ele>1443.1</ele><time>2013-11-20T10:54:34Z</time></trkpt><trkpt lat="40.174121" lon="-5.910044"><ele>1443.1</ele><time>2013-11-20T10:54:49Z</time></trkpt><trkpt lat="40.174174" lon="-5.909676"><ele>1442.2</ele><time>2013-11-20T10:55:03Z</time></trkpt><trkpt lat="40.174238" lon="-5.909409"><ele>1441.6</ele><time>2013-11-20T10:55:18Z</time></trkpt><trkpt lat="40.174349" lon="-5.909125"><ele>1441.6</ele><time>2013-11-20T10:55:33Z</time></trkpt><trkpt lat="40.174456" lon="-5.908818"><ele>1440.0</ele><time>2013-11-20T10:55:48Z</time></trkpt><trkpt lat="40.174599" lon="-5.908763"><ele>1443.4</ele><time>2013-11-20T10:56:04Z</time></trkpt><trkpt lat="40.174622" lon="-5.908761"><ele>1444.1</ele><time>2013-11-20T10:56:19Z</time></trkpt><trkpt lat="40.174656" lon="-5.908759"><ele>1445.0</ele><time>2013-11-20T10:56:34Z</time></trkpt><trkpt lat="40.174705" lon="-5.908815"><ele>1447.3</ele><time>2013-11-20T10:56:49Z</time></trkpt><trkpt lat="40.174717" lon="-5.908847"><ele>1448.1</ele><time>2013-11-20T10:57:04Z</time></trkpt><trkpt lat="40.174696" lon="-5.908947"><ele>1449.0</ele><time>2013-11-20T10:57:18Z</time></trkpt><trkpt lat="40.174678" lon="-5.908968"><ele>1448.8</ele><time>2013-11-20T10:57:33Z</time></trkpt><trkpt lat="40.174678" lon="-5.908981"><ele>1449.0</ele><time>2013-11-20T10:57:48Z</time></trkpt><trkpt lat="40.174708" lon="-5.909008"><ele>1450.2</ele><time>2013-11-20T10:58:03Z</time></trkpt><trkpt lat="40.174687" lon="-5.909104"><ele>1451.1</ele><time>2013-11-20T10:58:19Z</time></trkpt><trkpt lat="40.174674" lon="-5.909133"><ele>1451.1</ele><time>2013-11-20T10:58:34Z</time></trkpt><trkpt lat="40.174682" lon="-5.909163"><ele>1451.8</ele><time>2013-11-20T10:58:49Z</time></trkpt><trkpt lat="40.174679" lon="-5.909243"><ele>1453.1</ele><time>2013-11-20T10:59:04Z</time></trkpt><trkpt lat="40.174739" lon="-5.909245"><ele>1454.9</ele><time>2013-11-20T10:59:19Z</time></trkpt><trkpt lat="40.174772" lon="-5.909276"><ele>1456.4</ele><time>2013-11-20T10:59:33Z</time></trkpt><trkpt lat="40.174769" lon="-5.909279"><ele>1456.4</ele><time>2013-11-20T10:59:48Z</time></trkpt><trkpt lat="40.174827" lon="-5.909332"><ele>1459.2</ele><time>2013-11-20T11:00:03Z</time></trkpt><trkpt lat="40.174805" lon="-5.909408"><ele>1459.9</ele><time>2013-11-20T11:00:18Z</time></trkpt><trkpt lat="40.174812" lon="-5.909418"><ele>1460.3</ele><time>2013-11-20T11:00:34Z</time></trkpt><trkpt lat="40.174820" lon="-5.909454"><ele>1461.3</ele><time>2013-11-20T11:00:49Z</time></trkpt><trkpt lat="40.174794" lon="-5.909515"><ele>1461.6</ele><time>2013-11-20T11:01:04Z</time></trkpt><trkpt lat="40.174810" lon="-5.909570"><ele>1463.1</ele><time>2013-11-20T11:01:19Z</time></trkpt><trkpt lat="40.174807" lon="-5.909604"><ele>1463.7</ele><time>2013-11-20T11:01:34Z</time></trkpt><trkpt lat="40.174818" lon="-5.909621"><ele>1464.4</ele><time>2013-11-20T11:01:48Z</time></trkpt><trkpt lat="40.174813" lon="-5.909631"><ele>1464.4</ele><time>2013-11-20T11:02:03Z</time></trkpt><trkpt lat="40.174835" lon="-5.909648"><ele>1465.5</ele><time>2013-11-20T11:02:18Z</time></trkpt><trkpt lat="40.174841" lon="-5.909668"><ele>1466.1</ele><time>2013-11-20T11:02:33Z</time></trkpt><trkpt lat="40.174843" lon="-5.909695"><ele>1466.7</ele><time>2013-11-20T11:02:49Z</time></trkpt><trkpt lat="40.174816" lon="-5.909755"><ele>1466.8</ele><time>2013-11-20T11:03:49Z</time></trkpt><trkpt lat="40.174811" lon="-5.909765"><ele>1466.9</ele><time>2013-11-20T11:04:03Z</time></trkpt><trkpt lat="40.174808" lon="-5.909807"><ele>1467.5</ele><time>2013-11-20T11:04:18Z</time></trkpt><trkpt lat="40.174849" lon="-5.909818"><ele>1469.3</ele><time>2013-11-20T11:04:33Z</time></trkpt><trkpt lat="40.174867" lon="-5.909854"><ele>1470.7</ele><time>2013-11-20T11:04:48Z</time></trkpt><trkpt lat="40.174867" lon="-5.909854"><ele>1470.7</ele><time>2013-11-20T11:11:13Z</time></trkpt><trkpt lat="40.174849" lon="-5.909818"><ele>1469.3</ele><time>2013-11-20T11:11:22Z</time></trkpt><trkpt lat="40.174808" lon="-5.909807"><ele>1467.5</ele><time>2013-11-20T11:11:30Z</time></trkpt><trkpt lat="40.174811" lon="-5.909765"><ele>1466.9</ele><time>2013-11-20T11:11:40Z</time></trkpt><trkpt lat="40.174816" lon="-5.909755"><ele>1466.8</ele><time>2013-11-20T11:11:49Z</time></trkpt><trkpt lat="40.174843" lon="-5.909695"><ele>1466.7</ele><time>2013-11-20T11:12:24Z</time></trkpt><trkpt lat="40.174841" lon="-5.909668"><ele>1466.1</ele><time>2013-11-20T11:12:34Z</time></trkpt><trkpt lat="40.174835" lon="-5.909648"><ele>1465.5</ele><time>2013-11-20T11:12:43Z</time></trkpt><trkpt lat="40.174813" lon="-5.909631"><ele>1464.4</ele><time>2013-11-20T11:12:51Z</time></trkpt><trkpt lat="40.174818" lon="-5.909621"><ele>1464.4</ele><time>2013-11-20T11:13:01Z</time></trkpt><trkpt lat="40.174807" lon="-5.909604"><ele>1463.7</ele><time>2013-11-20T11:13:10Z</time></trkpt><trkpt lat="40.174810" lon="-5.909570"><ele>1463.1</ele><time>2013-11-20T11:13:18Z</time></trkpt><trkpt lat="40.174794" lon="-5.909515"><ele>1461.6</ele><time>2013-11-20T11:13:28Z</time></trkpt><trkpt lat="40.174820" lon="-5.909454"><ele>1461.3</ele><time>2013-11-20T11:13:37Z</time></trkpt><trkpt lat="40.174812" lon="-5.909418"><ele>1460.3</ele><time>2013-11-20T11:13:45Z</time></trkpt><trkpt lat="40.174805" lon="-5.909408"><ele>1459.9</ele><time>2013-11-20T11:13:55Z</time></trkpt><trkpt lat="40.174827" lon="-5.909332"><ele>1459.2</ele><time>2013-11-20T11:14:04Z</time></trkpt><trkpt lat="40.174769" lon="-5.909279"><ele>1456.4</ele><time>2013-11-20T11:14:12Z</time></trkpt><trkpt lat="40.174772" lon="-5.909276"><ele>1456.4</ele><time>2013-11-20T11:14:22Z</time></trkpt><trkpt lat="40.174739" lon="-5.909245"><ele>1454.9</ele><time>2013-11-20T11:14:31Z</time></trkpt><trkpt lat="40.174679" lon="-5.909243"><ele>1453.1</ele><time>2013-11-20T11:14:39Z</time></trkpt><trkpt lat="40.174682" lon="-5.909163"><ele>1451.8</ele><time>2013-11-20T11:14:49Z</time></trkpt><trkpt lat="40.174674" lon="-5.909133"><ele>1451.1</ele><time>2013-11-20T11:14:58Z</time></trkpt><trkpt lat="40.174687" lon="-5.909104"><ele>1451.1</ele><time>2013-11-20T11:15:06Z</time></trkpt><trkpt lat="40.174708" lon="-5.909008"><ele>1450.2</ele><time>2013-11-20T11:15:16Z</time></trkpt><trkpt lat="40.174678" lon="-5.908981"><ele>1449.0</ele><time>2013-11-20T11:15:25Z</time></trkpt><trkpt lat="40.174678" lon="-5.908968"><ele>1448.8</ele><time>2013-11-20T11:15:33Z</time></trkpt><trkpt lat="40.174696" lon="-5.908947"><ele>1449.0</ele><time>2013-11-20T11:15:43Z</time></trkpt><trkpt lat="40.174717" lon="-5.908847"><ele>1448.1</ele><time>2013-11-20T11:15:52Z</time></trkpt><trkpt lat="40.174705" lon="-5.908815"><ele>1447.3</ele><time>2013-11-20T11:16:00Z</time></trkpt><trkpt lat="40.174656" lon="-5.908759"><ele>1445.0</ele><time>2013-11-20T11:16:10Z</time></trkpt><trkpt lat="40.174622" lon="-5.908761"><ele>1444.1</ele><time>2013-11-20T11:16:19Z</time></trkpt><trkpt lat="40.174599" lon="-5.908763"><ele>1443.4</ele><time>2013-11-20T11:16:27Z</time></trkpt><trkpt lat="40.174456" lon="-5.908818"><ele>1440.0</ele><time>2013-11-20T11:16:37Z</time></trkpt><trkpt lat="40.174349" lon="-5.909125"><ele>1441.6</ele><time>2013-11-20T11:16:46Z</time></trkpt><trkpt lat="40.174238" lon="-5.909409"><ele>1441.6</ele><time>2013-11-20T11:16:54Z</time></trkpt><trkpt lat="40.174174" lon="-5.909676"><ele>1442.2</ele><time>2013-11-20T11:17:04Z</time></trkpt><trkpt lat="40.174121" lon="-5.910044"><ele>1443.1</ele><time>2013-11-20T11:17:13Z</time></trkpt><trkpt lat="40.174120" lon="-5.910063"><ele>1443.1</ele><time>2013-11-20T11:17:21Z</time></trkpt><trkpt lat="40.174119" lon="-5.910080"><ele>1443.2</ele><time>2013-11-20T11:17:31Z</time></trkpt><trkpt lat="40.174076" lon="-5.910264"><ele>1442.0</ele><time>2013-11-20T11:17:40Z</time></trkpt><trkpt lat="40.174026" lon="-5.910549"><ele>1440.9</ele><time>2013-11-20T11:17:48Z</time></trkpt><trkpt lat="40.174022" lon="-5.910566"><ele>1440.7</ele><time>2013-11-20T11:17:58Z</time></trkpt><trkpt lat="40.173967" lon="-5.910756"><ele>1438.6</ele><time>2013-11-20T11:18:07Z</time></trkpt><trkpt lat="40.173910" lon="-5.910971"><ele>1436.7</ele><time>2013-11-20T11:18:15Z</time></trkpt><trkpt lat="40.173899" lon="-5.911047"><ele>1436.5</ele><time>2013-11-20T11:18:25Z</time></trkpt><trkpt lat="40.173882" lon="-5.911135"><ele>1436.1</ele><time>2013-11-20T11:18:34Z</time></trkpt><trkpt lat="40.173868" lon="-5.911222"><ele>1435.8</ele><time>2013-11-20T11:18:42Z</time></trkpt><trkpt lat="40.173835" lon="-5.911368"><ele>1434.9</ele><time>2013-11-20T11:18:52Z</time></trkpt><trkpt lat="40.173762" lon="-5.911650"><ele>1432.6</ele><time>2013-11-20T11:19:01Z</time></trkpt><trkpt lat="40.173695" lon="-5.912016"><ele>1433.0</ele><time>2013-11-20T11:19:09Z</time></trkpt><trkpt lat="40.173667" lon="-5.912108"><ele>1432.5</ele><time>2013-11-20T11:19:19Z</time></trkpt><trkpt lat="40.173595" lon="-5.912369"><ele>1431.6</ele><time>2013-11-20T11:19:28Z</time></trkpt><trkpt lat="40.173518" lon="-5.912688"><ele>1429.3</ele><time>2013-11-20T11:19:36Z</time></trkpt><trkpt lat="40.173490" lon="-5.912992"><ele>1428.4</ele><time>2013-11-20T11:19:46Z</time></trkpt><trkpt lat="40.173438" lon="-5.913270"><ele>1425.9</ele><time>2013-11-20T11:19:55Z</time></trkpt><trkpt lat="40.173407" lon="-5.913592"><ele>1425.5</ele><time>2013-11-20T11:20:03Z</time></trkpt><trkpt lat="40.173370" lon="-5.913874"><ele>1424.7</ele><time>2013-11-20T11:20:13Z</time></trkpt><trkpt lat="40.173356" lon="-5.913961"><ele>1424.3</ele><time>2013-11-20T11:20:22Z</time></trkpt><trkpt lat="40.173358" lon="-5.914085"><ele>1425.0</ele><time>2013-11-20T11:20:30Z</time></trkpt><trkpt lat="40.173338" lon="-5.914208"><ele>1424.2</ele><time>2013-11-20T11:20:40Z</time></trkpt><trkpt lat="40.173283" lon="-5.914223"><ele>1421.3</ele><time>2013-11-20T11:20:49Z</time></trkpt><trkpt lat="40.173244" lon="-5.914166"><ele>1419.3</ele><time>2013-11-20T11:20:57Z</time></trkpt><trkpt lat="40.173222" lon="-5.914045"><ele>1417.6</ele><time>2013-11-20T11:21:07Z</time></trkpt><trkpt lat="40.173209" lon="-5.913947"><ele>1416.4</ele><time>2013-11-20T11:21:16Z</time></trkpt><trkpt lat="40.173175" lon="-5.913814"><ele>1414.0</ele><time>2013-11-20T11:21:24Z</time></trkpt><trkpt lat="40.173143" lon="-5.913675"><ele>1411.7</ele><time>2013-11-20T11:21:34Z</time></trkpt><trkpt lat="40.173141" lon="-5.913603"><ele>1411.3</ele><time>2013-11-20T11:21:43Z</time></trkpt><trkpt lat="40.173074" lon="-5.913395"><ele>1406.9</ele><time>2013-11-20T11:21:51Z</time></trkpt><trkpt lat="40.173057" lon="-5.913295"><ele>1405.7</ele><time>2013-11-20T11:22:01Z</time></trkpt><trkpt lat="40.173007" lon="-5.913128"><ele>1403.1</ele><time>2013-11-20T11:22:10Z</time></trkpt><trkpt lat="40.172955" lon="-5.912924"><ele>1400.4</ele><time>2013-11-20T11:22:18Z</time></trkpt><trkpt lat="40.172835" lon="-5.912537"><ele>1394.5</ele><time>2013-11-20T11:22:28Z</time></trkpt><trkpt lat="40.172839" lon="-5.912355"><ele>1393.6</ele><time>2013-11-20T11:22:37Z</time></trkpt><trkpt lat="40.172894" lon="-5.912076"><ele>1393.9</ele><time>2013-11-20T11:22:45Z</time></trkpt><trkpt lat="40.172995" lon="-5.911779"><ele>1395.8</ele><time>2013-11-20T11:22:55Z</time></trkpt><trkpt lat="40.173023" lon="-5.911462"><ele>1395.0</ele><time>2013-11-20T11:23:04Z</time></trkpt><trkpt lat="40.173000" lon="-5.911183"><ele>1392.8</ele><time>2013-11-20T11:23:12Z</time></trkpt><trkpt lat="40.172941" lon="-5.910928"><ele>1389.3</ele><time>2013-11-20T11:23:22Z</time></trkpt><trkpt lat="40.172919" lon="-5.910859"><ele>1388.2</ele><time>2013-11-20T11:23:31Z</time></trkpt><trkpt lat="40.172922" lon="-5.910833"><ele>1388.2</ele><time>2013-11-20T11:23:39Z</time></trkpt><trkpt lat="40.172897" lon="-5.910800"><ele>1387.3</ele><time>2013-11-20T11:23:49Z</time></trkpt><trkpt lat="40.172773" lon="-5.910661"><ele>1383.0</ele><time>2013-11-20T11:23:58Z</time></trkpt><trkpt lat="40.172701" lon="-5.910581"><ele>1380.5</ele><time>2013-11-20T11:24:06Z</time></trkpt><trkpt lat="40.172572" lon="-5.910452"><ele>1376.1</ele><time>2013-11-20T11:24:16Z</time></trkpt><trkpt lat="40.172529" lon="-5.910386"><ele>1374.7</ele><time>2013-11-20T11:24:25Z</time></trkpt><trkpt lat="40.172509" lon="-5.910370"><ele>1374.0</ele><time>2013-11-20T11:24:33Z</time></trkpt><trkpt lat="40.172499" lon="-5.910347"><ele>1373.7</ele><time>2013-11-20T11:24:43Z</time></trkpt><trkpt lat="40.172443" lon="-5.910102"><ele>1373.0</ele><time>2013-11-20T11:24:52Z</time></trkpt><trkpt lat="40.172400" lon="-5.909827"><ele>1370.4</ele><time>2013-11-20T11:25:00Z</time></trkpt><trkpt lat="40.172381" lon="-5.909536"><ele>1366.9</ele><time>2013-11-20T11:25:10Z</time></trkpt><trkpt lat="40.172371" lon="-5.909267"><ele>1363.9</ele><time>2013-11-20T11:25:19Z</time></trkpt><trkpt lat="40.172329" lon="-5.909119"><ele>1361.6</ele><time>2013-11-20T11:25:27Z</time></trkpt><trkpt lat="40.172187" lon="-5.909126"><ele>1358.2</ele><time>2013-11-20T11:25:37Z</time></trkpt><trkpt lat="40.171986" lon="-5.909233"><ele>1354.2</ele><time>2013-11-20T11:25:46Z</time></trkpt><trkpt lat="40.171793" lon="-5.909348"><ele>1350.3</ele><time>2013-11-20T11:25:54Z</time></trkpt><trkpt lat="40.171723" lon="-5.909460"><ele>1349.2</ele><time>2013-11-20T11:26:04Z</time></trkpt><trkpt lat="40.171661" lon="-5.909883"><ele>1350.1</ele><time>2013-11-20T11:26:13Z</time></trkpt><trkpt lat="40.171607" lon="-5.910066"><ele>1348.5</ele><time>2013-11-20T11:26:21Z</time></trkpt><trkpt lat="40.171582" lon="-5.910244"><ele>1346.6</ele><time>2013-11-20T11:26:31Z</time></trkpt><trkpt lat="40.171565" lon="-5.910398"><ele>1345.2</ele><time>2013-11-20T11:26:40Z</time></trkpt><trkpt lat="40.171597" lon="-5.910558"><ele>1345.6</ele><time>2013-11-20T11:26:48Z</time></trkpt><trkpt lat="40.171607" lon="-5.910758"><ele>1345.0</ele><time>2013-11-20T11:26:58Z</time></trkpt><trkpt lat="40.171592" lon="-5.911097"><ele>1344.7</ele><time>2013-11-20T11:27:07Z</time></trkpt><trkpt lat="40.171577" lon="-5.911159"><ele>1344.3</ele><time>2013-11-20T11:27:15Z</time></trkpt><trkpt lat="40.171513" lon="-5.911294"><ele>1342.2</ele><time>2013-11-20T11:27:25Z</time></trkpt><trkpt lat="40.171423" lon="-5.911261"><ele>1338.7</ele><time>2013-11-20T11:27:34Z</time></trkpt><trkpt lat="40.171349" lon="-5.911024"><ele>1335.1</ele><time>2013-11-20T11:27:42Z</time></trkpt><trkpt lat="40.171270" lon="-5.910838"><ele>1331.3</ele><time>2013-11-20T11:27:52Z</time></trkpt><trkpt lat="40.171249" lon="-5.910755"><ele>1330.9</ele><time>2013-11-20T11:28:01Z</time></trkpt><trkpt lat="40.171226" lon="-5.910698"><ele>1330.4</ele><time>2013-11-20T11:28:09Z</time></trkpt><trkpt lat="40.171212" lon="-5.910639"><ele>1330.2</ele><time>2013-11-20T11:28:19Z</time></trkpt><trkpt lat="40.171200" lon="-5.910552"><ele>1330.2</ele><time>2013-11-20T11:28:28Z</time></trkpt><trkpt lat="40.171196" lon="-5.910537"><ele>1330.2</ele><time>2013-11-20T11:28:36Z</time></trkpt><trkpt lat="40.171192" lon="-5.910522"><ele>1330.1</ele><time>2013-11-20T11:28:46Z</time></trkpt><trkpt lat="40.171190" lon="-5.910482"><ele>1330.3</ele><time>2013-11-20T11:28:55Z</time></trkpt><trkpt lat="40.171187" lon="-5.910458"><ele>1330.3</ele><time>2013-11-20T11:29:03Z</time></trkpt><trkpt lat="40.171113" lon="-5.910230"><ele>1328.9</ele><time>2013-11-20T11:29:13Z</time></trkpt><trkpt lat="40.171025" lon="-5.910043"><ele>1326.8</ele><time>2013-11-20T11:29:22Z</time></trkpt><trkpt lat="40.170943" lon="-5.909879"><ele>1325.0</ele><time>2013-11-20T11:29:30Z</time></trkpt><trkpt lat="40.170873" lon="-5.909810"><ele>1323.2</ele><time>2013-11-20T11:29:40Z</time></trkpt><trkpt lat="40.170725" lon="-5.909678"><ele>1318.1</ele><time>2013-11-20T11:29:49Z</time></trkpt><trkpt lat="40.170646" lon="-5.909487"><ele>1316.2</ele><time>2013-11-20T11:29:57Z</time></trkpt><trkpt lat="40.170616" lon="-5.909433"><ele>1315.3</ele><time>2013-11-20T11:30:07Z</time></trkpt><trkpt lat="40.170568" lon="-5.909384"><ele>1313.4</ele><time>2013-11-20T11:30:16Z</time></trkpt><trkpt lat="40.170509" lon="-5.909229"><ele>1311.9</ele><time>2013-11-20T11:30:24Z</time></trkpt><trkpt lat="40.170501" lon="-5.909209"><ele>1311.7</ele><time>2013-11-20T11:30:34Z</time></trkpt><trkpt lat="40.170491" lon="-5.909185"><ele>1311.4</ele><time>2013-11-20T11:30:43Z</time></trkpt><trkpt lat="40.170490" lon="-5.909157"><ele>1311.4</ele><time>2013-11-20T11:30:51Z</time></trkpt><trkpt lat="40.170493" lon="-5.909134"><ele>1311.2</ele><time>2013-11-20T11:31:01Z</time></trkpt><trkpt lat="40.170491" lon="-5.909117"><ele>1310.9</ele><time>2013-11-20T11:31:10Z</time></trkpt><trkpt lat="40.170492" lon="-5.909036"><ele>1309.9</ele><time>2013-11-20T11:31:18Z</time></trkpt><trkpt lat="40.170484" lon="-5.908876"><ele>1307.4</ele><time>2013-11-20T11:31:28Z</time></trkpt><trkpt lat="40.170485" lon="-5.908817"><ele>1306.6</ele><time>2013-11-20T11:31:37Z</time></trkpt><trkpt lat="40.170490" lon="-5.908768"><ele>1306.2</ele><time>2013-11-20T11:31:45Z</time></trkpt><trkpt lat="40.170469" lon="-5.908746"><ele>1304.9</ele><time>2013-11-20T11:31:55Z</time></trkpt><trkpt lat="40.170451" lon="-5.908739"><ele>1303.9</ele><time>2013-11-20T11:32:04Z</time></trkpt><trkpt lat="40.170416" lon="-5.908779"><ele>1302.6</ele><time>2013-11-20T11:32:12Z</time></trkpt><trkpt lat="40.170383" lon="-5.908900"><ele>1302.6</ele><time>2013-11-20T11:32:22Z</time></trkpt><trkpt lat="40.170319" lon="-5.909202"><ele>1303.1</ele><time>2013-11-20T11:32:31Z</time></trkpt><trkpt lat="40.170265" lon="-5.909503"><ele>1298.3</ele><time>2013-11-20T11:32:39Z</time></trkpt><trkpt lat="40.170361" lon="-5.909737"><ele>1301.0</ele><time>2013-11-20T11:32:49Z</time></trkpt><trkpt lat="40.170437" lon="-5.909940"><ele>1302.9</ele><time>2013-11-20T11:32:58Z</time></trkpt><trkpt lat="40.170522" lon="-5.910194"><ele>1303.9</ele><time>2013-11-20T11:33:06Z</time></trkpt><trkpt lat="40.170573" lon="-5.910478"><ele>1303.2</ele><time>2013-11-20T11:33:16Z</time></trkpt><trkpt lat="40.170497" lon="-5.910775"><ele>1295.7</ele><time>2013-11-20T11:33:25Z</time></trkpt><trkpt lat="40.170412" lon="-5.911094"><ele>1290.4</ele><time>2013-11-20T11:33:33Z</time></trkpt><trkpt lat="40.170362" lon="-5.911437"><ele>1287.4</ele><time>2013-11-20T11:33:43Z</time></trkpt><trkpt lat="40.170350" lon="-5.911521"><ele>1286.7</ele><time>2013-11-20T11:33:52Z</time></trkpt><trkpt lat="40.170341" lon="-5.911597"><ele>1286.1</ele><time>2013-11-20T11:34:00Z</time></trkpt><trkpt lat="40.170346" lon="-5.911644"><ele>1286.4</ele><time>2013-11-20T11:34:10Z</time></trkpt><trkpt lat="40.170339" lon="-5.911769"><ele>1286.0</ele><time>2013-11-20T11:34:19Z</time></trkpt><trkpt lat="40.170295" lon="-5.912081"><ele>1283.1</ele><time>2013-11-20T11:34:27Z</time></trkpt><trkpt lat="40.170285" lon="-5.912319"><ele>1282.5</ele><time>2013-11-20T11:34:37Z</time></trkpt><trkpt lat="40.170327" lon="-5.912610"><ele>1284.6</ele><time>2013-11-20T11:34:46Z</time></trkpt><trkpt lat="40.170380" lon="-5.912871"><ele>1286.6</ele><time>2013-11-20T11:34:54Z</time></trkpt><trkpt lat="40.170425" lon="-5.913109"><ele>1287.8</ele><time>2013-11-20T11:35:04Z</time></trkpt><trkpt lat="40.170447" lon="-5.913250"><ele>1288.2</ele><time>2013-11-20T11:35:13Z</time></trkpt><trkpt lat="40.170440" lon="-5.913349"><ele>1287.1</ele><time>2013-11-20T11:35:21Z</time></trkpt><trkpt lat="40.170426" lon="-5.913536"><ele>1283.9</ele><time>2013-11-20T11:35:31Z</time></trkpt><trkpt lat="40.170407" lon="-5.913802"><ele>1279.6</ele><time>2013-11-20T11:35:40Z</time></trkpt><trkpt lat="40.170477" lon="-5.914085"><ele>1279.4</ele><time>2013-11-20T11:35:48Z</time></trkpt><trkpt lat="40.170544" lon="-5.914305"><ele>1281.1</ele><time>2013-11-20T11:35:58Z</time></trkpt><trkpt lat="40.170559" lon="-5.914383"><ele>1281.6</ele><time>2013-11-20T11:36:07Z</time></trkpt><trkpt lat="40.170562" lon="-5.914450"><ele>1281.6</ele><time>2013-11-20T11:36:15Z</time></trkpt><trkpt lat="40.170564" lon="-5.914544"><ele>1281.5</ele><time>2013-11-20T11:36:25Z</time></trkpt><trkpt lat="40.170577" lon="-5.914763"><ele>1281.6</ele><time>2013-11-20T11:36:34Z</time></trkpt><trkpt lat="40.170545" lon="-5.914929"><ele>1279.7</ele><time>2013-11-20T11:36:42Z</time></trkpt><trkpt lat="40.170472" lon="-5.915045"><ele>1276.9</ele><time>2013-11-20T11:36:52Z</time></trkpt><trkpt lat="40.170332" lon="-5.915301"><ele>1275.2</ele><time>2013-11-20T11:37:01Z</time></trkpt><trkpt lat="40.170160" lon="-5.915546"><ele>1271.8</ele><time>2013-11-20T11:37:09Z</time></trkpt><trkpt lat="40.170117" lon="-5.915582"><ele>1270.6</ele><time>2013-11-20T11:37:19Z</time></trkpt><trkpt lat="40.170089" lon="-5.915622"><ele>1270.0</ele><time>2013-11-20T11:37:28Z</time></trkpt><trkpt lat="40.170077" lon="-5.915642"><ele>1269.9</ele><time>2013-11-20T11:37:36Z</time></trkpt><trkpt lat="40.170063" lon="-5.915662"><ele>1269.6</ele><time>2013-11-20T11:37:46Z</time></trkpt><trkpt lat="40.170055" lon="-5.915682"><ele>1269.6</ele><time>2013-11-20T11:37:55Z</time></trkpt><trkpt lat="40.169942" lon="-5.915898"><ele>1268.1</ele><time>2013-11-20T11:38:03Z</time></trkpt><trkpt lat="40.169787" lon="-5.916044"><ele>1262.8</ele><time>2013-11-20T11:38:13Z</time></trkpt><trkpt lat="40.169640" lon="-5.916207"><ele>1257.9</ele><time>2013-11-20T11:38:22Z</time></trkpt><trkpt lat="40.169534" lon="-5.916432"><ele>1255.4</ele><time>2013-11-20T11:38:30Z</time></trkpt><trkpt lat="40.169521" lon="-5.916684"><ele>1257.2</ele><time>2013-11-20T11:38:40Z</time></trkpt><trkpt lat="40.169499" lon="-5.917003"><ele>1256.7</ele><time>2013-11-20T11:38:49Z</time></trkpt><trkpt lat="40.169412" lon="-5.917340"><ele>1253.2</ele><time>2013-11-20T11:38:57Z</time></trkpt><trkpt lat="40.169337" lon="-5.917492"><ele>1250.0</ele><time>2013-11-20T11:39:07Z</time></trkpt><trkpt lat="40.169301" lon="-5.917660"><ele>1247.3</ele><time>2013-11-20T11:39:16Z</time></trkpt><trkpt lat="40.169293" lon="-5.917804"><ele>1246.1</ele><time>2013-11-20T11:39:24Z</time></trkpt><trkpt lat="40.169233" lon="-5.918016"><ele>1242.3</ele><time>2013-11-20T11:39:34Z</time></trkpt><trkpt lat="40.169222" lon="-5.918036"><ele>1241.8</ele><time>2013-11-20T11:39:43Z</time></trkpt><trkpt lat="40.169214" lon="-5.918071"><ele>1241.2</ele><time>2013-11-20T11:39:51Z</time></trkpt><trkpt lat="40.169211" lon="-5.918079"><ele>1241.1</ele><time>2013-11-20T11:40:01Z</time></trkpt><trkpt lat="40.169209" lon="-5.918097"><ele>1240.9</ele><time>2013-11-20T11:40:10Z</time></trkpt><trkpt lat="40.169203" lon="-5.918132"><ele>1240.5</ele><time>2013-11-20T11:40:18Z</time></trkpt><trkpt lat="40.169186" lon="-5.918175"><ele>1239.6</ele><time>2013-11-20T11:40:28Z</time></trkpt><trkpt lat="40.169129" lon="-5.918333"><ele>1236.8</ele><time>2013-11-20T11:40:37Z</time></trkpt><trkpt lat="40.169133" lon="-5.918451"><ele>1234.7</ele><time>2013-11-20T11:40:45Z</time></trkpt><trkpt lat="40.169215" lon="-5.918669"><ele>1233.4</ele><time>2013-11-20T11:40:55Z</time></trkpt><trkpt lat="40.169314" lon="-5.918818"><ele>1234.1</ele><time>2013-11-20T11:41:04Z</time></trkpt><trkpt lat="40.169309" lon="-5.918899"><ele>1232.3</ele><time>2013-11-20T11:41:12Z</time></trkpt><trkpt lat="40.169280" lon="-5.918953"><ele>1230.2</ele><time>2013-11-20T11:41:22Z</time></trkpt><trkpt lat="40.169102" lon="-5.918899"><ele>1225.4</ele><time>2013-11-20T11:41:31Z</time></trkpt><trkpt lat="40.168988" lon="-5.918815"><ele>1223.7</ele><time>2013-11-20T11:41:39Z</time></trkpt><trkpt lat="40.168806" lon="-5.918733"><ele>1219.9</ele><time>2013-11-20T11:41:49Z</time></trkpt><trkpt lat="40.168678" lon="-5.918566"><ele>1218.7</ele><time>2013-11-20T11:41:58Z</time></trkpt><trkpt lat="40.168642" lon="-5.918441"><ele>1219.4</ele><time>2013-11-20T11:42:06Z</time></trkpt><trkpt lat="40.168629" lon="-5.918350"><ele>1220.3</ele><time>2013-11-20T11:42:16Z</time></trkpt><trkpt lat="40.168662" lon="-5.918241"><ele>1221.9</ele><time>2013-11-20T11:42:25Z</time></trkpt><trkpt lat="40.168726" lon="-5.917958"><ele>1224.8</ele><time>2013-11-20T11:42:33Z</time></trkpt><trkpt lat="40.168652" lon="-5.917727"><ele>1222.9</ele><time>2013-11-20T11:42:43Z</time></trkpt><trkpt lat="40.168586" lon="-5.917609"><ele>1220.8</ele><time>2013-11-20T11:42:52Z</time></trkpt><trkpt lat="40.168555" lon="-5.917402"><ele>1219.9</ele><time>2013-11-20T11:43:00Z</time></trkpt><trkpt lat="40.168485" lon="-5.917162"><ele>1217.4</ele><time>2013-11-20T11:43:10Z</time></trkpt><trkpt lat="40.168445" lon="-5.917037"><ele>1215.9</ele><time>2013-11-20T11:43:19Z</time></trkpt><trkpt lat="40.168362" lon="-5.916845"><ele>1213.0</ele><time>2013-11-20T11:43:27Z</time></trkpt><trkpt lat="40.168336" lon="-5.916736"><ele>1212.1</ele><time>2013-11-20T11:43:37Z</time></trkpt><trkpt lat="40.168315" lon="-5.916664"><ele>1211.6</ele><time>2013-11-20T11:43:46Z</time></trkpt><trkpt lat="40.168312" lon="-5.916611"><ele>1211.3</ele><time>2013-11-20T11:43:54Z</time></trkpt><trkpt lat="40.168314" lon="-5.916536"><ele>1211.1</ele><time>2013-11-20T11:44:04Z</time></trkpt><trkpt lat="40.168257" lon="-5.916550"><ele>1209.9</ele><time>2013-11-20T11:44:13Z</time></trkpt><trkpt lat="40.168221" lon="-5.916759"><ele>1209.4</ele><time>2013-11-20T11:44:21Z</time></trkpt><trkpt lat="40.168225" lon="-5.917000"><ele>1209.5</ele><time>2013-11-20T11:44:31Z</time></trkpt><trkpt lat="40.168211" lon="-5.917306"><ele>1209.1</ele><time>2013-11-20T11:44:40Z</time></trkpt><trkpt lat="40.168215" lon="-5.917372"><ele>1209.2</ele><time>2013-11-20T11:44:48Z</time></trkpt><trkpt lat="40.168159" lon="-5.917597"><ele>1207.7</ele><time>2013-11-20T11:44:58Z</time></trkpt><trkpt lat="40.168126" lon="-5.917722"><ele>1206.8</ele><time>2013-11-20T11:45:07Z</time></trkpt><trkpt lat="40.168073" lon="-5.917945"><ele>1205.2</ele><time>2013-11-20T11:45:15Z</time></trkpt><trkpt lat="40.168102" lon="-5.918186"><ele>1205.6</ele><time>2013-11-20T11:45:25Z</time></trkpt><trkpt lat="40.168063" lon="-5.918276"><ele>1204.6</ele><time>2013-11-20T11:45:34Z</time></trkpt><trkpt lat="40.167966" lon="-5.918225"><ele>1202.3</ele><time>2013-11-20T11:45:42Z</time></trkpt><trkpt lat="40.167903" lon="-5.918016"><ele>1201.1</ele><time>2013-11-20T11:45:52Z</time></trkpt><trkpt lat="40.167789" lon="-5.917798"><ele>1198.6</ele><time>2013-11-20T11:46:01Z</time></trkpt><trkpt lat="40.167580" lon="-5.917791"><ele>1193.6</ele><time>2013-11-20T11:46:09Z</time></trkpt><trkpt lat="40.167399" lon="-5.917788"><ele>1190.0</ele><time>2013-11-20T11:46:19Z</time></trkpt><trkpt lat="40.167343" lon="-5.917791"><ele>1189.1</ele><time>2013-11-20T11:46:28Z</time></trkpt><trkpt lat="40.167254" lon="-5.917940"><ele>1187.7</ele><time>2013-11-20T11:46:36Z</time></trkpt><trkpt lat="40.167081" lon="-5.917994"><ele>1185.0</ele><time>2013-11-20T11:46:46Z</time></trkpt><trkpt lat="40.166878" lon="-5.918051"><ele>1181.9</ele><time>2013-11-20T11:46:55Z</time></trkpt><trkpt lat="40.166690" lon="-5.918124"><ele>1179.1</ele><time>2013-11-20T11:47:03Z</time></trkpt><trkpt lat="40.166610" lon="-5.918276"><ele>1178.1</ele><time>2013-11-20T11:47:13Z</time></trkpt><trkpt lat="40.166489" lon="-5.918490"><ele>1176.1</ele><time>2013-11-20T11:47:22Z</time></trkpt><trkpt lat="40.166453" lon="-5.918538"><ele>1175.5</ele><time>2013-11-20T11:47:30Z</time></trkpt><trkpt lat="40.166415" lon="-5.918587"><ele>1174.9</ele><time>2013-11-20T11:47:40Z</time></trkpt><trkpt lat="40.166408" lon="-5.918589"><ele>1174.8</ele><time>2013-11-20T11:47:49Z</time></trkpt><trkpt lat="40.166389" lon="-5.918660"><ele>1174.4</ele><time>2013-11-20T11:47:57Z</time></trkpt><trkpt lat="40.166321" lon="-5.918719"><ele>1173.2</ele><time>2013-11-20T11:48:07Z</time></trkpt><trkpt lat="40.166284" lon="-5.918751"><ele>1172.6</ele><time>2013-11-20T11:48:16Z</time></trkpt><trkpt lat="40.166198" lon="-5.918790"><ele>1171.1</ele><time>2013-11-20T11:48:24Z</time></trkpt><trkpt lat="40.166151" lon="-5.918828"><ele>1170.2</ele><time>2013-11-20T11:48:34Z</time></trkpt><trkpt lat="40.166176" lon="-5.918874"><ele>1170.6</ele><time>2013-11-20T11:48:43Z</time></trkpt><trkpt lat="40.166183" lon="-5.918870"><ele>1170.7</ele><time>2013-11-20T11:48:51Z</time></trkpt><trkpt lat="40.166184" lon="-5.918872"><ele>1170.7</ele><time>2013-11-20T11:49:01Z</time></trkpt><trkpt lat="40.166184" lon="-5.918904"><ele>1170.7</ele><time>2013-11-20T11:49:10Z</time></trkpt><trkpt lat="40.166190" lon="-5.918942"><ele>1170.7</ele><time>2013-11-20T11:49:18Z</time></trkpt><trkpt lat="40.166263" lon="-5.919073"><ele>1171.8</ele><time>2013-11-20T11:49:28Z</time></trkpt><trkpt lat="40.166265" lon="-5.919078"><ele>1171.9</ele><time>2013-11-20T11:49:37Z</time></trkpt><trkpt lat="40.166278" lon="-5.919420"><ele>1171.6</ele><time>2013-11-20T11:49:45Z</time></trkpt><trkpt lat="40.166275" lon="-5.919422"><ele>1171.5</ele><time>2013-11-20T11:49:55Z</time></trkpt><trkpt lat="40.166262" lon="-5.919513"><ele>1171.1</ele><time>2013-11-20T11:50:04Z</time></trkpt><trkpt lat="40.166259" lon="-5.919541"><ele>1171.0</ele><time>2013-11-20T11:50:12Z</time></trkpt><trkpt lat="40.166260" lon="-5.919569"><ele>1171.0</ele><time>2013-11-20T11:50:22Z</time></trkpt><trkpt lat="40.166264" lon="-5.919818"><ele>1170.6</ele><time>2013-11-20T11:50:31Z</time></trkpt><trkpt lat="40.166256" lon="-5.919854"><ele>1170.4</ele><time>2013-11-20T11:50:39Z</time></trkpt><trkpt lat="40.166299" lon="-5.920122"><ele>1170.1</ele><time>2013-11-20T11:50:49Z</time></trkpt><trkpt lat="40.166364" lon="-5.920487"><ele>1168.5</ele><time>2013-11-20T11:50:58Z</time></trkpt><trkpt lat="40.166402" lon="-5.920549"><ele>1168.9</ele><time>2013-11-20T11:51:06Z</time></trkpt><trkpt lat="40.166413" lon="-5.920564"><ele>1169.0</ele><time>2013-11-20T11:51:16Z</time></trkpt><trkpt lat="40.166403" lon="-5.920652"><ele>1168.1</ele><time>2013-11-20T11:51:25Z</time></trkpt><trkpt lat="40.166414" lon="-5.920676"><ele>1168.2</ele><time>2013-11-20T11:51:33Z</time></trkpt><trkpt lat="40.166387" lon="-5.920867"><ele>1166.0</ele><time>2013-11-20T11:51:43Z</time></trkpt><trkpt lat="40.166297" lon="-5.921114"><ele>1162.0</ele><time>2013-11-20T11:51:52Z</time></trkpt><trkpt lat="40.166271" lon="-5.921176"><ele>1161.0</ele><time>2013-11-20T11:52:00Z</time></trkpt><trkpt lat="40.166252" lon="-5.921347"><ele>1159.3</ele><time>2013-11-20T11:52:10Z</time></trkpt><trkpt lat="40.166267" lon="-5.921652"><ele>1157.4</ele><time>2013-11-20T11:52:19Z</time></trkpt><trkpt lat="40.166265" lon="-5.921713"><ele>1156.6</ele><time>2013-11-20T11:52:27Z</time></trkpt><trkpt lat="40.166273" lon="-5.921767"><ele>1156.0</ele><time>2013-11-20T11:52:37Z</time></trkpt><trkpt lat="40.166286" lon="-5.921853"><ele>1155.0</ele><time>2013-11-20T11:52:46Z</time></trkpt><trkpt lat="40.166304" lon="-5.921919"><ele>1154.3</ele><time>2013-11-20T11:52:54Z</time></trkpt><trkpt lat="40.166332" lon="-5.921992"><ele>1153.7</ele><time>2013-11-20T11:53:04Z</time></trkpt><trkpt lat="40.166385" lon="-5.922125"><ele>1152.5</ele><time>2013-11-20T11:53:13Z</time></trkpt><trkpt lat="40.166528" lon="-5.922218"><ele>1153.1</ele><time>2013-11-20T11:53:21Z</time></trkpt><trkpt lat="40.166741" lon="-5.922334"><ele>1153.8</ele><time>2013-11-20T11:53:31Z</time></trkpt><trkpt lat="40.166832" lon="-5.922429"><ele>1153.3</ele><time>2013-11-20T11:53:40Z</time></trkpt><trkpt lat="40.166866" lon="-5.922442"><ele>1153.5</ele><time>2013-11-20T11:53:48Z</time></trkpt><trkpt lat="40.166905" lon="-5.922480"><ele>1153.5</ele><time>2013-11-20T11:53:58Z</time></trkpt><trkpt lat="40.166919" lon="-5.922498"><ele>1153.4</ele><time>2013-11-20T11:54:07Z</time></trkpt><trkpt lat="40.166923" lon="-5.922521"><ele>1153.2</ele><time>2013-11-20T11:54:15Z</time></trkpt><trkpt lat="40.166991" lon="-5.922557"><ele>1153.9</ele><time>2013-11-20T11:54:25Z</time></trkpt><trkpt lat="40.167033" lon="-5.922580"><ele>1154.4</ele><time>2013-11-20T11:54:34Z</time></trkpt><trkpt lat="40.167082" lon="-5.922604"><ele>1155.0</ele><time>2013-11-20T11:54:42Z</time></trkpt><trkpt lat="40.167261" lon="-5.922684"><ele>1157.5</ele><time>2013-11-20T11:54:52Z</time></trkpt><trkpt lat="40.167509" lon="-5.922718"><ele>1161.8</ele><time>2013-11-20T11:55:01Z</time></trkpt><trkpt lat="40.167540" lon="-5.922733"><ele>1162.7</ele><time>2013-11-20T11:55:09Z</time></trkpt><trkpt lat="40.167582" lon="-5.922762"><ele>1163.9</ele><time>2013-11-20T11:55:19Z</time></trkpt><trkpt lat="40.167588" lon="-5.922861"><ele>1164.4</ele><time>2013-11-20T11:55:28Z</time></trkpt><trkpt lat="40.167571" lon="-5.922888"><ele>1164.0</ele><time>2013-11-20T11:55:36Z</time></trkpt><trkpt lat="40.167445" lon="-5.923064"><ele>1161.1</ele><time>2013-11-20T11:55:46Z</time></trkpt><trkpt lat="40.167328" lon="-5.923194"><ele>1158.3</ele><time>2013-11-20T11:55:55Z</time></trkpt><trkpt lat="40.167236" lon="-5.923399"><ele>1156.4</ele><time>2013-11-20T11:56:03Z</time></trkpt><trkpt lat="40.167178" lon="-5.923437"><ele>1155.1</ele><time>2013-11-20T11:56:13Z</time></trkpt><trkpt lat="40.167002" lon="-5.923503"><ele>1150.6</ele><time>2013-11-20T11:56:22Z</time></trkpt><trkpt lat="40.166956" lon="-5.923537"><ele>1149.5</ele><time>2013-11-20T11:56:30Z</time></trkpt><trkpt lat="40.166813" lon="-5.923737"><ele>1146.5</ele><time>2013-11-20T11:56:40Z</time></trkpt><trkpt lat="40.166735" lon="-5.923823"><ele>1144.5</ele><time>2013-11-20T11:56:49Z</time></trkpt><trkpt lat="40.166715" lon="-5.923851"><ele>1144.0</ele><time>2013-11-20T11:56:57Z</time></trkpt><trkpt lat="40.166588" lon="-5.924016"><ele>1141.3</ele><time>2013-11-20T11:57:07Z</time></trkpt><trkpt lat="40.166525" lon="-5.924123"><ele>1140.1</ele><time>2013-11-20T11:57:16Z</time></trkpt><trkpt lat="40.166473" lon="-5.924326"><ele>1138.6</ele><time>2013-11-20T11:57:24Z</time></trkpt><trkpt lat="40.166458" lon="-5.924351"><ele>1138.2</ele><time>2013-11-20T11:57:34Z</time></trkpt><trkpt lat="40.166443" lon="-5.924382"><ele>1137.8</ele><time>2013-11-20T11:57:43Z</time></trkpt><trkpt lat="40.166453" lon="-5.924404"><ele>1138.0</ele><time>2013-11-20T11:57:51Z</time></trkpt><trkpt lat="40.166452" lon="-5.924413"><ele>1138.0</ele><time>2013-11-20T11:58:01Z</time></trkpt><trkpt lat="40.166432" lon="-5.924466"><ele>1137.4</ele><time>2013-11-20T11:58:10Z</time></trkpt><trkpt lat="40.166402" lon="-5.924570"><ele>1136.5</ele><time>2013-11-20T11:58:18Z</time></trkpt><trkpt lat="40.166312" lon="-5.924819"><ele>1134.1</ele><time>2013-11-20T11:58:28Z</time></trkpt><trkpt lat="40.166242" lon="-5.924974"><ele>1132.3</ele><time>2013-11-20T11:58:37Z</time></trkpt><trkpt lat="40.166134" lon="-5.925181"><ele>1130.5</ele><time>2013-11-20T11:58:45Z</time></trkpt><trkpt lat="40.166074" lon="-5.925242"><ele>1129.3</ele><time>2013-11-20T11:58:55Z</time></trkpt><trkpt lat="40.165928" lon="-5.925376"><ele>1126.2</ele><time>2013-11-20T11:59:04Z</time></trkpt><trkpt lat="40.165867" lon="-5.925418"><ele>1124.8</ele><time>2013-11-20T11:59:12Z</time></trkpt><trkpt lat="40.165787" lon="-5.925438"><ele>1123.5</ele><time>2013-11-20T11:59:22Z</time></trkpt><trkpt lat="40.165661" lon="-5.925409"><ele>1121.8</ele><time>2013-11-20T11:59:31Z</time></trkpt><trkpt lat="40.165599" lon="-5.925396"><ele>1121.0</ele><time>2013-11-20T11:59:39Z</time></trkpt><trkpt lat="40.165531" lon="-5.925366"><ele>1120.0</ele><time>2013-11-20T11:59:49Z</time></trkpt><trkpt lat="40.165350" lon="-5.925292"><ele>1117.4</ele><time>2013-11-20T11:59:58Z</time></trkpt><trkpt lat="40.165178" lon="-5.925230"><ele>1114.8</ele><time>2013-11-20T12:00:06Z</time></trkpt><trkpt lat="40.165041" lon="-5.925272"><ele>1113.2</ele><time>2013-11-20T12:00:16Z</time></trkpt><trkpt lat="40.165017" lon="-5.925271"><ele>1112.9</ele><time>2013-11-20T12:00:25Z</time></trkpt><trkpt lat="40.164991" lon="-5.925299"><ele>1112.7</ele><time>2013-11-20T12:00:33Z</time></trkpt><trkpt lat="40.164974" lon="-5.925369"><ele>1112.9</ele><time>2013-11-20T12:00:43Z</time></trkpt><trkpt lat="40.164900" lon="-5.925533"><ele>1112.8</ele><time>2013-11-20T12:00:52Z</time></trkpt><trkpt lat="40.164894" lon="-5.925584"><ele>1113.0</ele><time>2013-11-20T12:01:00Z</time></trkpt><trkpt lat="40.164889" lon="-5.925655"><ele>1113.4</ele><time>2013-11-20T12:01:10Z</time></trkpt><trkpt lat="40.164887" lon="-5.925674"><ele>1113.4</ele><time>2013-11-20T12:01:19Z</time></trkpt><trkpt lat="40.164862" lon="-5.925765"><ele>1113.6</ele><time>2013-11-20T12:01:27Z</time></trkpt><trkpt lat="40.164848" lon="-5.925808"><ele>1113.7</ele><time>2013-11-20T12:01:37Z</time></trkpt><trkpt lat="40.164827" lon="-5.925904"><ele>1113.8</ele><time>2013-11-20T12:01:46Z</time></trkpt><trkpt lat="40.164801" lon="-5.925964"><ele>1113.8</ele><time>2013-11-20T12:01:54Z</time></trkpt><trkpt lat="40.164715" lon="-5.925993"><ele>1112.7</ele><time>2013-11-20T12:02:04Z</time></trkpt><trkpt lat="40.164489" lon="-5.925978"><ele>1109.3</ele><time>2013-11-20T12:02:13Z</time></trkpt><trkpt lat="40.164299" lon="-5.925985"><ele>1106.6</ele><time>2013-11-20T12:02:21Z</time></trkpt><trkpt lat="40.164250" lon="-5.926003"><ele>1106.0</ele><time>2013-11-20T12:02:31Z</time></trkpt><trkpt lat="40.164163" lon="-5.925997"><ele>1104.7</ele><time>2013-11-20T12:02:40Z</time></trkpt><trkpt lat="40.163976" lon="-5.926012"><ele>1102.0</ele><time>2013-11-20T12:02:48Z</time></trkpt><trkpt lat="40.163781" lon="-5.925965"><ele>1098.9</ele><time>2013-11-20T12:02:58Z</time></trkpt><trkpt lat="40.163579" lon="-5.925917"><ele>1095.8</ele><time>2013-11-20T12:03:07Z</time></trkpt><trkpt lat="40.163449" lon="-5.925907"><ele>1093.9</ele><time>2013-11-20T12:03:15Z</time></trkpt><trkpt lat="40.163363" lon="-5.925829"><ele>1092.4</ele><time>2013-11-20T12:03:25Z</time></trkpt><trkpt lat="40.163308" lon="-5.925722"><ele>1091.9</ele><time>2013-11-20T12:03:34Z</time></trkpt><trkpt lat="40.163199" lon="-5.925579"><ele>1090.6</ele><time>2013-11-20T12:03:42Z</time></trkpt><trkpt lat="40.163063" lon="-5.925588"><ele>1088.6</ele><time>2013-11-20T12:03:52Z</time></trkpt><trkpt lat="40.162944" lon="-5.925597"><ele>1086.8</ele><time>2013-11-20T12:04:01Z</time></trkpt><trkpt lat="40.162903" lon="-5.925596"><ele>1086.2</ele><time>2013-11-20T12:04:09Z</time></trkpt><trkpt lat="40.162880" lon="-5.925571"><ele>1085.9</ele><time>2013-11-20T12:04:19Z</time></trkpt><trkpt lat="40.162836" lon="-5.925578"><ele>1085.3</ele><time>2013-11-20T12:04:28Z</time></trkpt><trkpt lat="40.162768" lon="-5.925578"><ele>1084.3</ele><time>2013-11-20T12:04:36Z</time></trkpt><trkpt lat="40.162680" lon="-5.925607"><ele>1082.9</ele><time>2013-11-20T12:04:46Z</time></trkpt><trkpt lat="40.162611" lon="-5.925733"><ele>1081.7</ele><time>2013-11-20T12:04:55Z</time></trkpt><trkpt lat="40.162541" lon="-5.925844"><ele>1080.6</ele><time>2013-11-20T12:05:03Z</time></trkpt><trkpt lat="40.162469" lon="-5.926029"><ele>1079.7</ele><time>2013-11-20T12:05:13Z</time></trkpt><trkpt lat="40.162451" lon="-5.926128"><ele>1079.5</ele><time>2013-11-20T12:05:22Z</time></trkpt><trkpt lat="40.162428" lon="-5.926221"><ele>1079.3</ele><time>2013-11-20T12:05:30Z</time></trkpt><trkpt lat="40.162391" lon="-5.926263"><ele>1078.9</ele><time>2013-11-20T12:05:40Z</time></trkpt><trkpt lat="40.162349" lon="-5.926235"><ele>1078.5</ele><time>2013-11-20T12:05:49Z</time></trkpt><trkpt lat="40.162322" lon="-5.926240"><ele>1078.2</ele><time>2013-11-20T12:05:57Z</time></trkpt><trkpt lat="40.162281" lon="-5.926224"><ele>1077.8</ele><time>2013-11-20T12:06:07Z</time></trkpt><trkpt lat="40.162092" lon="-5.926245"><ele>1075.8</ele><time>2013-11-20T12:06:16Z</time></trkpt><trkpt lat="40.162056" lon="-5.926229"><ele>1075.5</ele><time>2013-11-20T12:06:24Z</time></trkpt><trkpt lat="40.162031" lon="-5.926227"><ele>1075.2</ele><time>2013-11-20T12:06:34Z</time></trkpt><trkpt lat="40.161998" lon="-5.926232"><ele>1074.9</ele><time>2013-11-20T12:06:43Z</time></trkpt><trkpt lat="40.161961" lon="-5.926233"><ele>1074.5</ele><time>2013-11-20T12:06:51Z</time></trkpt><trkpt lat="40.161919" lon="-5.926228"><ele>1074.1</ele><time>2013-11-20T12:07:01Z</time></trkpt><trkpt lat="40.161878" lon="-5.926221"><ele>1073.7</ele><time>2013-11-20T12:07:10Z</time></trkpt><trkpt lat="40.161843" lon="-5.926213"><ele>1073.3</ele><time>2013-11-20T12:07:18Z</time></trkpt><trkpt lat="40.161793" lon="-5.926208"><ele>1072.8</ele><time>2013-11-20T12:07:28Z</time></trkpt><trkpt lat="40.161751" lon="-5.926201"><ele>1072.4</ele><time>2013-11-20T12:07:37Z</time></trkpt><trkpt lat="40.161712" lon="-5.926220"><ele>1072.0</ele><time>2013-11-20T12:07:45Z</time></trkpt><trkpt lat="40.161673" lon="-5.926244"><ele>1071.6</ele><time>2013-11-20T12:07:55Z</time></trkpt><trkpt lat="40.161622" lon="-5.926289"><ele>1070.7</ele><time>2013-11-20T12:08:04Z</time></trkpt><trkpt lat="40.161578" lon="-5.926334"><ele>1069.8</ele><time>2013-11-20T12:08:12Z</time></trkpt><trkpt lat="40.161568" lon="-5.926398"><ele>1069.6</ele><time>2013-11-20T12:08:22Z</time></trkpt><trkpt lat="40.161524" lon="-5.926452"><ele>1068.7</ele><time>2013-11-20T12:08:31Z</time></trkpt><trkpt lat="40.161436" lon="-5.926525"><ele>1067.1</ele><time>2013-11-20T12:08:39Z</time></trkpt><trkpt lat="40.161388" lon="-5.926655"><ele>1066.0</ele><time>2013-11-20T12:08:49Z</time></trkpt><trkpt lat="40.161367" lon="-5.926695"><ele>1065.6</ele><time>2013-11-20T12:08:58Z</time></trkpt><trkpt lat="40.161337" lon="-5.926702"><ele>1065.1</ele><time>2013-11-20T12:09:06Z</time></trkpt><trkpt lat="40.161306" lon="-5.926689"><ele>1064.5</ele><time>2013-11-20T12:09:16Z</time></trkpt><trkpt lat="40.161274" lon="-5.926694"><ele>1063.9</ele><time>2013-11-20T12:09:25Z</time></trkpt><trkpt lat="40.161228" lon="-5.926665"><ele>1063.1</ele><time>2013-11-20T12:09:33Z</time></trkpt><trkpt lat="40.161186" lon="-5.926699"><ele>1062.4</ele><time>2013-11-20T12:09:43Z</time></trkpt><trkpt lat="40.161137" lon="-5.926685"><ele>1061.5</ele><time>2013-11-20T12:09:52Z</time></trkpt><trkpt lat="40.161103" lon="-5.926613"><ele>1061.0</ele><time>2013-11-20T12:10:00Z</time></trkpt><trkpt lat="40.161078" lon="-5.926539"><ele>1060.7</ele><time>2013-11-20T12:10:10Z</time></trkpt><trkpt lat="40.161027" lon="-5.926598"><ele>1059.6</ele><time>2013-11-20T12:10:19Z</time></trkpt><trkpt lat="40.160982" lon="-5.926687"><ele>1058.7</ele><time>2013-11-20T12:10:27Z</time></trkpt><trkpt lat="40.160945" lon="-5.926721"><ele>1058.1</ele><time>2013-11-20T12:10:37Z</time></trkpt><trkpt lat="40.160909" lon="-5.926722"><ele>1057.4</ele><time>2013-11-20T12:10:46Z</time></trkpt><trkpt lat="40.160880" lon="-5.926783"><ele>1057.0</ele><time>2013-11-20T12:10:54Z</time></trkpt><trkpt lat="40.160873" lon="-5.926815"><ele>1056.9</ele><time>2013-11-20T12:11:04Z</time></trkpt><trkpt lat="40.160854" lon="-5.926851"><ele>1056.6</ele><time>2013-11-20T12:11:13Z</time></trkpt><trkpt lat="40.160848" lon="-5.926893"><ele>1056.5</ele><time>2013-11-20T12:11:21Z</time></trkpt><trkpt lat="40.160840" lon="-5.926951"><ele>1056.5</ele><time>2013-11-20T12:11:31Z</time></trkpt><trkpt lat="40.160815" lon="-5.927032"><ele>1056.2</ele><time>2013-11-20T12:11:40Z</time></trkpt><trkpt lat="40.160812" lon="-5.927030"><ele>1056.2</ele><time>2013-11-20T12:11:48Z</time></trkpt><trkpt lat="40.160856" lon="-5.927113"><ele>1056.9</ele><time>2013-11-20T12:11:58Z</time></trkpt><trkpt lat="40.160823" lon="-5.927179"><ele>1056.5</ele><time>2013-11-20T12:12:07Z</time></trkpt><trkpt lat="40.160811" lon="-5.927199"><ele>1056.4</ele><time>2013-11-20T12:12:15Z</time></trkpt><trkpt lat="40.160801" lon="-5.927237"><ele>1056.3</ele><time>2013-11-20T12:12:25Z</time></trkpt><trkpt lat="40.160764" lon="-5.927274"><ele>1055.9</ele><time>2013-11-20T12:12:34Z</time></trkpt><trkpt lat="40.160703" lon="-5.927303"><ele>1055.1</ele><time>2013-11-20T12:12:42Z</time></trkpt><trkpt lat="40.160633" lon="-5.927374"><ele>1054.3</ele><time>2013-11-20T12:12:52Z</time></trkpt><trkpt lat="40.160574" lon="-5.927406"><ele>1053.5</ele><time>2013-11-20T12:13:01Z</time></trkpt><trkpt lat="40.160481" lon="-5.927408"><ele>1052.3</ele><time>2013-11-20T12:13:09Z</time></trkpt><trkpt lat="40.160346" lon="-5.927350"><ele>1050.6</ele><time>2013-11-20T12:13:19Z</time></trkpt><trkpt lat="40.160210" lon="-5.927209"><ele>1048.9</ele><time>2013-11-20T12:13:28Z</time></trkpt><trkpt lat="40.160087" lon="-5.927151"><ele>1047.5</ele><time>2013-11-20T12:13:36Z</time></trkpt><trkpt lat="40.159955" lon="-5.927204"><ele>1046.0</ele><time>2013-11-20T12:13:46Z</time></trkpt><trkpt lat="40.159787" lon="-5.927249"><ele>1044.6</ele><time>2013-11-20T12:13:55Z</time></trkpt><trkpt lat="40.159646" lon="-5.927314"><ele>1043.3</ele><time>2013-11-20T12:14:03Z</time></trkpt><trkpt lat="40.159549" lon="-5.927415"><ele>1042.4</ele><time>2013-11-20T12:14:13Z</time></trkpt><trkpt lat="40.159496" lon="-5.927469"><ele>1041.8</ele><time>2013-11-20T12:14:22Z</time></trkpt><trkpt lat="40.159368" lon="-5.927534"><ele>1040.8</ele><time>2013-11-20T12:14:30Z</time></trkpt><trkpt lat="40.159361" lon="-5.927545"><ele>1040.8</ele><time>2013-11-20T12:14:40Z</time></trkpt><trkpt lat="40.159338" lon="-5.927564"><ele>1040.7</ele><time>2013-11-20T12:14:49Z</time></trkpt><trkpt lat="40.159313" lon="-5.927569"><ele>1040.5</ele><time>2013-11-20T12:14:57Z</time></trkpt><trkpt lat="40.159293" lon="-5.927583"><ele>1040.3</ele><time>2013-11-20T12:15:07Z</time></trkpt><trkpt lat="40.159242" lon="-5.927604"><ele>1039.9</ele><time>2013-11-20T12:15:16Z</time></trkpt><trkpt lat="40.159201" lon="-5.927638"><ele>1039.6</ele><time>2013-11-20T12:15:24Z</time></trkpt><trkpt lat="40.159094" lon="-5.927707"><ele>1038.8</ele><time>2013-11-20T12:15:34Z</time></trkpt><trkpt lat="40.158895" lon="-5.927724"><ele>1036.8</ele><time>2013-11-20T12:15:43Z</time></trkpt><trkpt lat="40.158782" lon="-5.927731"><ele>1035.7</ele><time>2013-11-20T12:15:51Z</time></trkpt><trkpt lat="40.158682" lon="-5.927701"><ele>1034.7</ele><time>2013-11-20T12:16:01Z</time></trkpt><trkpt lat="40.158648" lon="-5.927690"><ele>1034.3</ele><time>2013-11-20T12:16:10Z</time></trkpt><trkpt lat="40.158608" lon="-5.927680"><ele>1033.9</ele><time>2013-11-20T12:16:18Z</time></trkpt><trkpt lat="40.158579" lon="-5.927688"><ele>1033.7</ele><time>2013-11-20T12:16:28Z</time></trkpt><trkpt lat="40.158467" lon="-5.927676"><ele>1032.5</ele><time>2013-11-20T12:16:37Z</time></trkpt><trkpt lat="40.158399" lon="-5.927671"><ele>1031.9</ele><time>2013-11-20T12:16:45Z</time></trkpt><trkpt lat="40.158222" lon="-5.927639"><ele>1030.3</ele><time>2013-11-20T12:16:55Z</time></trkpt><trkpt lat="40.158013" lon="-5.927667"><ele>1028.8</ele><time>2013-11-20T12:17:04Z</time></trkpt><trkpt lat="40.158000" lon="-5.927671"><ele>1028.7</ele><time>2013-11-20T12:17:12Z</time></trkpt><trkpt lat="40.157987" lon="-5.927677"><ele>1028.6</ele><time>2013-11-20T12:17:22Z</time></trkpt><trkpt lat="40.157926" lon="-5.927689"><ele>1028.2</ele><time>2013-11-20T12:17:31Z</time></trkpt><trkpt lat="40.157913" lon="-5.927692"><ele>1028.1</ele><time>2013-11-20T12:17:39Z</time></trkpt><trkpt lat="40.157888" lon="-5.927704"><ele>1027.9</ele><time>2013-11-20T12:17:49Z</time></trkpt><trkpt lat="40.157876" lon="-5.927706"><ele>1027.8</ele><time>2013-11-20T12:17:58Z</time></trkpt><trkpt lat="40.157803" lon="-5.927737"><ele>1027.3</ele><time>2013-11-20T12:18:06Z</time></trkpt><trkpt lat="40.157728" lon="-5.927900"><ele>1026.8</ele><time>2013-11-20T12:18:16Z</time></trkpt><trkpt lat="40.157705" lon="-5.927923"><ele>1026.6</ele><time>2013-11-20T12:18:25Z</time></trkpt><trkpt lat="40.157681" lon="-5.928004"><ele>1026.4</ele><time>2013-11-20T12:18:33Z</time></trkpt><trkpt lat="40.157622" lon="-5.928226"><ele>1026.0</ele><time>2013-11-20T12:18:43Z</time></trkpt><trkpt lat="40.157596" lon="-5.928261"><ele>1025.8</ele><time>2013-11-20T12:18:52Z</time></trkpt><trkpt lat="40.157580" lon="-5.928295"><ele>1025.7</ele><time>2013-11-20T12:19:00Z</time></trkpt><trkpt lat="40.157583" lon="-5.928323"><ele>1025.7</ele><time>2013-11-20T12:19:10Z</time></trkpt><trkpt lat="40.157522" lon="-5.928443"><ele>1025.3</ele><time>2013-11-20T12:19:19Z</time></trkpt><trkpt lat="40.157456" lon="-5.928596"><ele>1025.0</ele><time>2013-11-20T12:19:27Z</time></trkpt><trkpt lat="40.157391" lon="-5.928769"><ele>1024.9</ele><time>2013-11-20T12:19:37Z</time></trkpt><trkpt lat="40.157335" lon="-5.928940"><ele>1025.0</ele><time>2013-11-20T12:19:46Z</time></trkpt><trkpt lat="40.157251" lon="-5.928951"><ele>1024.6</ele><time>2013-11-20T12:19:54Z</time></trkpt><trkpt lat="40.157176" lon="-5.928898"><ele>1024.1</ele><time>2013-11-20T12:20:04Z</time></trkpt><trkpt lat="40.157127" lon="-5.928788"><ele>1023.6</ele><time>2013-11-20T12:20:13Z</time></trkpt><trkpt lat="40.157063" lon="-5.928764"><ele>1023.2</ele><time>2013-11-20T12:20:21Z</time></trkpt><trkpt lat="40.157052" lon="-5.928752"><ele>1023.1</ele><time>2013-11-20T12:20:31Z</time></trkpt><trkpt lat="40.157031" lon="-5.928748"><ele>1023.0</ele><time>2013-11-20T12:20:40Z</time></trkpt><trkpt lat="40.157002" lon="-5.928744"><ele>1022.8</ele><time>2013-11-20T12:20:48Z</time></trkpt><trkpt lat="40.156966" lon="-5.928751"><ele>1022.6</ele><time>2013-11-20T12:20:58Z</time></trkpt><trkpt lat="40.156928" lon="-5.928752"><ele>1022.4</ele><time>2013-11-20T12:21:07Z</time></trkpt><trkpt lat="40.156893" lon="-5.928771"><ele>1022.3</ele><time>2013-11-20T12:21:15Z</time></trkpt><trkpt lat="40.156857" lon="-5.928790"><ele>1022.2</ele><time>2013-11-20T12:21:25Z</time></trkpt><trkpt lat="40.156824" lon="-5.928830"><ele>1022.2</ele><time>2013-11-20T12:21:34Z</time></trkpt><trkpt lat="40.156799" lon="-5.928864"><ele>1022.2</ele><time>2013-11-20T12:21:42Z</time></trkpt><trkpt lat="40.156773" lon="-5.928898"><ele>1022.2</ele><time>2013-11-20T12:21:52Z</time></trkpt><trkpt lat="40.156756" lon="-5.928936"><ele>1022.3</ele><time>2013-11-20T12:22:01Z</time></trkpt><trkpt lat="40.156698" lon="-5.928939"><ele>1022.1</ele><time>2013-11-20T12:22:09Z</time></trkpt><trkpt lat="40.156645" lon="-5.928987"><ele>1022.0</ele><time>2013-11-20T12:22:19Z</time></trkpt><trkpt lat="40.156612" lon="-5.929035"><ele>1022.1</ele><time>2013-11-20T12:22:28Z</time></trkpt><trkpt lat="40.156598" lon="-5.929073"><ele>1022.2</ele><time>2013-11-20T12:22:36Z</time></trkpt><trkpt lat="40.156583" lon="-5.929116"><ele>1022.3</ele><time>2013-11-20T12:22:46Z</time></trkpt><trkpt lat="40.156575" lon="-5.929141"><ele>1022.4</ele><time>2013-11-20T12:22:55Z</time></trkpt><trkpt lat="40.156560" lon="-5.929212"><ele>1022.7</ele><time>2013-11-20T12:23:03Z</time></trkpt><trkpt lat="40.156538" lon="-5.929258"><ele>1022.9</ele><time>2013-11-20T12:23:13Z</time></trkpt><trkpt lat="40.156535" lon="-5.929323"><ele>1023.2</ele><time>2013-11-20T12:23:22Z</time></trkpt><trkpt lat="40.156516" lon="-5.929422"><ele>1023.7</ele><time>2013-11-20T12:23:30Z</time></trkpt><trkpt lat="40.156507" lon="-5.929433"><ele>1023.7</ele><time>2013-11-20T12:23:40Z</time></trkpt><trkpt lat="40.156492" lon="-5.929451"><ele>1023.7</ele><time>2013-11-20T12:23:49Z</time></trkpt><trkpt lat="40.156427" lon="-5.929529"><ele>1023.8</ele><time>2013-11-20T12:23:57Z</time></trkpt><trkpt lat="40.156409" lon="-5.929588"><ele>1024.0</ele><time>2013-11-20T12:24:07Z</time></trkpt><trkpt lat="40.156405" lon="-5.929637"><ele>1024.2</ele><time>2013-11-20T12:24:16Z</time></trkpt><trkpt lat="40.156403" lon="-5.929682"><ele>1024.4</ele><time>2013-11-20T12:24:24Z</time></trkpt><trkpt lat="40.156380" lon="-5.929747"><ele>1024.6</ele><time>2013-11-20T12:24:34Z</time></trkpt><trkpt lat="40.156350" lon="-5.929778"><ele>1024.6</ele><time>2013-11-20T12:24:43Z</time></trkpt><trkpt lat="40.156323" lon="-5.929759"><ele>1024.3</ele><time>2013-11-20T12:24:51Z</time></trkpt><trkpt lat="40.156290" lon="-5.929758"><ele>1024.1</ele><time>2013-11-20T12:25:01Z</time></trkpt><trkpt lat="40.156265" lon="-5.929751"><ele>1023.9</ele><time>2013-11-20T12:25:10Z</time></trkpt><trkpt lat="40.156224" lon="-5.929762"><ele>1023.7</ele><time>2013-11-20T12:25:18Z</time></trkpt><trkpt lat="40.156163" lon="-5.929762"><ele>1023.3</ele><time>2013-11-20T12:25:28Z</time></trkpt><trkpt lat="40.156114" lon="-5.929774"><ele>1023.0</ele><time>2013-11-20T12:25:37Z</time></trkpt><trkpt lat="40.156096" lon="-5.929761"><ele>1022.9</ele><time>2013-11-20T12:25:45Z</time></trkpt><trkpt lat="40.156078" lon="-5.929775"><ele>1022.8</ele><time>2013-11-20T12:25:55Z</time></trkpt><trkpt lat="40.156050" lon="-5.929794"><ele>1022.7</ele><time>2013-11-20T12:26:04Z</time></trkpt><trkpt lat="40.155996" lon="-5.929801"><ele>1022.4</ele><time>2013-11-20T12:26:12Z</time></trkpt><trkpt lat="40.155957" lon="-5.929808"><ele>1022.1</ele><time>2013-11-20T12:26:22Z</time></trkpt><trkpt lat="40.155921" lon="-5.929809"><ele>1021.9</ele><time>2013-11-20T12:26:31Z</time></trkpt><trkpt lat="40.155837" lon="-5.929847"><ele>1021.5</ele><time>2013-11-20T12:26:39Z</time></trkpt><trkpt lat="40.155758" lon="-5.929884"><ele>1021.2</ele><time>2013-11-20T12:26:49Z</time></trkpt><trkpt lat="40.155749" lon="-5.929904"><ele>1021.2</ele><time>2013-11-20T12:26:58Z</time></trkpt><trkpt lat="40.155735" lon="-5.929906"><ele>1021.2</ele><time>2013-11-20T12:27:06Z</time></trkpt><trkpt lat="40.155702" lon="-5.929935"><ele>1021.2</ele><time>2013-11-20T12:27:16Z</time></trkpt><trkpt lat="40.155665" lon="-5.929960"><ele>1021.1</ele><time>2013-11-20T12:27:25Z</time></trkpt><trkpt lat="40.155643" lon="-5.929968"><ele>1021.1</ele><time>2013-11-20T12:27:33Z</time></trkpt><trkpt lat="40.155599" lon="-5.929989"><ele>1021.1</ele><time>2013-11-20T12:27:43Z</time></trkpt><trkpt lat="40.155571" lon="-5.930053"><ele>1021.3</ele><time>2013-11-20T12:27:52Z</time></trkpt><trkpt lat="40.155532" lon="-5.930074"><ele>1021.2</ele><time>2013-11-20T12:28:00Z</time></trkpt><trkpt lat="40.155488" lon="-5.930117"><ele>1021.3</ele><time>2013-11-20T12:28:10Z</time></trkpt><trkpt lat="40.155446" lon="-5.930103"><ele>1021.1</ele><time>2013-11-20T12:28:19Z</time></trkpt><trkpt lat="40.155387" lon="-5.930059"><ele>1020.7</ele><time>2013-11-20T12:28:27Z</time></trkpt><trkpt lat="40.155381" lon="-5.930083"><ele>1020.8</ele><time>2013-11-20T12:28:37Z</time></trkpt><trkpt lat="40.155346" lon="-5.930113"><ele>1020.8</ele><time>2013-11-20T12:28:46Z</time></trkpt><trkpt lat="40.155316" lon="-5.930094"><ele>1020.6</ele><time>2013-11-20T12:28:54Z</time></trkpt><trkpt lat="40.155288" lon="-5.930108"><ele>1020.6</ele><time>2013-11-20T12:29:04Z</time></trkpt><trkpt lat="40.155243" lon="-5.930091"><ele>1020.4</ele><time>2013-11-20T12:29:13Z</time></trkpt><trkpt lat="40.155212" lon="-5.930087"><ele>1020.3</ele><time>2013-11-20T12:29:21Z</time></trkpt><trkpt lat="40.155125" lon="-5.930076"><ele>1019.9</ele><time>2013-11-20T12:29:31Z</time></trkpt><trkpt lat="40.154972" lon="-5.930053"><ele>1019.2</ele><time>2013-11-20T12:29:40Z</time></trkpt><trkpt lat="40.154934" lon="-5.930028"><ele>1018.7</ele><time>2013-11-20T12:29:48Z</time></trkpt><trkpt lat="40.154885" lon="-5.930026"><ele>1018.4</ele><time>2013-11-20T12:29:58Z</time></trkpt><trkpt lat="40.154837" lon="-5.930018"><ele>1018.0</ele><time>2013-11-20T12:30:07Z</time></trkpt><trkpt lat="40.154795" lon="-5.929993"><ele>1017.4</ele><time>2013-11-20T12:30:15Z</time></trkpt><trkpt lat="40.154719" lon="-5.929990"><ele>1016.8</ele><time>2013-11-20T12:30:25Z</time></trkpt><trkpt lat="40.154694" lon="-5.929977"><ele>1016.4</ele><time>2013-11-20T12:30:34Z</time></trkpt><trkpt lat="40.154661" lon="-5.929975"><ele>1016.1</ele><time>2013-11-20T12:30:42Z</time></trkpt><trkpt lat="40.154611" lon="-5.929985"><ele>1015.9</ele><time>2013-11-20T12:30:52Z</time></trkpt><trkpt lat="40.154575" lon="-5.929995"><ele>1015.8</ele><time>2013-11-20T12:31:01Z</time></trkpt><trkpt lat="40.154532" lon="-5.930061"><ele>1016.1</ele><time>2013-11-20T12:31:09Z</time></trkpt><trkpt lat="40.154495" lon="-5.930103"><ele>1016.1</ele><time>2013-11-20T12:31:19Z</time></trkpt><trkpt lat="40.154427" lon="-5.930135"><ele>1015.8</ele><time>2013-11-20T12:31:28Z</time></trkpt><trkpt lat="40.154295" lon="-5.930191"><ele>1015.3</ele><time>2013-11-20T12:31:36Z</time></trkpt><trkpt lat="40.154255" lon="-5.930246"><ele>1015.4</ele><time>2013-11-20T12:31:46Z</time></trkpt><trkpt lat="40.154207" lon="-5.930282"><ele>1015.3</ele><time>2013-11-20T12:31:55Z</time></trkpt><trkpt lat="40.154148" lon="-5.930264"><ele>1014.5</ele><time>2013-11-20T12:32:03Z</time></trkpt><trkpt lat="40.154073" lon="-5.930337"><ele>1013.6</ele><time>2013-11-20T12:32:13Z</time></trkpt><trkpt lat="40.154051" lon="-5.930381"><ele>1013.6</ele><time>2013-11-20T12:32:22Z</time></trkpt><trkpt lat="40.154033" lon="-5.930403"><ele>1013.5</ele><time>2013-11-20T12:32:30Z</time></trkpt><trkpt lat="40.154012" lon="-5.930416"><ele>1013.2</ele><time>2013-11-20T12:32:40Z</time></trkpt><trkpt lat="40.154004" lon="-5.930455"><ele>1013.5</ele><time>2013-11-20T12:32:49Z</time></trkpt><trkpt lat="40.153994" lon="-5.930493"><ele>1013.7</ele><time>2013-11-20T12:32:57Z</time></trkpt><trkpt lat="40.153976" lon="-5.930524"><ele>1013.7</ele><time>2013-11-20T12:33:07Z</time></trkpt><trkpt lat="40.153923" lon="-5.930551"><ele>1013.1</ele><time>2013-11-20T12:33:16Z</time></trkpt><trkpt lat="40.153866" lon="-5.930584"><ele>1012.7</ele><time>2013-11-20T12:33:24Z</time></trkpt><trkpt lat="40.153818" lon="-5.930599"><ele>1012.1</ele><time>2013-11-20T12:33:34Z</time></trkpt><trkpt lat="40.153761" lon="-5.930571"><ele>1010.9</ele><time>2013-11-20T12:33:43Z</time></trkpt><trkpt lat="40.153702" lon="-5.930561"><ele>1009.8</ele><time>2013-11-20T12:33:51Z</time></trkpt><trkpt lat="40.153645" lon="-5.930604"><ele>1009.6</ele><time>2013-11-20T12:34:01Z</time></trkpt><trkpt lat="40.153592" lon="-5.930656"><ele>1009.8</ele><time>2013-11-20T12:34:10Z</time></trkpt><trkpt lat="40.153566" lon="-5.930681"><ele>1009.8</ele><time>2013-11-20T12:34:18Z</time></trkpt><trkpt lat="40.153518" lon="-5.930698"><ele>1009.5</ele><time>2013-11-20T12:34:28Z</time></trkpt><trkpt lat="40.153434" lon="-5.930773"><ele>1009.9</ele><time>2013-11-20T12:34:37Z</time></trkpt><trkpt lat="40.153414" lon="-5.930793"><ele>1010.1</ele><time>2013-11-20T12:34:45Z</time></trkpt><trkpt lat="40.153387" lon="-5.930830"><ele>1010.5</ele><time>2013-11-20T12:34:55Z</time></trkpt><trkpt lat="40.153341" lon="-5.930866"><ele>1010.4</ele><time>2013-11-20T12:35:04Z</time></trkpt><trkpt lat="40.153315" lon="-5.930906"><ele>1010.4</ele><time>2013-11-20T12:35:12Z</time></trkpt><trkpt lat="40.153274" lon="-5.930943"><ele>1010.1</ele><time>2013-11-20T12:35:22Z</time></trkpt><trkpt lat="40.153234" lon="-5.931007"><ele>1010.1</ele><time>2013-11-20T12:35:31Z</time></trkpt><trkpt lat="40.153216" lon="-5.931034"><ele>1010.1</ele><time>2013-11-20T12:35:39Z</time></trkpt><trkpt lat="40.153130" lon="-5.931121"><ele>1009.7</ele><time>2013-11-20T12:35:49Z</time></trkpt><trkpt lat="40.153119" lon="-5.931137"><ele>1009.7</ele><time>2013-11-20T12:35:58Z</time></trkpt><trkpt lat="40.153045" lon="-5.931243"><ele>1009.6</ele><time>2013-11-20T12:36:06Z</time></trkpt><trkpt lat="40.153035" lon="-5.931242"><ele>1009.4</ele><time>2013-11-20T12:36:16Z</time></trkpt><trkpt lat="40.153008" lon="-5.931256"><ele>1009.2</ele><time>2013-11-20T12:36:25Z</time></trkpt><trkpt lat="40.152895" lon="-5.931423"><ele>1009.2</ele><time>2013-11-20T12:36:33Z</time></trkpt><trkpt lat="40.152888" lon="-5.931449"><ele>1009.4</ele><time>2013-11-20T12:36:43Z</time></trkpt><trkpt lat="40.152867" lon="-5.931494"><ele>1009.5</ele><time>2013-11-20T12:36:52Z</time></trkpt><trkpt lat="40.152868" lon="-5.931492"><ele>1009.5</ele><time>2013-11-20T12:37:00Z</time></trkpt><trkpt lat="40.152850" lon="-5.931598"><ele>1010.3</ele><time>2013-11-20T12:37:10Z</time></trkpt><trkpt lat="40.152837" lon="-5.931677"><ele>1010.9</ele><time>2013-11-20T12:37:19Z</time></trkpt><trkpt lat="40.152782" lon="-5.931764"><ele>1010.5</ele><time>2013-11-20T12:37:27Z</time></trkpt><trkpt lat="40.152706" lon="-5.931840"><ele>1009.6</ele><time>2013-11-20T12:37:37Z</time></trkpt><trkpt lat="40.152633" lon="-5.931887"><ele>1008.8</ele><time>2013-11-20T12:37:46Z</time></trkpt><trkpt lat="40.152584" lon="-5.931961"><ele>1008.3</ele><time>2013-11-20T12:37:54Z</time></trkpt><trkpt lat="40.152538" lon="-5.931994"><ele>1007.7</ele><time>2013-11-20T12:38:04Z</time></trkpt><trkpt lat="40.152517" lon="-5.932011"><ele>1007.5</ele><time>2013-11-20T12:38:13Z</time></trkpt><trkpt lat="40.152502" lon="-5.932050"><ele>1007.4</ele><time>2013-11-20T12:38:21Z</time></trkpt><trkpt lat="40.152488" lon="-5.932069"><ele>1007.2</ele><time>2013-11-20T12:38:31Z</time></trkpt><trkpt lat="40.152469" lon="-5.932135"><ele>1007.2</ele><time>2013-11-20T12:38:40Z</time></trkpt><trkpt lat="40.152434" lon="-5.932192"><ele>1006.8</ele><time>2013-11-20T12:38:48Z</time></trkpt><trkpt lat="40.152411" lon="-5.932197"><ele>1006.4</ele><time>2013-11-20T12:38:58Z</time></trkpt><trkpt lat="40.152408" lon="-5.932214"><ele>1006.4</ele><time>2013-11-20T12:39:07Z</time></trkpt><trkpt lat="40.152406" lon="-5.932226"><ele>1006.4</ele><time>2013-11-20T12:39:15Z</time></trkpt><trkpt lat="40.152372" lon="-5.932228"><ele>1005.9</ele><time>2013-11-20T12:39:25Z</time></trkpt><trkpt lat="40.152349" lon="-5.932229"><ele>1005.5</ele><time>2013-11-20T12:39:34Z</time></trkpt><trkpt lat="40.152329" lon="-5.932237"><ele>1005.2</ele><time>2013-11-20T12:39:42Z</time></trkpt><trkpt lat="40.152290" lon="-5.932265"><ele>1004.7</ele><time>2013-11-20T12:39:52Z</time></trkpt><trkpt lat="40.152217" lon="-5.932300"><ele>1003.6</ele><time>2013-11-20T12:40:01Z</time></trkpt><trkpt lat="40.152080" lon="-5.932362"><ele>1001.7</ele><time>2013-11-20T12:40:09Z</time></trkpt><trkpt lat="40.152041" lon="-5.932383"><ele>1001.2</ele><time>2013-11-20T12:40:19Z</time></trkpt><trkpt lat="40.152021" lon="-5.932397"><ele>1000.9</ele><time>2013-11-20T12:40:28Z</time></trkpt><trkpt lat="40.151991" lon="-5.932411"><ele>1000.5</ele><time>2013-11-20T12:40:36Z</time></trkpt><trkpt lat="40.151950" lon="-5.932429"><ele>1000.0</ele><time>2013-11-20T12:40:46Z</time></trkpt><trkpt lat="40.151932" lon="-5.932432"><ele>999.7</ele><time>2013-11-20T12:40:55Z</time></trkpt><trkpt lat="40.151912" lon="-5.932442"><ele>999.5</ele><time>2013-11-20T12:41:03Z</time></trkpt><trkpt lat="40.151866" lon="-5.932449"><ele>998.8</ele><time>2013-11-20T12:41:13Z</time></trkpt><trkpt lat="40.151824" lon="-5.932447"><ele>998.1</ele><time>2013-11-20T12:41:22Z</time></trkpt><trkpt lat="40.151769" lon="-5.932460"><ele>997.3</ele><time>2013-11-20T12:41:30Z</time></trkpt><trkpt lat="40.151733" lon="-5.932479"><ele>996.9</ele><time>2013-11-20T12:41:40Z</time></trkpt><trkpt lat="40.151699" lon="-5.932495"><ele>996.5</ele><time>2013-11-20T12:41:49Z</time></trkpt><trkpt lat="40.151647" lon="-5.932528"><ele>996.0</ele><time>2013-11-20T12:41:57Z</time></trkpt><trkpt lat="40.151628" lon="-5.932533"><ele>995.9</ele><time>2013-11-20T12:42:07Z</time></trkpt><trkpt lat="40.151606" lon="-5.932567"><ele>996.0</ele><time>2013-11-20T12:42:16Z</time></trkpt><trkpt lat="40.151594" lon="-5.932628"><ele>996.3</ele><time>2013-11-20T12:42:24Z</time></trkpt><trkpt lat="40.151552" lon="-5.932674"><ele>996.3</ele><time>2013-11-20T12:42:34Z</time></trkpt><trkpt lat="40.151508" lon="-5.932710"><ele>996.1</ele><time>2013-11-20T12:42:43Z</time></trkpt><trkpt lat="40.151390" lon="-5.932760"><ele>995.4</ele><time>2013-11-20T12:42:51Z</time></trkpt><trkpt lat="40.151336" lon="-5.932773"><ele>995.1</ele><time>2013-11-20T12:43:01Z</time></trkpt><trkpt lat="40.151286" lon="-5.932794"><ele>994.8</ele><time>2013-11-20T12:43:10Z</time></trkpt><trkpt lat="40.151276" lon="-5.932808"><ele>994.8</ele><time>2013-11-20T12:43:18Z</time></trkpt><trkpt lat="40.151265" lon="-5.932808"><ele>994.7</ele><time>2013-11-20T12:43:28Z</time></trkpt><trkpt lat="40.151244" lon="-5.932828"><ele>994.6</ele><time>2013-11-20T12:43:37Z</time></trkpt><trkpt lat="40.151217" lon="-5.932844"><ele>994.5</ele><time>2013-11-20T12:43:45Z</time></trkpt><trkpt lat="40.151164" lon="-5.932859"><ele>994.1</ele><time>2013-11-20T12:43:55Z</time></trkpt><trkpt lat="40.151104" lon="-5.932865"><ele>993.6</ele><time>2013-11-20T12:44:04Z</time></trkpt><trkpt lat="40.151070" lon="-5.932803"><ele>992.9</ele><time>2013-11-20T12:44:12Z</time></trkpt><trkpt lat="40.151020" lon="-5.932780"><ele>992.3</ele><time>2013-11-20T12:44:22Z</time></trkpt><trkpt lat="40.150982" lon="-5.932811"><ele>992.2</ele><time>2013-11-20T12:44:31Z</time></trkpt><trkpt lat="40.150903" lon="-5.932814"><ele>991.5</ele><time>2013-11-20T12:44:39Z</time></trkpt><trkpt lat="40.150822" lon="-5.932767"><ele>990.5</ele><time>2013-11-20T12:44:49Z</time></trkpt><trkpt lat="40.150790" lon="-5.932760"><ele>990.2</ele><time>2013-11-20T12:44:58Z</time></trkpt><trkpt lat="40.150764" lon="-5.932766"><ele>990.0</ele><time>2013-11-20T12:45:06Z</time></trkpt><trkpt lat="40.150732" lon="-5.932770"><ele>989.7</ele><time>2013-11-20T12:45:16Z</time></trkpt><trkpt lat="40.150674" lon="-5.932765"><ele>989.2</ele><time>2013-11-20T12:45:25Z</time></trkpt><trkpt lat="40.150600" lon="-5.932762"><ele>988.5</ele><time>2013-11-20T12:45:33Z</time></trkpt><trkpt lat="40.150495" lon="-5.932728"><ele>987.3</ele><time>2013-11-20T12:45:43Z</time></trkpt><trkpt lat="40.150421" lon="-5.932729"><ele>986.7</ele><time>2013-11-20T12:45:52Z</time></trkpt><trkpt lat="40.150302" lon="-5.932811"><ele>986.2</ele><time>2013-11-20T12:46:00Z</time></trkpt><trkpt lat="40.150294" lon="-5.932819"><ele>986.2</ele><time>2013-11-20T12:46:10Z</time></trkpt><trkpt lat="40.150270" lon="-5.932872"><ele>986.4</ele><time>2013-11-20T12:46:19Z</time></trkpt><trkpt lat="40.150213" lon="-5.932915"><ele>986.3</ele><time>2013-11-20T12:46:27Z</time></trkpt><trkpt lat="40.150178" lon="-5.932886"><ele>985.8</ele><time>2013-11-20T12:46:37Z</time></trkpt><trkpt lat="40.150133" lon="-5.932871"><ele>985.3</ele><time>2013-11-20T12:46:46Z</time></trkpt><trkpt lat="40.150134" lon="-5.932877"><ele>985.3</ele><time>2013-11-20T12:46:54Z</time></trkpt><trkpt lat="40.150134" lon="-5.932868"><ele>985.2</ele><time>2013-11-20T12:47:04Z</time></trkpt><trkpt lat="40.150025" lon="-5.932854"><ele>984.2</ele><time>2013-11-20T12:47:13Z</time></trkpt><trkpt lat="40.149913" lon="-5.932835"><ele>983.1</ele><time>2013-11-20T12:47:21Z</time></trkpt><trkpt lat="40.149878" lon="-5.932816"><ele>982.6</ele><time>2013-11-20T12:47:31Z</time></trkpt><trkpt lat="40.149844" lon="-5.932811"><ele>982.3</ele><time>2013-11-20T12:47:40Z</time></trkpt><trkpt lat="40.149829" lon="-5.932793"><ele>982.0</ele><time>2013-11-20T12:47:48Z</time></trkpt><trkpt lat="40.149797" lon="-5.932786"><ele>981.7</ele><time>2013-11-20T12:47:58Z</time></trkpt><trkpt lat="40.149779" lon="-5.932781"><ele>981.5</ele><time>2013-11-20T12:48:07Z</time></trkpt><trkpt lat="40.149768" lon="-5.932785"><ele>981.4</ele><time>2013-11-20T12:48:15Z</time></trkpt><trkpt lat="40.149713" lon="-5.932811"><ele>981.2</ele><time>2013-11-20T12:48:25Z</time></trkpt><trkpt lat="40.149624" lon="-5.932834"><ele>980.6</ele><time>2013-11-20T12:48:34Z</time></trkpt><trkpt lat="40.149447" lon="-5.932938"><ele>980.0</ele><time>2013-11-20T12:48:42Z</time></trkpt><trkpt lat="40.149289" lon="-5.933019"><ele>979.4</ele><time>2013-11-20T12:48:52Z</time></trkpt><trkpt lat="40.149085" lon="-5.933203"><ele>978.3</ele><time>2013-11-20T12:49:01Z</time></trkpt><trkpt lat="40.149018" lon="-5.933269"><ele>977.6</ele><time>2013-11-20T12:49:09Z</time></trkpt><trkpt lat="40.148974" lon="-5.933293"><ele>976.9</ele><time>2013-11-20T12:49:19Z</time></trkpt><trkpt lat="40.148960" lon="-5.933307"><ele>976.8</ele><time>2013-11-20T12:49:28Z</time></trkpt><trkpt lat="40.148937" lon="-5.933330"><ele>976.6</ele><time>2013-11-20T12:49:36Z</time></trkpt><trkpt lat="40.148847" lon="-5.933336"><ele>974.9</ele><time>2013-11-20T12:49:46Z</time></trkpt><trkpt lat="40.148826" lon="-5.933343"><ele>974.5</ele><time>2013-11-20T12:49:55Z</time></trkpt><trkpt lat="40.148704" lon="-5.933479"><ele>973.2</ele><time>2013-11-20T12:50:03Z</time></trkpt><trkpt lat="40.148579" lon="-5.933672"><ele>972.2</ele><time>2013-11-20T12:50:13Z</time></trkpt><trkpt lat="40.148550" lon="-5.933713"><ele>971.9</ele><time>2013-11-20T12:50:22Z</time></trkpt><trkpt lat="40.148559" lon="-5.933709"><ele>972.0</ele><time>2013-11-20T12:50:30Z</time></trkpt><trkpt lat="40.148540" lon="-5.933720"><ele>971.8</ele><time>2013-11-20T12:50:40Z</time></trkpt><trkpt lat="40.148449" lon="-5.933881"><ele>971.2</ele><time>2013-11-20T12:50:49Z</time></trkpt><trkpt lat="40.148369" lon="-5.933958"><ele>970.2</ele><time>2013-11-20T12:50:57Z</time></trkpt><trkpt lat="40.148322" lon="-5.934003"><ele>969.5</ele><time>2013-11-20T12:51:07Z</time></trkpt><trkpt lat="40.148311" lon="-5.934017"><ele>969.4</ele><time>2013-11-20T12:51:16Z</time></trkpt><trkpt lat="40.148274" lon="-5.934096"><ele>969.1</ele><time>2013-11-20T12:51:24Z</time></trkpt><trkpt lat="40.148258" lon="-5.934134"><ele>969.0</ele><time>2013-11-20T12:51:34Z</time></trkpt><trkpt lat="40.148217" lon="-5.934208"><ele>968.6</ele><time>2013-11-20T12:51:43Z</time></trkpt><trkpt lat="40.148200" lon="-5.934262"><ele>968.4</ele><time>2013-11-20T12:51:51Z</time></trkpt><trkpt lat="40.148181" lon="-5.934293"><ele>968.2</ele><time>2013-11-20T12:52:01Z</time></trkpt><trkpt lat="40.148171" lon="-5.934319"><ele>968.1</ele><time>2013-11-20T12:52:10Z</time></trkpt><trkpt lat="40.148084" lon="-5.934448"><ele>966.8</ele><time>2013-11-20T12:52:18Z</time></trkpt><trkpt lat="40.148056" lon="-5.934467"><ele>966.2</ele><time>2013-11-20T12:52:28Z</time></trkpt><trkpt lat="40.148042" lon="-5.934497"><ele>966.1</ele><time>2013-11-20T12:52:37Z</time></trkpt><trkpt lat="40.147997" lon="-5.934506"><ele>965.1</ele><time>2013-11-20T12:52:45Z</time></trkpt><trkpt lat="40.147978" lon="-5.934533"><ele>964.8</ele><time>2013-11-20T12:52:55Z</time></trkpt><trkpt lat="40.147986" lon="-5.934520"><ele>965.0</ele><time>2013-11-20T12:53:04Z</time></trkpt><trkpt lat="40.147985" lon="-5.934519"><ele>964.9</ele><time>2013-11-20T12:53:12Z</time></trkpt><trkpt lat="40.147984" lon="-5.934517"><ele>964.9</ele><time>2013-11-20T12:53:22Z</time></trkpt><trkpt lat="40.147951" lon="-5.934567"><ele>964.4</ele><time>2013-11-20T12:53:31Z</time></trkpt><trkpt lat="40.147872" lon="-5.934644"><ele>963.1</ele><time>2013-11-20T12:53:39Z</time></trkpt><trkpt lat="40.147864" lon="-5.934656"><ele>963.0</ele><time>2013-11-20T12:53:49Z</time></trkpt><trkpt lat="40.147840" lon="-5.934708"><ele>962.7</ele><time>2013-11-20T12:53:58Z</time></trkpt><trkpt lat="40.147780" lon="-5.934745"><ele>961.6</ele><time>2013-11-20T12:54:06Z</time></trkpt><trkpt lat="40.147758" lon="-5.934763"><ele>961.2</ele><time>2013-11-20T12:54:16Z</time></trkpt><trkpt lat="40.147694" lon="-5.934795"><ele>960.0</ele><time>2013-11-20T12:54:25Z</time></trkpt><trkpt lat="40.147616" lon="-5.934864"><ele>958.7</ele><time>2013-11-20T12:54:33Z</time></trkpt><trkpt lat="40.147591" lon="-5.934885"><ele>958.3</ele><time>2013-11-20T12:54:43Z</time></trkpt><trkpt lat="40.147561" lon="-5.934958"><ele>958.1</ele><time>2013-11-20T12:54:52Z</time></trkpt><trkpt lat="40.147559" lon="-5.934994"><ele>958.2</ele><time>2013-11-20T12:55:00Z</time></trkpt><trkpt lat="40.147548" lon="-5.935015"><ele>958.2</ele><time>2013-11-20T12:55:10Z</time></trkpt><trkpt lat="40.147500" lon="-5.935072"><ele>957.9</ele><time>2013-11-20T12:55:19Z</time></trkpt><trkpt lat="40.147466" lon="-5.935115"><ele>958.1</ele><time>2013-11-20T12:55:27Z</time></trkpt><trkpt lat="40.147435" lon="-5.935178"><ele>958.5</ele><time>2013-11-20T12:55:37Z</time></trkpt><trkpt lat="40.147379" lon="-5.935370"><ele>960.4</ele><time>2013-11-20T12:55:46Z</time></trkpt><trkpt lat="40.147362" lon="-5.935483"><ele>961.7</ele><time>2013-11-20T12:55:54Z</time></trkpt><trkpt lat="40.147331" lon="-5.935646"><ele>963.4</ele><time>2013-11-20T12:56:04Z</time></trkpt><trkpt lat="40.147308" lon="-5.935669"><ele>963.6</ele><time>2013-11-20T12:56:13Z</time></trkpt><trkpt lat="40.147300" lon="-5.935695"><ele>963.8</ele><time>2013-11-20T12:56:21Z</time></trkpt><trkpt lat="40.147266" lon="-5.935702"><ele>963.7</ele><time>2013-11-20T12:56:31Z</time></trkpt><trkpt lat="40.147230" lon="-5.935715"><ele>963.5</ele><time>2013-11-20T12:56:40Z</time></trkpt><trkpt lat="40.147208" lon="-5.935714"><ele>963.4</ele><time>2013-11-20T12:56:48Z</time></trkpt><trkpt lat="40.147198" lon="-5.935720"><ele>963.4</ele><time>2013-11-20T12:56:58Z</time></trkpt><trkpt lat="40.147169" lon="-5.935724"><ele>963.2</ele><time>2013-11-20T12:57:07Z</time></trkpt><trkpt lat="40.147115" lon="-5.935728"><ele>962.8</ele><time>2013-11-20T12:57:15Z</time></trkpt><trkpt lat="40.147029" lon="-5.935748"><ele>962.5</ele><time>2013-11-20T12:57:25Z</time></trkpt><trkpt lat="40.146970" lon="-5.935780"><ele>962.5</ele><time>2013-11-20T12:57:34Z</time></trkpt><trkpt lat="40.146895" lon="-5.935801"><ele>962.2</ele><time>2013-11-20T12:57:42Z</time></trkpt><trkpt lat="40.146816" lon="-5.935785"><ele>961.4</ele><time>2013-11-20T12:57:52Z</time></trkpt><trkpt lat="40.146765" lon="-5.935757"><ele>960.6</ele><time>2013-11-20T12:58:01Z</time></trkpt><trkpt lat="40.146706" lon="-5.935707"><ele>959.5</ele><time>2013-11-20T12:58:09Z</time></trkpt><trkpt lat="40.146655" lon="-5.935679"><ele>958.7</ele><time>2013-11-20T12:58:19Z</time></trkpt><trkpt lat="40.146611" lon="-5.935630"><ele>957.9</ele><time>2013-11-20T12:58:28Z</time></trkpt><trkpt lat="40.146582" lon="-5.935599"><ele>957.4</ele><time>2013-11-20T12:58:36Z</time></trkpt><trkpt lat="40.146541" lon="-5.935545"><ele>956.5</ele><time>2013-11-20T12:58:46Z</time></trkpt><trkpt lat="40.146489" lon="-5.935439"><ele>954.9</ele><time>2013-11-20T12:58:55Z</time></trkpt><trkpt lat="40.146440" lon="-5.935356"><ele>953.6</ele><time>2013-11-20T12:59:03Z</time></trkpt><trkpt lat="40.146424" lon="-5.935331"><ele>953.2</ele><time>2013-11-20T12:59:13Z</time></trkpt><trkpt lat="40.146383" lon="-5.935338"><ele>953.3</ele><time>2013-11-20T12:59:22Z</time></trkpt><trkpt lat="40.146378" lon="-5.935338"><ele>953.2</ele><time>2013-11-20T12:59:30Z</time></trkpt><trkpt lat="40.146300" lon="-5.935389"><ele>953.8</ele><time>2013-11-20T12:59:40Z</time></trkpt><trkpt lat="40.146255" lon="-5.935422"><ele>954.1</ele><time>2013-11-20T12:59:49Z</time></trkpt><trkpt lat="40.146167" lon="-5.935496"><ele>954.8</ele><time>2013-11-20T12:59:57Z</time></trkpt><trkpt lat="40.146161" lon="-5.935499"><ele>954.9</ele><time>2013-11-20T13:00:07Z</time></trkpt><trkpt lat="40.146134" lon="-5.935519"><ele>955.0</ele><time>2013-11-20T13:00:16Z</time></trkpt><trkpt lat="40.145941" lon="-5.935654"><ele>956.2</ele><time>2013-11-20T13:00:24Z</time></trkpt><trkpt lat="40.145888" lon="-5.935633"><ele>955.8</ele><time>2013-11-20T13:00:34Z</time></trkpt><trkpt lat="40.145865" lon="-5.935612"><ele>955.4</ele><time>2013-11-20T13:00:43Z</time></trkpt><trkpt lat="40.145801" lon="-5.935563"><ele>954.8</ele><time>2013-11-20T13:00:51Z</time></trkpt><trkpt lat="40.145776" lon="-5.935535"><ele>954.4</ele><time>2013-11-20T13:01:01Z</time></trkpt><trkpt lat="40.145766" lon="-5.935447"><ele>953.3</ele><time>2013-11-20T13:01:10Z</time></trkpt><trkpt lat="40.145753" lon="-5.935380"><ele>952.5</ele><time>2013-11-20T13:01:18Z</time></trkpt><trkpt lat="40.145737" lon="-5.935352"><ele>952.1</ele><time>2013-11-20T13:01:28Z</time></trkpt><trkpt lat="40.145669" lon="-5.935251"><ele>950.7</ele><time>2013-11-20T13:01:37Z</time></trkpt><trkpt lat="40.145612" lon="-5.935212"><ele>950.1</ele><time>2013-11-20T13:01:45Z</time></trkpt><trkpt lat="40.145513" lon="-5.935162"><ele>949.2</ele><time>2013-11-20T13:01:55Z</time></trkpt><trkpt lat="40.145453" lon="-5.935133"><ele>948.6</ele><time>2013-11-20T13:02:04Z</time></trkpt><trkpt lat="40.145425" lon="-5.935139"><ele>948.6</ele><time>2013-11-20T13:02:12Z</time></trkpt><trkpt lat="40.145407" lon="-5.935132"><ele>948.5</ele><time>2013-11-20T13:02:22Z</time></trkpt><trkpt lat="40.145387" lon="-5.935149"><ele>948.7</ele><time>2013-11-20T13:02:31Z</time></trkpt><trkpt lat="40.145355" lon="-5.935153"><ele>948.6</ele><time>2013-11-20T13:02:39Z</time></trkpt><trkpt lat="40.145319" lon="-5.935155"><ele>948.6</ele><time>2013-11-20T13:02:49Z</time></trkpt><trkpt lat="40.145241" lon="-5.935213"><ele>949.3</ele><time>2013-11-20T13:02:58Z</time></trkpt><trkpt lat="40.145211" lon="-5.935235"><ele>949.6</ele><time>2013-11-20T13:03:06Z</time></trkpt><trkpt lat="40.145179" lon="-5.935257"><ele>949.9</ele><time>2013-11-20T13:03:16Z</time></trkpt><trkpt lat="40.145152" lon="-5.935268"><ele>950.1</ele><time>2013-11-20T13:03:25Z</time></trkpt><trkpt lat="40.145134" lon="-5.935270"><ele>950.1</ele><time>2013-11-20T13:03:33Z</time></trkpt><trkpt lat="40.145111" lon="-5.935269"><ele>950.0</ele><time>2013-11-20T13:03:43Z</time></trkpt><trkpt lat="40.145061" lon="-5.935280"><ele>950.1</ele><time>2013-11-20T13:03:52Z</time></trkpt><trkpt lat="40.145020" lon="-5.935273"><ele>949.9</ele><time>2013-11-20T13:04:00Z</time></trkpt><trkpt lat="40.145006" lon="-5.935275"><ele>950.0</ele><time>2013-11-20T13:04:10Z</time></trkpt><trkpt lat="40.145002" lon="-5.935282"><ele>950.1</ele><time>2013-11-20T13:04:19Z</time></trkpt><trkpt lat="40.144995" lon="-5.935292"><ele>950.2</ele><time>2013-11-20T13:04:27Z</time></trkpt><trkpt lat="40.144840" lon="-5.935381"><ele>951.5</ele><time>2013-11-20T13:04:37Z</time></trkpt><trkpt lat="40.144825" lon="-5.935370"><ele>951.3</ele><time>2013-11-20T13:04:46Z</time></trkpt><trkpt lat="40.144814" lon="-5.935381"><ele>951.5</ele><time>2013-11-20T13:04:54Z</time></trkpt><trkpt lat="40.144799" lon="-5.935390"><ele>951.6</ele><time>2013-11-20T13:05:04Z</time></trkpt><trkpt lat="40.144632" lon="-5.935420"><ele>951.7</ele><time>2013-11-20T13:05:13Z</time></trkpt><trkpt lat="40.144531" lon="-5.935481"><ele>952.3</ele><time>2013-11-20T13:05:21Z</time></trkpt><trkpt lat="40.144442" lon="-5.935506"><ele>952.3</ele><time>2013-11-20T13:05:31Z</time></trkpt><trkpt lat="40.144393" lon="-5.935493"><ele>952.0</ele><time>2013-11-20T13:05:40Z</time></trkpt><trkpt lat="40.144309" lon="-5.935495"><ele>951.8</ele><time>2013-11-20T13:05:48Z</time></trkpt><trkpt lat="40.144269" lon="-5.935512"><ele>951.9</ele><time>2013-11-20T13:05:58Z</time></trkpt><trkpt lat="40.144269" lon="-5.935516"><ele>951.9</ele><time>2013-11-20T13:06:07Z</time></trkpt><trkpt lat="40.144250" lon="-5.935587"><ele>952.7</ele><time>2013-11-20T13:06:15Z</time></trkpt><trkpt lat="40.144243" lon="-5.935593"><ele>952.7</ele><time>2013-11-20T13:06:25Z</time></trkpt><trkpt lat="40.144191" lon="-5.935585"><ele>952.4</ele><time>2013-11-20T13:06:34Z</time></trkpt><trkpt lat="40.144133" lon="-5.935566"><ele>951.8</ele><time>2013-11-20T13:06:42Z</time></trkpt><trkpt lat="40.144095" lon="-5.935574"><ele>951.5</ele><time>2013-11-20T13:06:52Z</time></trkpt><trkpt lat="40.144061" lon="-5.935573"><ele>951.2</ele><time>2013-11-20T13:07:01Z</time></trkpt><trkpt lat="40.144038" lon="-5.935566"><ele>950.9</ele><time>2013-11-20T13:07:09Z</time></trkpt><trkpt lat="40.144013" lon="-5.935556"><ele>950.6</ele><time>2013-11-20T13:07:19Z</time></trkpt><trkpt lat="40.143978" lon="-5.935551"><ele>950.2</ele><time>2013-11-20T13:07:28Z</time></trkpt><trkpt lat="40.143974" lon="-5.935543"><ele>950.1</ele><time>2013-11-20T13:07:36Z</time></trkpt><trkpt lat="40.143872" lon="-5.935453"><ele>948.2</ele><time>2013-11-20T13:07:46Z</time></trkpt><trkpt lat="40.143842" lon="-5.935452"><ele>947.9</ele><time>2013-11-20T13:07:55Z</time></trkpt><trkpt lat="40.143783" lon="-5.935382"><ele>946.7</ele><time>2013-11-20T13:08:03Z</time></trkpt><trkpt lat="40.143762" lon="-5.935384"><ele>946.5</ele><time>2013-11-20T13:08:13Z</time></trkpt><trkpt lat="40.143735" lon="-5.935380"><ele>946.2</ele><time>2013-11-20T13:08:22Z</time></trkpt><trkpt lat="40.143701" lon="-5.935364"><ele>945.8</ele><time>2013-11-20T13:08:30Z</time></trkpt><trkpt lat="40.143670" lon="-5.935345"><ele>945.3</ele><time>2013-11-20T13:08:40Z</time></trkpt><trkpt lat="40.143621" lon="-5.935313"><ele>944.6</ele><time>2013-11-20T13:08:49Z</time></trkpt><trkpt lat="40.143576" lon="-5.935329"><ele>944.3</ele><time>2013-11-20T13:08:57Z</time></trkpt><trkpt lat="40.143522" lon="-5.935321"><ele>943.8</ele><time>2013-11-20T13:09:07Z</time></trkpt><trkpt lat="40.143479" lon="-5.935334"><ele>943.5</ele><time>2013-11-20T13:09:16Z</time></trkpt><trkpt lat="40.143456" lon="-5.935353"><ele>943.5</ele><time>2013-11-20T13:09:24Z</time></trkpt><trkpt lat="40.143431" lon="-5.935381"><ele>943.5</ele><time>2013-11-20T13:09:34Z</time></trkpt><trkpt lat="40.143405" lon="-5.935416"><ele>943.6</ele><time>2013-11-20T13:09:43Z</time></trkpt><trkpt lat="40.143338" lon="-5.935580"><ele>944.6</ele><time>2013-11-20T13:09:51Z</time></trkpt><trkpt lat="40.143286" lon="-5.935654"><ele>943.7</ele><time>2013-11-20T13:10:01Z</time></trkpt><trkpt lat="40.143260" lon="-5.935709"><ele>943.3</ele><time>2013-11-20T13:10:10Z</time></trkpt><trkpt lat="40.143232" lon="-5.935769"><ele>942.9</ele><time>2013-11-20T13:10:18Z</time></trkpt><trkpt lat="40.143192" lon="-5.935817"><ele>941.9</ele><time>2013-11-20T13:10:28Z</time></trkpt><trkpt lat="40.143161" lon="-5.935810"><ele>940.8</ele><time>2013-11-20T13:10:37Z</time></trkpt><trkpt lat="40.143133" lon="-5.935844"><ele>940.0</ele><time>2013-11-20T13:10:45Z</time></trkpt><trkpt lat="40.143120" lon="-5.935908"><ele>939.3</ele><time>2013-11-20T13:10:55Z</time></trkpt><trkpt lat="40.143119" lon="-5.935964"><ele>939.1</ele><time>2013-11-20T13:11:04Z</time></trkpt><trkpt lat="40.143101" lon="-5.936033"><ele>938.2</ele><time>2013-11-20T13:11:12Z</time></trkpt><trkpt lat="40.143096" lon="-5.936136"><ele>937.7</ele><time>2013-11-20T13:11:22Z</time></trkpt><trkpt lat="40.143098" lon="-5.936259"><ele>937.4</ele><time>2013-11-20T13:11:31Z</time></trkpt><trkpt lat="40.143088" lon="-5.936388"><ele>936.5</ele><time>2013-11-20T13:11:39Z</time></trkpt><trkpt lat="40.142977" lon="-5.936380"><ele>932.4</ele><time>2013-11-20T13:11:49Z</time></trkpt><trkpt lat="40.142867" lon="-5.936378"><ele>928.4</ele><time>2013-11-20T13:11:58Z</time></trkpt><trkpt lat="40.142853" lon="-5.936453"><ele>927.5</ele><time>2013-11-20T13:12:06Z</time></trkpt><trkpt lat="40.142884" lon="-5.936521"><ele>928.4</ele><time>2013-11-20T13:12:16Z</time></trkpt><trkpt lat="40.142954" lon="-5.936580"><ele>930.8</ele><time>2013-11-20T13:12:25Z</time></trkpt><trkpt lat="40.143073" lon="-5.936667"><ele>935.0</ele><time>2013-11-20T13:12:33Z</time></trkpt><trkpt lat="40.143086" lon="-5.936691"><ele>935.5</ele><time>2013-11-20T13:12:43Z</time></trkpt><trkpt lat="40.143086" lon="-5.936717"><ele>935.6</ele><time>2013-11-20T13:12:52Z</time></trkpt><trkpt lat="40.143055" lon="-5.936808"><ele>934.5</ele><time>2013-11-20T13:13:00Z</time></trkpt><trkpt lat="40.143037" lon="-5.936806"><ele>933.8</ele><time>2013-11-20T13:13:10Z</time></trkpt><trkpt lat="40.143080" lon="-5.937025"><ele>935.7</ele><time>2013-11-20T13:13:19Z</time></trkpt><trkpt lat="40.143065" lon="-5.937162"><ele>935.3</ele><time>2013-11-20T13:13:27Z</time></trkpt><trkpt lat="40.142950" lon="-5.937392"><ele>930.8</ele><time>2013-11-20T13:13:37Z</time></trkpt><trkpt lat="40.142906" lon="-5.937526"><ele>929.4</ele><time>2013-11-20T13:13:46Z</time></trkpt><trkpt lat="40.142892" lon="-5.937587"><ele>929.5</ele><time>2013-11-20T13:13:54Z</time></trkpt><trkpt lat="40.142885" lon="-5.937633"><ele>929.8</ele><time>2013-11-20T13:14:04Z</time></trkpt><trkpt lat="40.142878" lon="-5.937654"><ele>929.7</ele><time>2013-11-20T13:14:13Z</time></trkpt><trkpt lat="40.142878" lon="-5.937656"><ele>929.8</ele><time>2013-11-20T13:14:21Z</time></trkpt><trkpt lat="40.142877" lon="-5.937732"><ele>930.6</ele><time>2013-11-20T13:14:31Z</time></trkpt><trkpt lat="40.142879" lon="-5.937789"><ele>931.4</ele><time>2013-11-20T13:14:40Z</time></trkpt><trkpt lat="40.142855" lon="-5.937815"><ele>930.7</ele><time>2013-11-20T13:14:48Z</time></trkpt><trkpt lat="40.142855" lon="-5.937845"><ele>931.1</ele><time>2013-11-20T13:14:58Z</time></trkpt><trkpt lat="40.142843" lon="-5.937871"><ele>930.9</ele><time>2013-11-20T13:15:07Z</time></trkpt><trkpt lat="40.142849" lon="-5.937886"><ele>931.4</ele><time>2013-11-20T13:15:15Z</time></trkpt><trkpt lat="40.142846" lon="-5.937918"><ele>931.6</ele><time>2013-11-20T13:15:25Z</time></trkpt><trkpt lat="40.142845" lon="-5.937959"><ele>932.1</ele><time>2013-11-20T13:15:34Z</time></trkpt><trkpt lat="40.142833" lon="-5.937985"><ele>931.9</ele><time>2013-11-20T13:15:42Z</time></trkpt><trkpt lat="40.142819" lon="-5.938013"><ele>931.7</ele><time>2013-11-20T13:15:52Z</time></trkpt><trkpt lat="40.142795" lon="-5.938059"><ele>931.3</ele><time>2013-11-20T13:16:01Z</time></trkpt><trkpt lat="40.142779" lon="-5.938088"><ele>931.0</ele><time>2013-11-20T13:16:09Z</time></trkpt><trkpt lat="40.142724" lon="-5.938111"><ele>929.1</ele><time>2013-11-20T13:16:19Z</time></trkpt><trkpt lat="40.142688" lon="-5.938142"><ele>928.0</ele><time>2013-11-20T13:16:28Z</time></trkpt><trkpt lat="40.142675" lon="-5.938150"><ele>927.6</ele><time>2013-11-20T13:16:36Z</time></trkpt><trkpt lat="40.142663" lon="-5.938160"><ele>927.2</ele><time>2013-11-20T13:16:46Z</time></trkpt><trkpt lat="40.142648" lon="-5.938169"><ele>926.8</ele><time>2013-11-20T13:16:55Z</time></trkpt><trkpt lat="40.142631" lon="-5.938172"><ele>926.1</ele><time>2013-11-20T13:17:03Z</time></trkpt><trkpt lat="40.142617" lon="-5.938179"><ele>925.6</ele><time>2013-11-20T13:17:13Z</time></trkpt><trkpt lat="40.142603" lon="-5.938187"><ele>925.2</ele><time>2013-11-20T13:17:22Z</time></trkpt><trkpt lat="40.142592" lon="-5.938196"><ele>924.9</ele><time>2013-11-20T13:17:30Z</time></trkpt><trkpt lat="40.142584" lon="-5.938208"><ele>924.7</ele><time>2013-11-20T13:17:40Z</time></trkpt><trkpt lat="40.142565" lon="-5.938245"><ele>924.4</ele><time>2013-11-20T13:17:49Z</time></trkpt><trkpt lat="40.142556" lon="-5.938258"><ele>924.2</ele><time>2013-11-20T13:17:57Z</time></trkpt><trkpt lat="40.142549" lon="-5.938270"><ele>924.1</ele><time>2013-11-20T13:18:07Z</time></trkpt><trkpt lat="40.142542" lon="-5.938281"><ele>924.0</ele><time>2013-11-20T13:18:16Z</time></trkpt><trkpt lat="40.142512" lon="-5.938298"><ele>923.0</ele><time>2013-11-20T13:18:24Z</time></trkpt><trkpt lat="40.142487" lon="-5.938317"><ele>922.4</ele><time>2013-11-20T13:18:34Z</time></trkpt><trkpt lat="40.142481" lon="-5.938319"><ele>922.2</ele><time>2013-11-20T13:18:43Z</time></trkpt><trkpt lat="40.142475" lon="-5.938332"><ele>922.2</ele><time>2013-11-20T13:18:51Z</time></trkpt><trkpt lat="40.142463" lon="-5.938369"><ele>922.6</ele><time>2013-11-20T13:19:01Z</time></trkpt><trkpt lat="40.142407" lon="-5.938482"><ele>923.0</ele><time>2013-11-20T13:19:10Z</time></trkpt><trkpt lat="40.142392" lon="-5.938501"><ele>922.9</ele><time>2013-11-20T13:19:18Z</time></trkpt><trkpt lat="40.142381" lon="-5.938516"><ele>922.9</ele><time>2013-11-20T13:19:28Z</time></trkpt><trkpt lat="40.142372" lon="-5.938524"><ele>922.8</ele><time>2013-11-20T13:19:37Z</time></trkpt><trkpt lat="40.142362" lon="-5.938529"><ele>922.5</ele><time>2013-11-20T13:19:45Z</time></trkpt><trkpt lat="40.142347" lon="-5.938534"><ele>922.2</ele><time>2013-11-20T13:19:55Z</time></trkpt><trkpt lat="40.142348" lon="-5.938569"><ele>922.9</ele><time>2013-11-20T13:20:04Z</time></trkpt><trkpt lat="40.142337" lon="-5.938578"><ele>922.7</ele><time>2013-11-20T13:20:12Z</time></trkpt><trkpt lat="40.142240" lon="-5.938743"><ele>922.8</ele><time>2013-11-20T13:20:22Z</time></trkpt><trkpt lat="40.142086" lon="-5.938898"><ele>920.7</ele><time>2013-11-20T13:20:31Z</time></trkpt><trkpt lat="40.141914" lon="-5.939018"><ele>917.4</ele><time>2013-11-20T13:20:39Z</time></trkpt><trkpt lat="40.141903" lon="-5.939029"><ele>917.3</ele><time>2013-11-20T13:20:49Z</time></trkpt><trkpt lat="40.141892" lon="-5.939040"><ele>917.1</ele><time>2013-11-20T13:20:58Z</time></trkpt><trkpt lat="40.141763" lon="-5.939134"><ele>914.6</ele><time>2013-11-20T13:21:06Z</time></trkpt><trkpt lat="40.141751" lon="-5.939140"><ele>914.3</ele><time>2013-11-20T13:21:16Z</time></trkpt><trkpt lat="40.141581" lon="-5.939232"><ele>909.8</ele><time>2013-11-20T13:21:25Z</time></trkpt><trkpt lat="40.141568" lon="-5.939233"><ele>909.2</ele><time>2013-11-20T13:21:33Z</time></trkpt><trkpt lat="40.141554" lon="-5.939233"><ele>908.7</ele><time>2013-11-20T13:21:43Z</time></trkpt><trkpt lat="40.141472" lon="-5.939313"><ele>906.6</ele><time>2013-11-20T13:21:52Z</time></trkpt><trkpt lat="40.141364" lon="-5.939484"><ele>904.3</ele><time>2013-11-20T13:22:00Z</time></trkpt><trkpt lat="40.141359" lon="-5.939497"><ele>904.3</ele><time>2013-11-20T13:22:10Z</time></trkpt><trkpt lat="40.141350" lon="-5.939507"><ele>904.0</ele><time>2013-11-20T13:22:19Z</time></trkpt><trkpt lat="40.141340" lon="-5.939518"><ele>903.7</ele><time>2013-11-20T13:22:27Z</time></trkpt><trkpt lat="40.141332" lon="-5.939531"><ele>903.5</ele><time>2013-11-20T13:22:37Z</time></trkpt><trkpt lat="40.141319" lon="-5.939543"><ele>903.0</ele><time>2013-11-20T13:22:46Z</time></trkpt><trkpt lat="40.141308" lon="-5.939550"><ele>902.6</ele><time>2013-11-20T13:22:54Z</time></trkpt><trkpt lat="40.141294" lon="-5.939576"><ele>902.2</ele><time>2013-11-20T13:23:04Z</time></trkpt><trkpt lat="40.141274" lon="-5.939594"><ele>901.5</ele><time>2013-11-20T13:23:13Z</time></trkpt><trkpt lat="40.141268" lon="-5.939605"><ele>901.4</ele><time>2013-11-20T13:23:21Z</time></trkpt><trkpt lat="40.141258" lon="-5.939666"><ele>901.6</ele><time>2013-11-20T13:23:31Z</time></trkpt><trkpt lat="40.141254" lon="-5.939687"><ele>901.6</ele><time>2013-11-20T13:23:40Z</time></trkpt><trkpt lat="40.141239" lon="-5.939733"><ele>901.4</ele><time>2013-11-20T13:23:48Z</time></trkpt><trkpt lat="40.141155" lon="-5.939960"><ele>899.4</ele><time>2013-11-20T13:23:58Z</time></trkpt><trkpt lat="40.141146" lon="-5.939992"><ele>899.2</ele><time>2013-11-20T13:24:07Z</time></trkpt><trkpt lat="40.141112" lon="-5.940045"><ele>897.1</ele><time>2013-11-20T13:24:15Z</time></trkpt><trkpt lat="40.141086" lon="-5.940038"><ele>895.7</ele><time>2013-11-20T13:24:25Z</time></trkpt><trkpt lat="40.141068" lon="-5.940057"><ele>894.6</ele><time>2013-11-20T13:24:34Z</time></trkpt><trkpt lat="40.140998" lon="-5.940161"><ele>890.1</ele><time>2013-11-20T13:24:42Z</time></trkpt><trkpt lat="40.140972" lon="-5.940412"><ele>887.1</ele><time>2013-11-20T13:24:52Z</time></trkpt><trkpt lat="40.140978" lon="-5.940450"><ele>887.2</ele><time>2013-11-20T13:25:01Z</time></trkpt><trkpt lat="40.140970" lon="-5.940467"><ele>886.6</ele><time>2013-11-20T13:25:09Z</time></trkpt><trkpt lat="40.140960" lon="-5.940508"><ele>885.8</ele><time>2013-11-20T13:25:19Z</time></trkpt><trkpt lat="40.140939" lon="-5.940585"><ele>884.1</ele><time>2013-11-20T13:25:28Z</time></trkpt><trkpt lat="40.140936" lon="-5.940600"><ele>883.8</ele><time>2013-11-20T13:25:36Z</time></trkpt><trkpt lat="40.140933" lon="-5.940616"><ele>883.5</ele><time>2013-11-20T13:25:46Z</time></trkpt><trkpt lat="40.140933" lon="-5.940631"><ele>883.4</ele><time>2013-11-20T13:25:55Z</time></trkpt><trkpt lat="40.140930" lon="-5.940649"><ele>883.1</ele><time>2013-11-20T13:26:03Z</time></trkpt><trkpt lat="40.140928" lon="-5.940667"><ele>882.9</ele><time>2013-11-20T13:26:13Z</time></trkpt><trkpt lat="40.140960" lon="-5.940795"><ele>884.0</ele><time>2013-11-20T13:26:22Z</time></trkpt><trkpt lat="40.140963" lon="-5.940810"><ele>884.1</ele><time>2013-11-20T13:26:30Z</time></trkpt><trkpt lat="40.140951" lon="-5.940823"><ele>883.3</ele><time>2013-11-20T13:26:40Z</time></trkpt><trkpt lat="40.140932" lon="-5.940825"><ele>882.1</ele><time>2013-11-20T13:26:49Z</time></trkpt><trkpt lat="40.140933" lon="-5.940992"><ele>882.2</ele><time>2013-11-20T13:26:57Z</time></trkpt><trkpt lat="40.140945" lon="-5.941234"><ele>883.1</ele><time>2013-11-20T13:27:07Z</time></trkpt><trkpt lat="40.140917" lon="-5.941457"><ele>881.6</ele><time>2013-11-20T13:27:16Z</time></trkpt><trkpt lat="40.140854" lon="-5.941732"><ele>878.7</ele><time>2013-11-20T13:27:24Z</time></trkpt><trkpt lat="40.140788" lon="-5.941891"><ele>876.7</ele><time>2013-11-20T13:27:34Z</time></trkpt><trkpt lat="40.140702" lon="-5.942109"><ele>874.6</ele><time>2013-11-20T13:27:43Z</time></trkpt><trkpt lat="40.140603" lon="-5.942225"><ele>871.2</ele><time>2013-11-20T13:27:51Z</time></trkpt><trkpt lat="40.140592" lon="-5.942234"><ele>870.8</ele><time>2013-11-20T13:28:01Z</time></trkpt><trkpt lat="40.140561" lon="-5.942276"><ele>869.7</ele><time>2013-11-20T13:28:10Z</time></trkpt><trkpt lat="40.140449" lon="-5.942312"><ele>865.1</ele><time>2013-11-20T13:28:18Z</time></trkpt><trkpt lat="40.140436" lon="-5.942318"><ele>864.6</ele><time>2013-11-20T13:28:28Z</time></trkpt><trkpt lat="40.140424" lon="-5.942323"><ele>864.1</ele><time>2013-11-20T13:28:37Z</time></trkpt><trkpt lat="40.140346" lon="-5.942411"><ele>861.4</ele><time>2013-11-20T13:28:45Z</time></trkpt><trkpt lat="40.140322" lon="-5.942460"><ele>860.7</ele><time>2013-11-20T13:28:55Z</time></trkpt><trkpt lat="40.140321" lon="-5.942469"><ele>860.7</ele><time>2013-11-20T13:29:04Z</time></trkpt><trkpt lat="40.140317" lon="-5.942483"><ele>860.6</ele><time>2013-11-20T13:29:12Z</time></trkpt><trkpt lat="40.140312" lon="-5.942496"><ele>860.5</ele><time>2013-11-20T13:29:22Z</time></trkpt><trkpt lat="40.140305" lon="-5.942510"><ele>860.3</ele><time>2013-11-20T13:29:31Z</time></trkpt><trkpt lat="40.140243" lon="-5.942737"><ele>859.9</ele><time>2013-11-20T13:29:39Z</time></trkpt><trkpt lat="40.140171" lon="-5.942871"><ele>858.0</ele><time>2013-11-20T13:29:49Z</time></trkpt><trkpt lat="40.140021" lon="-5.942980"><ele>852.0</ele><time>2013-11-20T13:29:58Z</time></trkpt><trkpt lat="40.139844" lon="-5.943024"><ele>847.0</ele><time>2013-11-20T13:30:06Z</time></trkpt><trkpt lat="40.139701" lon="-5.943118"><ele>843.5</ele><time>2013-11-20T13:30:16Z</time></trkpt><trkpt lat="40.139551" lon="-5.943225"><ele>839.6</ele><time>2013-11-20T13:30:25Z</time></trkpt><trkpt lat="40.139402" lon="-5.943268"><ele>835.2</ele><time>2013-11-20T13:30:33Z</time></trkpt><trkpt lat="40.139246" lon="-5.943291"><ele>830.4</ele><time>2013-11-20T13:30:43Z</time></trkpt><trkpt lat="40.139206" lon="-5.943271"><ele>829.2</ele><time>2013-11-20T13:30:52Z</time></trkpt><trkpt lat="40.139182" lon="-5.943257"><ele>828.5</ele><time>2013-11-20T13:31:00Z</time></trkpt><trkpt lat="40.139130" lon="-5.943232"><ele>826.9</ele><time>2013-11-20T13:31:10Z</time></trkpt><trkpt lat="40.139099" lon="-5.943255"><ele>825.9</ele><time>2013-11-20T13:31:19Z</time></trkpt><trkpt lat="40.139079" lon="-5.943271"><ele>825.3</ele><time>2013-11-20T13:31:27Z</time></trkpt><trkpt lat="40.139081" lon="-5.943286"><ele>825.3</ele><time>2013-11-20T13:31:37Z</time></trkpt><trkpt lat="40.139050" lon="-5.943420"><ele>824.6</ele><time>2013-11-20T13:31:46Z</time></trkpt><trkpt lat="40.138999" lon="-5.943681"><ele>823.6</ele><time>2013-11-20T13:31:54Z</time></trkpt><trkpt lat="40.138929" lon="-5.943917"><ele>822.0</ele><time>2013-11-20T13:32:04Z</time></trkpt><trkpt lat="40.138843" lon="-5.944158"><ele>819.9</ele><time>2013-11-20T13:32:13Z</time></trkpt><trkpt lat="40.138779" lon="-5.944397"><ele>820.0</ele><time>2013-11-20T13:32:21Z</time></trkpt><trkpt lat="40.138684" lon="-5.944664"><ele>819.2</ele><time>2013-11-20T13:32:31Z</time></trkpt><trkpt lat="40.138678" lon="-5.944680"><ele>819.1</ele><time>2013-11-20T13:32:40Z</time></trkpt><trkpt lat="40.138671" lon="-5.944695"><ele>819.0</ele><time>2013-11-20T13:32:48Z</time></trkpt><trkpt lat="40.138671" lon="-5.944724"><ele>819.2</ele><time>2013-11-20T13:32:58Z</time></trkpt><trkpt lat="40.138660" lon="-5.944747"><ele>819.0</ele><time>2013-11-20T13:33:07Z</time></trkpt><trkpt lat="40.138634" lon="-5.944775"><ele>818.3</ele><time>2013-11-20T13:33:15Z</time></trkpt><trkpt lat="40.138597" lon="-5.944798"><ele>817.2</ele><time>2013-11-20T13:33:25Z</time></trkpt><trkpt lat="40.138550" lon="-5.944812"><ele>815.6</ele><time>2013-11-20T13:33:34Z</time></trkpt><trkpt lat="40.138542" lon="-5.944803"><ele>815.3</ele><time>2013-11-20T13:33:42Z</time></trkpt><trkpt lat="40.138425" lon="-5.944803"><ele>811.1</ele><time>2013-11-20T13:33:52Z</time></trkpt><trkpt lat="40.138337" lon="-5.944744"><ele>807.6</ele><time>2013-11-20T13:34:01Z</time></trkpt><trkpt lat="40.138325" lon="-5.944745"><ele>807.3</ele><time>2013-11-20T13:34:09Z</time></trkpt><trkpt lat="40.138229" lon="-5.944753"><ele>805.6</ele><time>2013-11-20T13:34:19Z</time></trkpt><trkpt lat="40.138199" lon="-5.944753"><ele>805.0</ele><time>2013-11-20T13:34:28Z</time></trkpt><trkpt lat="40.138179" lon="-5.944749"><ele>804.6</ele><time>2013-11-20T13:34:36Z</time></trkpt><trkpt lat="40.138146" lon="-5.944742"><ele>803.9</ele><time>2013-11-20T13:34:46Z</time></trkpt><trkpt lat="40.138103" lon="-5.944747"><ele>803.2</ele><time>2013-11-20T13:34:55Z</time></trkpt><trkpt lat="40.138002" lon="-5.944706"><ele>801.0</ele><time>2013-11-20T13:35:03Z</time></trkpt><trkpt lat="40.137897" lon="-5.944678"><ele>798.8</ele><time>2013-11-20T13:35:13Z</time></trkpt><trkpt lat="40.137790" lon="-5.944656"><ele>796.6</ele><time>2013-11-20T13:35:22Z</time></trkpt><trkpt lat="40.137694" lon="-5.944646"><ele>794.7</ele><time>2013-11-20T13:35:30Z</time></trkpt><trkpt lat="40.137658" lon="-5.944639"><ele>794.0</ele><time>2013-11-20T13:35:40Z</time></trkpt><trkpt lat="40.137629" lon="-5.944697"><ele>793.9</ele><time>2013-11-20T13:35:49Z</time></trkpt><trkpt lat="40.137536" lon="-5.944821"><ele>793.2</ele><time>2013-11-20T13:35:57Z</time></trkpt><trkpt lat="40.137487" lon="-5.944901"><ele>793.0</ele><time>2013-11-20T13:36:07Z</time></trkpt><trkpt lat="40.137485" lon="-5.944993"><ele>793.7</ele><time>2013-11-20T13:36:16Z</time></trkpt><trkpt lat="40.137472" lon="-5.945053"><ele>794.1</ele><time>2013-11-20T13:36:24Z</time></trkpt><trkpt lat="40.137432" lon="-5.945160"><ele>794.6</ele><time>2013-11-20T13:36:34Z</time></trkpt><trkpt lat="40.137412" lon="-5.945192"><ele>794.7</ele><time>2013-11-20T13:36:43Z</time></trkpt></trkseg></trk></gpx>